Provisional Data: Starrucca Creek near Stevens Point, PA


Please select a monitoring station.
Please select start date.
Please select start date.

Toggle Unit: C/F Toggle Unit: C/F
Sample Time Temperature (C) Temperature (F) Specific Conductivity (mS/cm) pH   Turbidity (NTU+) DO (mg/L)
5/17/2022 12:00:00 AM 14.35 57.83 0.083 7.36 6.38 9.34
5/17/2022 12:15:00 AM 14.26 57.668 0.083 7.36 6.17 9.37
5/17/2022 12:30:00 AM 14.16 57.488 0.083 7.36 6.47 9.39
5/17/2022 12:45:00 AM 14.07 57.326 0.083 7.36 5.88 9.42
5/17/2022 1:00:00 AM 13.97 57.146 0.083 7.35 6.45 9.45
5/17/2022 1:15:00 AM 13.87 56.966 0.083 7.36 5.77 9.46
5/17/2022 1:30:00 AM 13.77 56.786 0.083 7.34 5.86 9.49
5/17/2022 1:45:00 AM 13.69 56.642 0.083 7.36 5.43 9.54
5/17/2022 2:00:00 AM 13.58 56.444 0.083 7.36 5.93 9.54
5/17/2022 2:15:00 AM 13.47 56.246 0.084 7.34 5.58 9.56
5/17/2022 2:30:00 AM 13.37 56.066 0.084 7.36 5.95 9.59
5/17/2022 2:45:00 AM 13.26 55.868 0.084 7.35 6.21 9.62
5/17/2022 3:00:00 AM 13.2 55.76 0.084 7.36 6 9.67
5/17/2022 3:15:00 AM 13.12 55.616 0.084 7.35 5.95 9.69
5/17/2022 3:30:00 AM 13.04 55.472 0.084 7.35 5.66 9.69
5/17/2022 3:45:00 AM 12.96 55.328 0.084 7.35 5.64 9.73
5/17/2022 4:00:00 AM 12.88 55.184 0.084 7.36 5.58 9.74
5/17/2022 4:15:00 AM 12.79 55.022 0.084 7.36 5.54 9.75
5/17/2022 4:30:00 AM 12.71 54.878 0.084 7.36 5.64 9.78
5/17/2022 4:45:00 AM 12.62 54.716 0.084 7.36 5.44 9.81
5/17/2022 5:00:00 AM 12.53 54.554 0.084 7.36 5.56 9.83
5/17/2022 5:15:00 AM 12.46 54.428 0.084 7.35 5.88 9.86
5/17/2022 5:30:00 AM 12.36 54.248 0.084 7.35 5.77 9.87
5/17/2022 5:45:00 AM 12.28 54.104 0.084 7.35 5.66 9.89
5/17/2022 6:00:00 AM 12.22 53.996 0.084 7.34 6.43 9.92
5/17/2022 6:15:00 AM 12.17 53.906 0.084 7.36 5.66 9.96
5/17/2022 6:30:00 AM 12.12 53.816 0.084 7.37 5.75 10.02
5/17/2022 6:45:00 AM 12.06 53.708 0.084 7.38 6.32 10.09
5/17/2022 7:00:00 AM 12.04 53.672 0.083 7.39 5.64 10.23
5/17/2022 7:15:00 AM 12.04 53.672 0.083 7.43 5.55 10.36
5/17/2022 7:30:00 AM 12.05 53.69 0.083 7.45 5.65 10.42
5/17/2022 7:45:00 AM 12.07 53.726 0.083 7.47 5.94 10.52
5/17/2022 8:00:00 AM 12.11 53.798 0.083 7.51 5.84 10.62
5/17/2022 8:15:00 AM 12.2 53.96 0.083 7.51 5.61 10.64
5/17/2022 8:30:00 AM 12.31 54.158 0.082 7.54 5.84 10.71
5/17/2022 8:45:00 AM 12.41 54.338 0.082 7.56 5.54 10.77
5/17/2022 9:00:00 AM 12.57 54.626 0.082 7.61 5.42 10.8
5/17/2022 9:15:00 AM 12.74 54.932 0.082 7.6 5.4 10.78
5/17/2022 9:30:00 AM 12.91 55.238 0.082 7.65 5.43 10.79
5/17/2022 9:45:00 AM 13.06 55.508 0.082 7.68 5.28 10.75
5/17/2022 10:00:00 AM 13.2 55.76 0.082 7.65 5.95 10.72
5/17/2022 10:15:00 AM 13.34 56.012 0.082 7.68 7.99 10.69
5/17/2022 10:30:00 AM 13.47 56.246 0.082 7.68 4.7 10.63
5/17/2022 10:45:00 AM 13.67 56.606 0.082 7.72 4.42 10.65
5/17/2022 11:00:00 AM 13.8 56.84 0.082 7.72 4.5 10.59
5/17/2022 11:15:00 AM 13.93 57.074 0.082 7.73 4.33 10.57
5/17/2022 11:30:00 AM 14.18 57.524 0.082 7.7 4.24 10.53
5/17/2022 11:45:00 AM 14.33 57.794 0.082 7.75 4.66 10.51
5/17/2022 12:00:00 PM 14.52 58.136 0.082 7.69 4.24 10.41
5/17/2022 12:15:00 PM 14.84 58.712 0.082 7.81 4.39 10.46
5/17/2022 12:30:00 PM 14.96 58.928 0.082 7.79 4.41 10.36
5/17/2022 12:45:00 PM 15.02 59.036 0.082 7.8 4.41 10.3
5/17/2022 1:00:00 PM 15.06 59.108 0.082 7.77 4.15 10.33
5/17/2022 1:15:00 PM 15.14 59.252 0.082 7.81 4.4 10.36
5/17/2022 1:30:00 PM 15.25 59.45 0.082 7.87 4.27 10.33
5/17/2022 1:45:00 PM 15.24 59.432 0.082 7.81 4.39 10.31
5/17/2022 2:00:00 PM 15.39 59.702 0.082 7.83 4.36 10.26
5/17/2022 2:15:00 PM 15.61 60.098 0.082 7.85 4.5 10.27
5/17/2022 2:30:00 PM 15.73 60.314 0.082 7.86 4.72 10.2
5/17/2022 2:45:00 PM 15.67 60.206 0.082 7.84 4.26 10.18
5/17/2022 3:00:00 PM 15.59 60.062 0.082 7.75 4.56 10.12
5/17/2022 3:15:00 PM 15.66 60.188 0.082 7.8 4.57 10.13
5/17/2022 3:30:00 PM 15.68 60.224 0.082 7.85 4.36 10.15
5/17/2022 3:45:00 PM 15.61 60.098 0.082 7.8 4.26 10.14
5/17/2022 4:00:00 PM 15.59 60.062 0.082 7.87 4.31 10.15
5/17/2022 4:15:00 PM 15.57 60.026 0.084 7.86 3.89 10.13
5/17/2022 4:30:00 PM 15.47 59.846 0.081 7.72 3.94 10.03
5/17/2022 4:45:00 PM 15.5 59.9 0.084 7.86 3.79 10.16
5/17/2022 5:00:00 PM 15.45 59.81 0.084 7.83 3.7 10.13
5/17/2022 5:15:00 PM 15.46 59.828 0.084 7.79 3.99 10.1
5/17/2022 5:30:00 PM 15.45 59.81 0.084 7.82 3.86 10.06
5/17/2022 5:45:00 PM 15.4 59.72 0.084 7.77 4.23 10.03
5/17/2022 6:00:00 PM 15.33 59.594 0.084 7.77 3.9 10.01
5/17/2022 6:15:00 PM 15.23 59.414 0.084 7.68 3.86 9.91
5/17/2022 6:30:00 PM 15.16 59.288 0.084 7.69 4.12 9.91
5/17/2022 6:45:00 PM 15.1 59.18 0.084 7.66 3.84 9.87
5/17/2022 7:00:00 PM 15 59 0.084 7.63 3.72 9.83
5/17/2022 7:15:00 PM 14.92 58.856 0.084 7.66 3.84 9.85
5/17/2022 7:30:00 PM 14.79 58.622 0.084 7.57 3.73 9.74
5/17/2022 7:45:00 PM 14.68 58.424 0.084 7.53 4.05 9.67
5/17/2022 8:00:00 PM 14.61 58.298 0.084 7.5 4.21 9.61
5/17/2022 8:15:00 PM 14.48 58.064 0.085 7.42 4 9.49
5/17/2022 8:30:00 PM 14.39 57.902 0.085 7.42 3.8 9.51
5/17/2022 8:45:00 PM 14.3 57.74 0.085 7.44 4.09 9.47
5/17/2022 9:00:00 PM 14.17 57.506 0.085 7.39 3.9 9.38
5/17/2022 9:15:00 PM 14.11 57.398 0.085 7.42 3.93 9.44
5/17/2022 9:30:00 PM 14.01 57.218 0.085 7.39 4.14 9.43
5/17/2022 9:45:00 PM 13.91 57.038 0.086 7.35 4 9.46
5/17/2022 10:00:00 PM 13.8 56.84 0.086 7.36 4.1 9.48
5/17/2022 10:15:00 PM 13.67 56.606 0.086 7.35 3.94 9.48
5/17/2022 10:30:00 PM 13.57 56.426 0.086 7.34 4.19 9.5
5/17/2022 10:45:00 PM 13.46 56.228 0.086 7.35 4.01 9.52
5/17/2022 11:00:00 PM 13.32 55.976 0.086 7.32 4.75 9.52
5/17/2022 11:15:00 PM 13.22 55.796 0.086 7.28 4.33 9.52
5/17/2022 11:30:00 PM 13.16 55.688 0.086 7.33 4.22 9.61
5/17/2022 11:45:00 PM 13.06 55.508 0.086 7.34 4.03 9.63
5/18/2022 12:00:00 AM 12.95 55.31 0.086 7.31 4.03 9.67
5/18/2022 12:15:00 AM 12.85 55.13 0.086 7.31 3.84 9.68
5/18/2022 12:30:00 AM 12.75 54.95 0.086 7.31 3.99 9.69
5/18/2022 12:45:00 AM 12.66 54.788 0.086 7.35 4.14 9.77
5/18/2022 1:00:00 AM 12.54 54.572 0.086 7.31 4.01 9.75
5/18/2022 1:15:00 AM 12.45 54.41 0.086 7.33 3.8 9.78
5/18/2022 1:30:00 AM 12.36 54.248 0.086 7.32 5.19 9.83
5/18/2022 1:45:00 AM 12.25 54.05 0.086 7.31 3.9 9.86
5/18/2022 2:00:00 AM 12.14 53.852 0.086 7.3 3.81 9.82
5/18/2022 2:15:00 AM 12.04 53.672 0.086 7.28 4 9.87
5/18/2022 2:30:00 AM 11.97 53.546 0.086 7.33 3.81 9.93
5/18/2022 2:45:00 AM 11.86 53.348 0.086 7.28 3.97 9.95
5/18/2022 3:00:00 AM 11.75 53.15 0.086 7.3 3.91 9.97
5/18/2022 3:15:00 AM 11.67 53.006 0.086 7.29 3.92 10.05
5/18/2022 3:30:00 AM 11.58 52.844 0.086 7.33 4.29 10.08
5/18/2022 3:45:00 AM 11.49 52.682 0.086 7.29 4.02 10.07
5/18/2022 4:00:00 AM 11.39 52.502 0.086 7.3 3.82 10.06
5/18/2022 4:15:00 AM 11.31 52.358 0.086 7.28 4.2 10.12
5/18/2022 4:30:00 AM 11.24 52.232 0.087 7.32 3.91 10.14
5/18/2022 4:45:00 AM 11.16 52.088 0.087 7.26 3.89 10.13
5/18/2022 5:00:00 AM 11.08 51.944 0.087 7.31 3.83 10.17
5/18/2022 5:15:00 AM 10.98 51.764 0.087 7.22 4.54 10.12
5/18/2022 5:30:00 AM 10.92 51.656 0.087 7.3 4.01 10.21
5/18/2022 5:45:00 AM 10.83 51.494 0.087 7.29 3.89 10.26
5/18/2022 6:00:00 AM 10.76 51.368 0.087 7.33 3.78 10.33
5/18/2022 6:15:00 AM 10.67 51.206 0.087 7.3 4.25 10.36
5/18/2022 6:30:00 AM 10.61 51.098 0.087 7.31 3.84 10.42
5/18/2022 6:45:00 AM 10.54 50.972 0.087 7.23 4.04 10.48
5/18/2022 7:00:00 AM 10.49 50.882 0.087 7.26 3.93 10.58
5/18/2022 7:15:00 AM 10.44 50.792 0.087 7.26 3.73 10.67
5/18/2022 7:30:00 AM 10.45 50.81 0.087 7.32 3.63 10.79
5/18/2022 7:45:00 AM 10.47 50.846 0.087 7.34 4.54 10.93
5/18/2022 8:00:00 AM 10.51 50.918 0.086 7.38 3.66 10.93
5/18/2022 8:15:00 AM 10.6 51.08 0.086 7.4 3.62 11.04
5/18/2022 8:30:00 AM 10.71 51.278 0.086 7.44 3.68 11.08
5/18/2022 8:45:00 AM 10.83 51.494 0.086 7.48 3.73 11.15
5/18/2022 9:00:00 AM 10.95 51.71 0.086 7.5 3.75 11.18
5/18/2022 9:15:00 AM 11.09 51.962 0.086 7.54 4.38 11.18
5/18/2022 9:30:00 AM 11.27 52.286 0.086 7.54 3.72 11.18
5/18/2022 9:45:00 AM 11.52 52.736 0.085 7.64 3.78 11.22
5/18/2022 10:00:00 AM 11.72 53.096 0.085 7.62 3.64 11.16
5/18/2022 10:15:00 AM 11.94 53.492 0.085 7.59 3.67 11.06
5/18/2022 10:30:00 AM 12.15 53.87 0.085 7.55 3.65 11.01
5/18/2022 10:45:00 AM 12.44 54.392 0.085 7.63 3.75 11.01
5/18/2022 11:00:00 AM 12.65 54.77 0.085 7.65 3.47 11
5/18/2022 11:15:00 AM 12.88 55.184 0.085 7.65 3.72 10.97
5/18/2022 11:30:00 AM 13.19 55.742 0.085 7.73 3.65 10.95
5/18/2022 11:45:00 AM 13.48 56.264 0.085 7.73 3.79 10.9
5/18/2022 12:00:00 PM 13.75 56.75 0.085 7.67 3.6 10.82
5/18/2022 12:15:00 PM 14.04 57.272 0.085 7.7 3.65 10.72
5/18/2022 12:30:00 PM 14.29 57.722 0.085 7.65 3.53 10.64
5/18/2022 12:45:00 PM 14.63 58.334 0.085 7.71 3.61 10.62
5/18/2022 1:00:00 PM 14.93 58.874 0.085 7.76 3.54 10.52
5/18/2022 1:15:00 PM 14.97 58.946 0.085 7.54 3.7 10.34
5/18/2022 1:30:00 PM 15.41 59.738 0.085 7.76 3.61 10.48
5/18/2022 1:45:00 PM 15.6 60.08 0.085 7.65 3.63 10.34
5/18/2022 2:00:00 PM 15.75 60.35 0.085 7.61 3.73 10.24
5/18/2022 2:15:00 PM 16.13 61.034 0.085 7.73 3.59 10.24
5/18/2022 2:30:00 PM 16.42 61.556 0.085 7.78 3.54 10.23
5/18/2022 2:45:00 PM 16.38 61.484 0.085 7.55 3.69 10.06
5/18/2022 3:00:00 PM 16.59 61.862 0.085 7.7 3.6 10.12
5/18/2022 3:15:00 PM 16.72 62.096 0.085 7.7 3.72 10.07
5/18/2022 3:30:00 PM 16.78 62.204 0.085 7.68 3.98 9.97
5/18/2022 3:45:00 PM 16.86 62.348 0.085 7.68 3.65 9.99
5/18/2022 4:00:00 PM 16.88 62.384 0.085 7.72 3.82 9.98
5/18/2022 4:15:00 PM 16.85 62.33 0.085 7.71 3.57 9.95
5/18/2022 4:30:00 PM 16.75 62.15 0.085 7.68 3.67 9.87
5/18/2022 4:45:00 PM 16.86 62.348 0.085 7.81 3.77 9.93
5/18/2022 5:00:00 PM 16.81 62.258 0.085 7.77 3.6 9.89
5/18/2022 5:15:00 PM 16.74 62.132 0.085 7.76 3.71 9.82
5/18/2022 5:30:00 PM 16.68 62.024 0.085 7.71 3.62 9.78
5/18/2022 5:45:00 PM 16.59 61.862 0.085 7.69 3.74 9.71
5/18/2022 6:00:00 PM 16.48 61.664 0.085 7.63 3.99 9.57
5/18/2022 6:15:00 PM 16.39 61.502 0.085 7.61 3.75 9.54
5/18/2022 6:30:00 PM 16.34 61.412 0.086 7.57 4.12 9.44
5/18/2022 6:45:00 PM 16.21 61.178 0.086 7.5 3.73 9.31
5/18/2022 7:00:00 PM 16.1 60.98 0.086 7.42 3.79 9.21
5/18/2022 7:15:00 PM 15.93 60.674 0.086 7.35 3.84 9.08
5/18/2022 7:30:00 PM 15.94 60.692 0.086 7.41 3.85 9.17
5/18/2022 7:45:00 PM 15.86 60.548 0.087 7.43 3.67 9.15
5/18/2022 8:00:00 PM 15.67 60.206 0.087 7.36 4.02 9.07
5/18/2022 8:15:00 PM 15.62 60.116 0.087 7.38 3.94 9.1
5/18/2022 8:30:00 PM 15.55 59.99 0.087 7.36 3.69 9.07
5/18/2022 8:45:00 PM 15.4 59.72 0.087 7.33 4.33 9.03
5/18/2022 9:00:00 PM 15.33 59.594 0.087 7.32 3.81 9.04
5/18/2022 9:15:00 PM 15.21 59.378 0.087 7.33 3.82 9
5/18/2022 9:30:00 PM 15.1 59.18 0.087 7.3 3.82 9.01
5/18/2022 9:45:00 PM 15.01 59.018 0.087 7.32 5.28 9.04
5/18/2022 10:00:00 PM 14.9 58.82 0.087 7.27 3.65 9.07
5/18/2022 10:15:00 PM 14.82 58.676 0.087 7.31 3.69 9.09
5/18/2022 10:30:00 PM 14.71 58.478 0.087 7.29 3.87 9.14
5/18/2022 10:45:00 PM 14.6 58.28 0.087 7.31 3.9 9.15
5/18/2022 11:00:00 PM 14.47 58.046 0.087 7.27 3.72 9.15
5/18/2022 11:15:00 PM 14.37 57.866 0.087 7.29 3.96 9.18
5/18/2022 11:30:00 PM 14.27 57.686 0.087 7.26 5.01 9.19
5/18/2022 11:45:00 PM 14.18 57.524 0.087 7.3 4.11 9.23
5/19/2022 12:00:00 AM 14.06 57.308 0.087 7.27 4.28 9.24
5/19/2022 12:15:00 AM 13.98 57.164 0.087 7.28 3.73 9.26
5/19/2022 12:30:00 AM 13.91 57.038 0.087 7.26 3.84 9.29
5/19/2022 12:45:00 AM 13.82 56.876 0.087 7.27 4.16 9.31
5/19/2022 1:00:00 AM 13.75 56.75 0.087 7.25 4.49 9.35
5/19/2022 1:15:00 AM 13.69 56.642 0.086 7.29 3.97 9.4
5/19/2022 1:30:00 AM 13.6 56.48 0.086 7.26 3.89 9.4
5/19/2022 1:45:00 AM 13.5 56.3 0.086 7.26 3.84 9.35
5/19/2022 2:00:00 AM 13.44 56.192 0.086 7.24 3.8 9.39
5/19/2022 2:15:00 AM 13.4 56.12 0.086 7.3 5.28 9.46
5/19/2022 2:30:00 AM 13.33 55.994 0.086 7.27 3.81 9.48
5/19/2022 2:45:00 AM 13.27 55.886 0.086 7.31 3.76 9.52
5/19/2022 3:00:00 AM 13.17 55.706 0.086 7.26 3.95 9.49
5/19/2022 3:15:00 AM 13.14 55.652 0.086 7.31 3.88 9.56
5/19/2022 3:30:00 AM 13.07 55.526 0.086 7.29 4.77 9.57
5/19/2022 3:45:00 AM 13 55.4 0.086 7.31 4.33 9.58
5/19/2022 4:00:00 AM 12.94 55.292 0.086 7.28 4.19 9.6
5/19/2022 4:15:00 AM 12.89 55.202 0.086 7.31 4.04 9.63
5/19/2022 4:30:00 AM 12.79 55.022 0.086 7.28 4.22 9.55
5/19/2022 4:45:00 AM 12.77 54.986 0.085 7.32 4.5 9.66
5/19/2022 5:00:00 AM 12.7 54.86 0.085 7.3 4.24 9.68
5/19/2022 5:15:00 AM 12.65 54.77 0.085 7.31 4.38 9.63
5/19/2022 5:30:00 AM 12.6 54.68 0.086 7.31 4.63 9.71
5/19/2022 5:45:00 AM 12.58 54.644 0.086 7.31 4.83 9.74
5/19/2022 6:00:00 AM 12.53 54.554 0.086 7.32 4.45 9.74
5/19/2022 6:15:00 AM 12.51 54.518 0.086 7.32 4.56 9.8
5/19/2022 6:30:00 AM 12.46 54.428 0.086 7.33 4.5 9.8
5/19/2022 6:45:00 AM 12.43 54.374 0.086 7.31 4.71 9.83
5/19/2022 7:00:00 AM 12.41 54.338 0.086 7.35 4.34 9.88
5/19/2022 7:15:00 AM 12.37 54.266 0.086 7.35 4.22 9.88
5/19/2022 7:30:00 AM 12.34 54.212 0.086 7.35 4.14 9.9
5/19/2022 7:45:00 AM 12.32 54.176 0.086 7.37 4.34 9.99
5/19/2022 8:00:00 AM 12.3 54.14 0.086 7.38 4.24 9.99
5/19/2022 8:15:00 AM 12.27 54.086 0.086 7.34 4 10.03
5/19/2022 8:30:00 AM 12.25 54.05 0.086 7.39 4.15 10.04
5/19/2022 8:45:00 AM 12.24 54.032 0.086 7.37 4.29 10.1
5/19/2022 9:00:00 AM 12.23 54.014 0.086 7.41 4.08 10.13
5/19/2022 9:15:00 AM 12.22 53.996 0.086 7.42 4.18 10.19
5/19/2022 9:30:00 AM 12.24 54.032 0.086 7.46 4.03 10.27
5/19/2022 9:45:00 AM 12.23 54.014 0.086 7.44 4.4 10.29
5/19/2022 10:00:00 AM 12.24 54.032 0.086 7.49 4.23 10.34
5/19/2022 10:15:00 AM 12.24 54.032 0.086 7.46 4.52 10.37
5/19/2022 10:30:00 AM 12.26 54.068 0.085 7.51 3.98 10.44
5/19/2022 10:45:00 AM 12.27 54.086 0.085 7.48 4.17 10.48
5/19/2022 11:00:00 AM 12.32 54.176 0.085 7.54 4.12 10.59
5/19/2022 11:15:00 AM 12.37 54.266 0.085 7.58 4.22 10.66
5/19/2022 11:30:00 AM 12.4 54.32 0.085 7.61 3.84 10.7
5/19/2022 11:45:00 AM 12.44 54.392 0.085 7.63 4.21 10.71
5/19/2022 12:00:00 PM 12.48 54.464 0.085 7.66 4.1 10.75
5/19/2022 12:15:00 PM 12.53 54.554 0.084 7.66 4.67 10.74
5/19/2022 12:30:00 PM 12.57 54.626 0.084 7.69 4.1 10.73
5/19/2022 12:45:00 PM 12.63 54.734 0.084 7.66 4.36 10.73
5/19/2022 1:00:00 PM 12.67 54.806 0.084 7.72 4.5 10.72
5/19/2022 1:15:00 PM 12.71 54.878 0.084 7.72 4.32 10.72
5/19/2022 1:30:00 PM 12.75 54.95 0.084 7.7 4.18 10.64
5/19/2022 1:45:00 PM 12.81 55.058 0.084 7.68 3.97 10.66
5/19/2022 2:00:00 PM 12.9 55.22 0.084 7.8 4.31 10.76
5/19/2022 2:15:00 PM 12.98 55.364 0.084 7.79 3.96 10.78
5/19/2022 2:30:00 PM 13.13 55.634 0.083 7.83 3.99 10.84
5/19/2022 2:45:00 PM 13.33 55.994 0.083 7.87 4.34 10.86
5/19/2022 3:00:00 PM 13.47 56.246 0.083 7.91 3.81 10.82
5/19/2022 3:15:00 PM 13.63 56.534 0.083 7.95 4.14 10.8
5/19/2022 3:30:00 PM 13.86 56.948 0.083 7.99 4.05 10.78
5/19/2022 3:45:00 PM 13.98 57.164 0.083 7.89 3.98 10.64
5/19/2022 4:00:00 PM 14.13 57.434 0.083 7.92 4.38 10.58
5/19/2022 4:15:00 PM 14.24 57.632 0.083 7.93 3.93 10.59
5/19/2022 4:30:00 PM 14.37 57.866 0.083 7.96 4.24 10.45
5/19/2022 4:45:00 PM 14.49 58.082 0.082 7.81 4.75 10.26
5/19/2022 5:00:00 PM 14.54 58.172 0.083 7.81 4.44 10.25
5/19/2022 5:15:00 PM 14.57 58.226 0.083 7.76 5.38 10.19
5/19/2022 5:30:00 PM 14.68 58.424 0.083 7.73 6.28 10.15
5/19/2022 5:45:00 PM 14.85 58.73 0.083 7.8 4.91 10.2
5/19/2022 6:00:00 PM 14.84 58.712 0.083 7.76 4.38 10.11
5/19/2022 6:15:00 PM 14.8 58.64 0.083 7.72 4.37 10.06
5/19/2022 6:30:00 PM 14.8 58.64 0.083 7.72 4.22 10.01
5/19/2022 6:45:00 PM 14.81 58.658 0.083 7.65 4.17 9.92
5/19/2022 7:00:00 PM 14.83 58.694 0.083 7.64 4.11 9.85
5/19/2022 7:15:00 PM 14.83 58.694 0.083 7.58 4.21 9.77
5/19/2022 7:30:00 PM 14.79 58.622 0.084 7.56 4.02 9.72
5/19/2022 7:45:00 PM 14.75 58.55 0.084 7.49 4.04 9.62
5/19/2022 8:00:00 PM 14.72 58.496 0.084 7.51 4.07 9.61
5/19/2022 8:15:00 PM 14.65 58.37 0.084 7.49 4.17 9.56
5/19/2022 8:30:00 PM 14.56 58.208 0.084 7.46 4.59 9.5
5/19/2022 8:45:00 PM 14.5 58.1 0.084 7.45 4.13 9.48
5/19/2022 9:00:00 PM 14.37 57.866 0.085 7.38 4.19 9.41
5/19/2022 9:15:00 PM 14.31 57.758 0.085 7.39 4.18 9.43
5/19/2022 9:30:00 PM 14.17 57.506 0.085 7.4 4.11 9.44
5/19/2022 9:45:00 PM 14.13 57.434 0.085 7.36 4.01 9.44
5/19/2022 10:00:00 PM 14.03 57.254 0.085 7.37 4.07 9.45
5/19/2022 10:15:00 PM 13.96 57.128 0.085 7.34 3.92 9.48
5/19/2022 10:30:00 PM 13.88 56.984 0.085 7.38 4.13 9.5
5/19/2022 10:45:00 PM 13.8 56.84 0.085 7.34 4.14 9.5
5/19/2022 11:00:00 PM 13.72 56.696 0.085 7.36 4.02 9.52
5/19/2022 11:15:00 PM 13.62 56.516 0.085 7.33 4.12 9.55
5/19/2022 11:30:00 PM 13.54 56.372 0.085 7.36 4.18 9.56
5/19/2022 11:45:00 PM 13.44 56.192 0.085 7.32 4.01 9.58
5/20/2022 12:00:00 AM 13.35 56.03 0.085 7.34 4.1 9.6
5/20/2022 12:15:00 AM 13.27 55.886 0.085 7.34 4.05 9.67
5/20/2022 12:30:00 AM 13.19 55.742 0.085 7.33 4.19 9.67
5/20/2022 12:45:00 AM 13.11 55.598 0.085 7.34 4.18 9.71
5/20/2022 1:00:00 AM 13.02 55.436 0.085 7.35 4.03 9.7
5/20/2022 1:15:00 AM 12.97 55.346 0.085 7.35 4.04 9.73
5/20/2022 1:30:00 AM 12.9 55.22 0.085 7.35 3.98 9.76
5/20/2022 1:45:00 AM 12.81 55.058 0.085 7.35 3.96 9.77
5/20/2022 2:00:00 AM 12.72 54.896 0.085 7.37 4.04 9.82
5/20/2022 2:15:00 AM 12.63 54.734 0.085 7.33 4.07 9.82
5/20/2022 2:30:00 AM 12.55 54.59 0.085 7.35 3.87 9.84
5/20/2022 2:45:00 AM 12.46 54.428 0.085 7.31 4.09 9.84
5/20/2022 3:00:00 AM 12.38 54.284 0.085 7.35 4.08 9.88
5/20/2022 3:15:00 AM 12.31 54.158 0.085 7.32 5.74 9.89
5/20/2022 3:30:00 AM 12.24 54.032 0.085 7.33 4.56 9.9
5/20/2022 3:45:00 AM 12.21 53.978 0.086 7.31 3.95 9.93
5/20/2022 4:00:00 AM 12.16 53.888 0.086 7.34 3.99 9.93
5/20/2022 4:15:00 AM 12.11 53.798 0.086 7.29 4.14 9.93
5/20/2022 4:30:00 AM 12.09 53.762 0.086 7.34 3.75 9.97
5/20/2022 4:45:00 AM 12.02 53.636 0.086 7.27 4.09 9.95
5/20/2022 5:00:00 AM 11.99 53.582 0.086 7.35 4.14 10
5/20/2022 5:15:00 AM 11.93 53.474 0.086 7.32 4.43 10.03
5/20/2022 5:30:00 AM 11.87 53.366 0.086 7.34 4.41 10.03
5/20/2022 5:45:00 AM 11.81 53.258 0.086 7.32 4.32 10.06
5/20/2022 6:00:00 AM 11.76 53.168 0.086 7.35 3.92 10.12
5/20/2022 6:15:00 AM 11.71 53.078 0.086 7.34 3.97 10.21
5/20/2022 6:30:00 AM 11.66 52.988 0.086 7.37 4.09 10.27
5/20/2022 6:45:00 AM 11.6 52.88 0.086 7.32 3.84 10.34
5/20/2022 7:00:00 AM 11.57 52.826 0.085 7.39 3.84 10.47
5/20/2022 7:15:00 AM 11.59 52.862 0.085 7.41 3.63 10.6
5/20/2022 7:30:00 AM 11.59 52.862 0.085 7.43 3.71 10.69
5/20/2022 7:45:00 AM 11.64 52.952 0.085 7.46 3.81 10.82
5/20/2022 8:00:00 AM 11.71 53.078 0.085 7.52 3.58 10.91
5/20/2022 8:15:00 AM 11.8 53.24 0.085 7.53 3.71 10.97
5/20/2022 8:30:00 AM 11.92 53.456 0.084 7.56 3.65 10.97
5/20/2022 8:45:00 AM 12.02 53.636 0.084 7.56 3.85 11.02
5/20/2022 9:00:00 AM 12.16 53.888 0.084 7.61 3.7 11.02
5/20/2022 9:15:00 AM 12.36 54.248 0.084 7.65 3.68 11.09
5/20/2022 9:30:00 AM 12.56 54.608 0.084 7.72 3.69 11.1
5/20/2022 9:45:00 AM 12.82 55.076 0.084 7.74 3.69 11.07
5/20/2022 10:00:00 AM 13.01 55.418 0.084 7.69 3.62 11.01
5/20/2022 10:15:00 AM 13.22 55.796 0.084 7.72 3.59 10.96
5/20/2022 10:30:00 AM 13.4 56.12 0.083 7.81 3.49 10.94
5/20/2022 10:45:00 AM 13.5 56.3 0.083 7.86 3.69 10.91
5/20/2022 11:00:00 AM 13.57 56.426 0.083 7.84 3.58 10.84
5/20/2022 11:15:00 AM 13.67 56.606 0.083 7.86 3.66 10.82
5/20/2022 11:30:00 AM 13.75 56.75 0.083 7.89 3.61 10.78
5/20/2022 11:45:00 AM 13.85 56.93 0.083 7.81 3.78 10.77
5/20/2022 12:00:00 PM 13.99 57.182 0.083 7.94 3.62 10.8
5/20/2022 12:15:00 PM 14.11 57.398 0.083 7.92 3.74 10.78
5/20/2022 12:30:00 PM 14.28 57.704 0.083 8.05 3.6 10.81
5/20/2022 12:45:00 PM 14.32 57.776 0.083 7.98 3.65 10.7
5/20/2022 1:00:00 PM 14.34 57.812 0.083 7.94 3.58 10.6
5/20/2022 1:15:00 PM 14.4 57.92 0.083 7.97 3.97 10.6
5/20/2022 1:30:00 PM 14.5 58.1 0.083 7.91 3.65 10.58
5/20/2022 1:45:00 PM 14.69 58.442 0.083 7.87 3.74 10.55
5/20/2022 2:00:00 PM 14.88 58.784 0.083 7.96 3.5 10.55
5/20/2022 2:15:00 PM 15.18 59.324 0.083 8.06 3.76 10.59
5/20/2022 2:30:00 PM 15.46 59.828 0.083 8.06 3.63 10.52
5/20/2022 2:45:00 PM 15.76 60.368 0.082 8.08 3.71 10.47
5/20/2022 3:00:00 PM 16.06 60.908 0.082 8.2 3.58 10.37
5/20/2022 3:15:00 PM 16.08 60.944 0.083 8 3.67 10.18
5/20/2022 3:30:00 PM 16.18 61.124 0.082 8.01 3.61 10.24
5/20/2022 3:45:00 PM 16.32 61.376 0.082 7.98 3.67 10.2
5/20/2022 4:00:00 PM 16.65 61.97 0.082 8.11 3.59 10.18
5/20/2022 4:15:00 PM 16.74 62.132 0.082 7.97 3.75 10.1
5/20/2022 4:30:00 PM 16.93 62.474 0.083 8.27 3.83 10.15
5/20/2022 4:45:00 PM 16.86 62.348 0.083 7.99 4.05 10.06
5/20/2022 5:00:00 PM 16.95 62.51 0.083 8.16 3.59 10.07
5/20/2022 5:15:00 PM 16.93 62.474 0.083 7.96 3.81 9.92
5/20/2022 5:30:00 PM 16.98 62.564 0.083 7.99 3.58 9.81
5/20/2022 5:45:00 PM 16.86 62.348 0.083 7.81 3.58 9.59
5/20/2022 6:00:00 PM 16.89 62.402 0.083 7.72 3.75 9.52
5/20/2022 6:15:00 PM 16.91 62.438 0.083 7.64 3.67 9.45
5/20/2022 6:30:00 PM 16.86 62.348 0.083 7.57 3.69 9.36
5/20/2022 6:45:00 PM 16.88 62.384 0.083 7.58 3.64 9.46
5/20/2022 7:00:00 PM 16.72 62.096 0.084 7.5 3.52 9.34
5/20/2022 7:15:00 PM 16.73 62.114 0.084 7.52 3.71 9.28
5/20/2022 7:30:00 PM 16.66 61.988 0.084 7.48 3.81 9.18
5/20/2022 7:45:00 PM 16.58 61.844 0.084 7.46 3.79 9.03
5/20/2022 8:00:00 PM 16.49 61.682 0.085 7.42 3.7 8.97
5/20/2022 8:15:00 PM 16.52 61.736 0.085 7.41 3.94 8.98
5/20/2022 8:30:00 PM 16.48 61.664 0.085 7.43 3.61 8.99
5/20/2022 8:45:00 PM 16.37 61.466 0.085 7.34 3.69 8.94
5/20/2022 9:00:00 PM 16.39 61.502 0.085 7.41 3.81 8.97
5/20/2022 9:15:00 PM 16.28 61.304 0.085 7.35 3.9 8.91
5/20/2022 9:30:00 PM 16.26 61.268 0.086 7.35 3.86 8.92
5/20/2022 9:45:00 PM 16.16 61.088 0.086 7.28 3.92 8.9
5/20/2022 10:00:00 PM 16.13 61.034 0.086 7.32 4.73 8.91
5/20/2022 10:15:00 PM 16.06 60.908 0.086 7.29 4.63 8.92
5/20/2022 10:30:00 PM 16.02 60.836 0.086 7.33 3.97 8.96
5/20/2022 10:45:00 PM 15.84 60.512 0.086 7.26 3.93 8.93
5/20/2022 11:00:00 PM 15.83 60.494 0.086 7.31 3.91 9.01
5/20/2022 11:15:00 PM 15.75 60.35 0.086 7.3 3.76 9.03
5/20/2022 11:30:00 PM 15.65 60.17 0.086 7.31 4.02 9.02
5/20/2022 11:45:00 PM 15.58 60.044 0.086 7.27 4.07 9.05
5/21/2022 12:00:00 AM 15.44 59.792 0.086 7.24 3.92 9.01
5/21/2022 12:15:00 AM 15.43 59.774 0.086 7.28 4.18 8.98
5/21/2022 12:30:00 AM 15.36 59.648 0.086 7.26 4.03 9.04
5/21/2022 12:45:00 AM 15.36 59.648 0.087 7.31 3.9 9.13
5/21/2022 1:00:00 AM 15.28 59.504 0.087 7.31 3.86 9.15
5/21/2022 1:15:00 AM 15.22 59.396 0.087 7.25 3.71 9.11
5/21/2022 1:30:00 AM 15.16 59.288 0.087 7.26 3.77 9.12
5/21/2022 1:45:00 AM 15.1 59.18 0.087 7.25 3.79 9.15
5/21/2022 2:00:00 AM 15.06 59.108 0.087 7.28 3.67 9.17
5/21/2022 2:15:00 AM 15.02 59.036 0.087 7.25 3.96 9.23
5/21/2022 2:30:00 AM 14.92 58.856 0.087 7.27 3.65 9.19
5/21/2022 2:45:00 AM 14.91 58.838 0.087 7.25 3.89 9.23
5/21/2022 3:00:00 AM 14.83 58.694 0.087 7.26 3.91 9.22
5/21/2022 3:15:00 AM 14.8 58.64 0.087 7.26 4.57 9.28
5/21/2022 3:30:00 AM 14.74 58.532 0.087 7.25 3.69 9.27
5/21/2022 3:45:00 AM 14.67 58.406 0.087 7.24 4.17 9.26
5/21/2022 4:00:00 AM 14.63 58.334 0.087 7.26 4.27 9.3
5/21/2022 4:15:00 AM 14.57 58.226 0.087 7.23 3.72 9.31
5/21/2022 4:30:00 AM 14.5 58.1 0.087 7.22 3.66 9.3
5/21/2022 4:45:00 AM 14.49 58.082 0.087 7.23 3.77 9.35
5/21/2022 5:00:00 AM 14.4 57.92 0.087 7.22 4.83 9.29
5/21/2022 5:15:00 AM 14.43 57.974 0.087 7.23 3.75 9.37
5/21/2022 5:30:00 AM 14.37 57.866 0.087 7.23 3.75 9.32
5/21/2022 5:45:00 AM 14.37 57.866 0.087 7.23 4.11 9.38
5/21/2022 6:00:00 AM 14.32 57.776 0.087 7.24 3.99 9.37
5/21/2022 6:15:00 AM 14.34 57.812 0.087 7.26 3.77 9.49
5/21/2022 6:30:00 AM 14.31 57.758 0.087 7.28 3.59 9.53
5/21/2022 6:45:00 AM 14.27 57.686 0.087 7.29 4.3 9.61
5/21/2022 7:00:00 AM 14.29 57.722 0.087 7.33 3.56 9.73
5/21/2022 7:15:00 AM 14.23 57.614 0.087 7.26 4.31 9.76
5/21/2022 7:30:00 AM 14.28 57.704 0.087 7.37 3.73 9.97
5/21/2022 7:45:00 AM 14.3 57.74 0.087 7.36 4.13 10.08
5/21/2022 8:00:00 AM 14.31 57.758 0.086 7.41 3.99 10.15
5/21/2022 8:15:00 AM 14.41 57.938 0.086 7.44 3.86 10.26
5/21/2022 8:30:00 AM 14.5 58.1 0.086 7.52 3.91 10.35
5/21/2022 8:45:00 AM 14.64 58.352 0.086 7.51 3.9 10.4
5/21/2022 9:00:00 AM 14.8 58.64 0.086 7.54 3.76 10.48
5/21/2022 9:15:00 AM 15 59 0.085 7.64 4.05 10.53
5/21/2022 9:30:00 AM 15.15 59.27 0.085 7.63 3.86 10.47
5/21/2022 9:45:00 AM 15.35 59.63 0.085 7.55 3.89 10.45
5/21/2022 10:00:00 AM 15.66 60.188 0.085 7.67 3.93 10.49
5/21/2022 10:15:00 AM 16.03 60.854 0.085 7.77 3.74 10.5
5/21/2022 10:30:00 AM 16.27 61.286 0.085 7.76 4.03 10.42
5/21/2022 10:45:00 AM 16.6 61.88 0.085 7.78 3.85 10.38
5/21/2022 11:00:00 AM 16.96 62.528 0.085 7.89 3.96 10.34
5/21/2022 11:15:00 AM 17.15 62.87 0.085 7.81 4.58 10.19
5/21/2022 11:30:00 AM 17.62 63.716 0.085 8.03 3.83 10.24
5/21/2022 11:45:00 AM 17.91 64.238 0.084 8.01 3.86 10.11
5/21/2022 12:00:00 PM 18.06 64.508 0.084 7.75 3.75 9.92
5/21/2022 12:15:00 PM 18.64 65.552 0.084 8.15 3.79 10.03
5/21/2022 12:30:00 PM 18.91 66.038 0.084 7.95 4.28 9.87
5/21/2022 12:45:00 PM 19.2 66.56 0.084 8.09 3.91 9.79
5/21/2022 1:00:00 PM 19.51 67.118 0.084 8.17 3.77 9.74
5/21/2022 1:15:00 PM 19.87 67.766 0.084 8.19 3.82 9.73
5/21/2022 1:30:00 PM 20.23 68.414 0.084 8.3 3.93 9.66
5/21/2022 1:45:00 PM 20.46 68.828 0.084 8.38 3.99 9.52
5/21/2022 2:00:00 PM 20.92 69.656 0.084 8.41 3.92 9.46
5/21/2022 2:15:00 PM 21.03 69.854 0.084 8.22 3.96 9.36
5/21/2022 2:30:00 PM 21.38 70.484 0.084 8.37 4 9.33
5/21/2022 2:45:00 PM 21.49 70.682 0.084 8.11 4.3 9.18
5/21/2022 3:00:00 PM 21.75 71.15 0.084 8.33 4.17 9.14
5/21/2022 3:15:00 PM 21.98 71.564 0.084 8.39 4.07 9.17
5/21/2022 3:30:00 PM 21.89 71.402 0.084 8.09 4.1 8.99
5/21/2022 3:45:00 PM 22.07 71.726 0.084 8.17 4.02 9.02
5/21/2022 4:00:00 PM 22.09 71.762 0.084 8.16 3.95 8.99
5/21/2022 4:15:00 PM 22.16 71.888 0.085 8.03 3.88 8.94
5/21/2022 4:30:00 PM 22.22 71.996 0.085 8.07 4.26 8.91
5/21/2022 4:45:00 PM 22.23 72.014 0.085 7.96 3.89 8.85
5/21/2022 5:00:00 PM 22.19 71.942 0.085 8.02 3.99 8.81
5/21/2022 5:15:00 PM 22.12 71.816 0.085 7.83 3.84 8.76
5/21/2022 5:30:00 PM 22.16 71.888 0.085 7.84 4.28 8.7
5/21/2022 5:45:00 PM 22.15 71.87 0.085 7.82 3.94 8.65
5/21/2022 6:00:00 PM 22.13 71.834 0.086 7.77 3.92 8.6
5/21/2022 6:15:00 PM 21.99 71.582 0.086 7.64 4.07 8.52
5/21/2022 6:30:00 PM 21.97 71.546 0.086 7.73 4.16 8.53
5/21/2022 6:45:00 PM 21.86 71.348 0.087 7.55 3.96 8.44
5/21/2022 7:00:00 PM 21.73 71.114 0.087 7.52 3.75 8.34
5/21/2022 7:15:00 PM 21.67 71.006 0.087 7.47 4 8.28
5/21/2022 7:30:00 PM 21.48 70.664 0.087 7.44 3.87 8.19
5/21/2022 7:45:00 PM 21.33 70.394 0.087 7.39 3.86 8.11
5/21/2022 8:00:00 PM 21.28 70.304 0.088 7.38 4.04 8.05
5/21/2022 8:15:00 PM 21.15 70.07 0.088 7.35 3.86 8.07
5/21/2022 8:30:00 PM 21.02 69.836 0.088 7.35 3.86 8.01
5/21/2022 8:45:00 PM 20.86 69.548 0.089 7.32 4.22 7.96
5/21/2022 9:00:00 PM 20.72 69.296 0.089 7.31 3.95 7.98
5/21/2022 9:15:00 PM 20.55 68.99 0.089 7.26 3.93 7.95
5/21/2022 9:30:00 PM 20.36 68.648 0.088 7.27 4.11 7.96
5/21/2022 9:45:00 PM 20.2 68.36 0.088 7.21 4 7.86
5/21/2022 10:00:00 PM 20.07 68.126 0.087 7.23 3.8 8
5/21/2022 10:15:00 PM 20 68 0.087 7.25 4.03 8.05
5/21/2022 10:30:00 PM 19.84 67.712 0.087 7.22 4.14 8.01
5/21/2022 10:45:00 PM 19.68 67.424 0.086 7.17 4.02 8.06
5/21/2022 11:00:00 PM 19.55 67.19 0.086 7.18 3.88 8.03
5/21/2022 11:15:00 PM 19.43 66.974 0.086 7.16 3.91 8.06
5/21/2022 11:30:00 PM 19.35 66.83 0.086 7.21 4.18 8.06
5/21/2022 11:45:00 PM 19.27 66.686 0.086 7.2 3.94 8.14
5/22/2022 12:00:00 AM 19.18 66.524 0.086 7.23 4.37 8.22
5/22/2022 12:15:00 AM 19.03 66.254 0.086 7.19 3.99 8.2
5/22/2022 12:30:00 AM 18.91 66.038 0.087 7.2 4.14 8.19
5/22/2022 12:45:00 AM 18.82 65.876 0.087 7.16 3.98 8.25
5/22/2022 1:00:00 AM 18.73 65.714 0.087 7.2 4.05 8.26
5/22/2022 1:15:00 AM 18.59 65.462 0.087 7.14 4.31 8.25
5/22/2022 1:30:00 AM 18.54 65.372 0.087 7.19 3.97 8.29
5/22/2022 1:45:00 AM 18.48 65.264 0.088 7.17 5.48 8.33
5/22/2022 2:00:00 AM 18.33 64.994 0.088 7.18 3.96 8.31
5/22/2022 2:15:00 AM 18.28 64.904 0.088 7.17 3.92 8.36
5/22/2022 2:30:00 AM 18.19 64.742 0.088 7.2 4 8.41
5/22/2022 2:45:00 AM 18.07 64.526 0.088 7.15 4.14 8.4
5/22/2022 3:00:00 AM 17.97 64.346 0.088 7.17 4.03 8.38
5/22/2022 3:15:00 AM 17.91 64.238 0.088 7.17 3.88 8.44
5/22/2022 3:30:00 AM 17.82 64.076 0.088 7.19 4.02 8.45
5/22/2022 3:45:00 AM 17.7 63.86 0.088 7.14 4.08 8.47
5/22/2022 4:00:00 AM 17.57 63.626 0.088 7.19 4.01 8.49
5/22/2022 4:15:00 AM 17.55 63.59 0.089 7.17 4.28 8.51
5/22/2022 4:30:00 AM 17.45 63.41 0.088 7.19 4.28 8.54
5/22/2022 4:45:00 AM 17.41 63.338 0.089 7.2 4.31 8.62
5/22/2022 5:00:00 AM 17.25 63.05 0.089 7.18 4.47 8.59
5/22/2022 5:15:00 AM 17.07 62.726 0.089 7.11 4.43 8.52
5/22/2022 5:30:00 AM 17.1 62.78 0.089 7.21 4.67 8.66
5/22/2022 5:45:00 AM 17 62.6 0.089 7.17 4.27 8.66
5/22/2022 6:00:00 AM 16.92 62.456 0.089 7.21 4.1 8.74
5/22/2022 6:15:00 AM 16.76 62.168 0.089 7.14 6.01 8.71
5/22/2022 6:30:00 AM 16.73 62.114 0.089 7.2 4.72 8.84
5/22/2022 6:45:00 AM 16.74 62.132 0.089 7.21 4.52 8.96
5/22/2022 7:00:00 AM 16.65 61.97 0.089 7.26 4.36 9.13
5/22/2022 7:15:00 AM 16.7 62.06 0.089 7.31 4.43 9.33
5/22/2022 7:30:00 AM 16.67 62.006 0.089 7.34 4.42 9.43
5/22/2022 7:45:00 AM 16.53 61.754 0.089 7.23 4.14 9.34
5/22/2022 8:00:00 AM 16.6 61.88 0.089 7.34 4.43 9.57
5/22/2022 8:15:00 AM 16.69 62.042 0.089 7.36 4.14 9.69
5/22/2022 8:30:00 AM 16.71 62.078 0.088 7.39 4.18 9.72
5/22/2022 8:45:00 AM 16.79 62.222 0.088 7.42 4.21 9.85
5/22/2022 9:00:00 AM 16.91 62.438 0.088 7.47 3.99 9.92
5/22/2022 9:15:00 AM 17.08 62.744 0.088 7.49 4.41 9.99
5/22/2022 9:30:00 AM 17.31 63.158 0.088 7.59 3.85 10.09
5/22/2022 9:45:00 AM 17.42 63.356 0.087 7.49 3.97 10.06
5/22/2022 10:00:00 AM 17.61 63.698 0.084 7.61 4.96 10.09
5/22/2022 10:15:00 AM 17.73 63.914 0.087 7.69 4.02 10.09
5/22/2022 10:30:00 AM 17.84 64.112 0.087 7.75 4.09 10.1
5/22/2022 10:45:00 AM 17.93 64.274 0.087 7.71 4.22 10.04
5/22/2022 11:00:00 AM 18.14 64.652 0.087 7.82 4.12 10.08
5/22/2022 11:15:00 AM 18.35 65.03 0.087 7.78 3.99 10.03
5/22/2022 11:30:00 AM 18.57 65.426 0.087 8 4.13 10
5/22/2022 11:45:00 AM 19.02 66.236 0.086 8.25 4.17 10.02
5/22/2022 12:00:00 PM 19.33 66.794 0.086 8.36 4.12 10
5/22/2022 12:15:00 PM 19.56 67.208 0.086 8.31 4.11 9.94
5/22/2022 12:30:00 PM 19.82 67.676 0.086 8.4 4.25 9.9
5/22/2022 12:45:00 PM 20.14 68.252 0.086 8.51 4.29 9.85
5/22/2022 1:00:00 PM 20.44 68.792 0.086 8.6 4.31 9.78
5/22/2022 1:15:00 PM 20.8 69.44 0.086 8.68 4.1 9.75
5/22/2022 1:30:00 PM 21.12 70.016 0.086 8.73 4.11 9.63
5/22/2022 1:45:00 PM 21.27 70.286 0.085 8.55 3.88 9.53
5/22/2022 2:00:00 PM 21.66 70.988 0.086 8.76 3.89 9.52
5/22/2022 2:15:00 PM 21.84 71.312 0.086 8.78 3.95 9.5
5/22/2022 2:30:00 PM 22.06 71.708 0.086 8.86 4.07 9.46
5/22/2022 2:45:00 PM 22.19 71.942 0.085 8.78 4.1 9.37
5/22/2022 3:00:00 PM 22.34 72.212 0.086 8.81 4.12 9.28
5/22/2022 3:15:00 PM 22.52 72.536 0.086 8.87 5.42 9.23
5/22/2022 3:30:00 PM 22.53 72.554 0.086 8.81 4.57 9.06
5/22/2022 3:45:00 PM 22.54 72.57201 0.086 8.75 4.3 9.04
5/22/2022 4:00:00 PM 22.41 72.338 0.086 8.62 4.31 8.92
5/22/2022 4:15:00 PM 22.14 71.852 0.085 8.15 6.14 8.62
5/22/2022 4:30:00 PM 21.84 71.312 0.081 7.88 10.13 8.35
5/22/2022 4:45:00 PM 21.72 71.096 0.086 7.66 51.58 8.15
5/22/2022 5:00:00 PM 21.59 70.862 0.084 7.59 22.75 8.1
5/22/2022 5:15:00 PM 21.31 70.358 0.082 7.46 24.72 8.12
5/22/2022 5:30:00 PM 21.23 70.214 0.081 7.49 29.53 8.32
5/22/2022 5:45:00 PM 21.22 70.196 0.081 7.51 22.99 8.5
5/22/2022 6:00:00 PM 21.19 70.142 0.081 7.62 13.96 8.62
5/22/2022 6:15:00 PM 21.13 70.034 0.082 7.63 11.7 8.59
5/22/2022 6:30:00 PM 21.04 69.872 0.082 7.61 11.94 8.41
5/22/2022 6:45:00 PM 20.98 69.764 0.082 7.54 19.25 8.29
5/22/2022 7:00:00 PM 20.8 69.44 0.081 7.51 22.2 8.27
5/22/2022 7:15:00 PM 20.56 69.008 0.079 7.46 34.21 8.26
5/22/2022 7:30:00 PM 20.29 68.522 0.078 7.44 66.21 8.29
5/22/2022 7:45:00 PM 19.98 67.964 0.076 7.4 97.24 8.31
5/22/2022 8:00:00 PM 19.65 67.37 0.074 7.4 110.61 8.35
5/22/2022 8:15:00 PM 19.35 66.83 0.073 7.34 107.48 8.41
5/22/2022 8:30:00 PM 19.1 66.38 0.072 7.37 80.25 8.48
5/22/2022 8:45:00 PM 18.89 66.002 0.072 7.35 69.54 8.54
5/22/2022 9:00:00 PM 18.7 65.66 0.072 7.37 72.52 8.59
5/22/2022 9:15:00 PM 18.53 65.354 0.072 7.35 62.13 8.64
5/22/2022 9:30:00 PM 18.37 65.066 0.072 7.37 50.13 8.69
5/22/2022 9:45:00 PM 18.21 64.778 0.073 7.35 38.3 8.75
5/22/2022 10:00:00 PM 18.05 64.49 0.073 7.38 30.61 8.78
5/22/2022 10:15:00 PM 17.9 64.22 0.073 7.36 27.78 8.8
5/22/2022 10:30:00 PM 17.75 63.95 0.073 7.36 23 8.85
5/22/2022 10:45:00 PM 17.61 63.698 0.073 7.36 21.65 8.88
5/22/2022 11:00:00 PM 17.48 63.464 0.073 7.38 20.8 8.91
5/22/2022 11:15:00 PM 17.36 63.248 0.074 7.36 18.22 8.93
5/22/2022 11:30:00 PM 17.23 63.014 0.074 7.38 16.9 8.95
5/22/2022 11:45:00 PM 17.11 62.798 0.075 7.35 15.74 8.99
5/23/2022 12:00:00 AM 16.99 62.582 0.076 7.39 14.77 9.02
5/23/2022 12:15:00 AM 16.87 62.366 0.076 7.37 14.32 9.05
5/23/2022 12:30:00 AM 16.75 62.15 0.077 7.39 13.53 9.07
5/23/2022 12:45:00 AM 16.64 61.952 0.077 7.36 12.63 9.09
5/23/2022 1:00:00 AM 16.52 61.736 0.077 7.39 11.43 9.11
5/23/2022 1:15:00 AM 16.42 61.556 0.078 7.37 11.04 9.14
5/23/2022 1:30:00 AM 16.32 61.376 0.078 7.38 10.56 9.17
5/23/2022 1:45:00 AM 16.21 61.178 0.078 7.37 10.67 9.19
5/23/2022 2:00:00 AM 16.09 60.962 0.078 7.38 9.85 9.22
5/23/2022 2:15:00 AM 15.97 60.746 0.079 7.35 9.68 9.23
5/23/2022 2:30:00 AM 15.86 60.548 0.079 7.38 8.83 9.25
5/23/2022 2:45:00 AM 15.74 60.332 0.079 7.36 9.76 9.29
5/23/2022 3:00:00 AM 15.63 60.134 0.079 7.38 8.75 9.33
5/23/2022 3:15:00 AM 15.54 59.972 0.079 7.36 8.79 9.37
5/23/2022 3:30:00 AM 15.45 59.81 0.079 7.37 7.98 9.38
5/23/2022 3:45:00 AM 15.36 59.648 0.079 7.36 8.45 9.4
5/23/2022 4:00:00 AM 15.28 59.504 0.079 7.38 9.13 9.41
5/23/2022 4:15:00 AM 15.2 59.36 0.079 7.36 7.6 9.44
5/23/2022 4:30:00 AM 15.1 59.18 0.079 7.38 7.57 9.47
5/23/2022 4:45:00 AM 15.02 59.036 0.079 7.36 7.16 9.49
5/23/2022 5:00:00 AM 14.93 58.874 0.079 7.38 7.33 9.52
5/23/2022 5:15:00 AM 14.83 58.694 0.079 7.37 7.21 9.54
5/23/2022 5:30:00 AM 14.75 58.55 0.079 7.37 7.9 9.56
5/23/2022 5:45:00 AM 14.67 58.406 0.079 7.34 6.61 9.57
5/23/2022 6:00:00 AM 14.58 58.244 0.079 7.38 6.52 9.6
5/23/2022 6:15:00 AM 14.5 58.1 0.079 7.37 6.72 9.67
5/23/2022 6:30:00 AM 14.44 57.992 0.079 7.41 6.12 9.78
5/23/2022 6:45:00 AM 14.4 57.92 0.08 7.39 6.5 9.84
5/23/2022 7:00:00 AM 14.37 57.866 0.08 7.44 5.8 9.91
5/23/2022 7:15:00 AM 14.32 57.776 0.08 7.42 5.41 9.95
5/23/2022 7:30:00 AM 14.29 57.722 0.08 7.46 5.3 10.01
5/23/2022 7:45:00 AM 14.27 57.686 0.08 7.46 5.47 10.1
5/23/2022 8:00:00 AM 14.25 57.65 0.08 7.51 5.03 10.22
5/23/2022 8:15:00 AM 14.23 57.614 0.08 7.53 5.56 10.28
5/23/2022 8:30:00 AM 14.2 57.56 0.08 7.56 9.33 10.32
5/23/2022 8:45:00 AM 14.22 57.596 0.08 7.58 5.2 10.45
5/23/2022 9:00:00 AM 14.27 57.686 0.08 7.65 5.25 10.58
5/23/2022 9:15:00 AM 14.34 57.812 0.08 7.65 4.78 10.63
5/23/2022 9:30:00 AM 14.38 57.884 0.08 7.7 4.75 10.68
5/23/2022 9:45:00 AM 14.47 58.046 0.08 7.7 4.83 10.69
5/23/2022 10:00:00 AM 14.61 58.298 0.08 7.79 4.47 10.7
5/23/2022 10:15:00 AM 14.76 58.568 0.08 7.79 4.43 10.71
5/23/2022 10:30:00 AM 14.91 58.838 0.079 7.88 4.22 10.76
5/23/2022 10:45:00 AM 15.05 59.09 0.079 7.92 4.31 10.8
5/23/2022 11:00:00 AM 15.1 59.18 0.079 7.99 4.29 10.81
5/23/2022 11:15:00 AM 15.19 59.342 0.079 8 4.42 10.79
5/23/2022 11:30:00 AM 15.24 59.432 0.079 8.07 4.2 10.77
5/23/2022 11:45:00 AM 15.5 59.9 0.079 8.13 4.63 10.79
5/23/2022 12:00:00 PM 15.85 60.53 0.079 8.25 4.19 10.75
5/23/2022 12:15:00 PM 16.22 61.196 0.078 8.27 4.35 10.7
5/23/2022 12:30:00 PM 16.55 61.79 0.079 8.35 4.61 10.65
5/23/2022 12:45:00 PM 16.75 62.15 0.079 8.38 4.17 10.61
5/23/2022 1:00:00 PM 16.86 62.348 0.079 8.44 4.22 10.59
5/23/2022 1:15:00 PM 16.91 62.438 0.079 8.45 4.22 10.58
5/23/2022 1:30:00 PM 16.95 62.51 0.079 8.54 4.14 10.58
5/23/2022 1:45:00 PM 17.06 62.708 0.079 8.58 5.52 10.54
5/23/2022 2:00:00 PM 17.12 62.816 0.079 8.6 4.23 10.53
5/23/2022 2:15:00 PM 17.18 62.924 0.078 8.61 4.83 10.49
5/23/2022 2:30:00 PM 17.28 63.104 0.078 8.63 4.25 10.44
5/23/2022 2:45:00 PM 17.36 63.248 0.078 8.63 4.48 10.42
5/23/2022 3:00:00 PM 17.37 63.266 0.078 8.66 4.45 10.39
5/23/2022 3:15:00 PM 17.4 63.32 0.078 8.68 4.06 10.38
5/23/2022 3:30:00 PM 17.42 63.356 0.078 8.66 4.08 10.35
5/23/2022 3:45:00 PM 17.49 63.482 0.078 8.62 3.99 10.3
5/23/2022 4:00:00 PM 17.63 63.734 0.078 8.7 4.06 10.26
5/23/2022 4:15:00 PM 17.67 63.806 0.078 8.61 4.26 10.2
5/23/2022 4:30:00 PM 17.66 63.788 0.078 8.65 3.9 10.19
5/23/2022 4:45:00 PM 17.61 63.698 0.078 8.57 4.17 10.14
5/23/2022 5:00:00 PM 17.7 63.86 0.078 8.6 3.94 10.13
5/23/2022 5:15:00 PM 17.66 63.788 0.078 8.46 4.02 10.06
5/23/2022 5:30:00 PM 17.64 63.752 0.078 8.48 3.86 10.05
5/23/2022 5:45:00 PM 17.59 63.662 0.078 8.46 3.86 10.05
5/23/2022 6:00:00 PM 17.5 63.5 0.078 8.39 3.88 10.01
5/23/2022 6:15:00 PM 17.37 63.266 0.078 8.21 4.33 9.93
5/23/2022 6:30:00 PM 17.25 63.05 0.078 8.16 4.04 9.89
5/23/2022 6:45:00 PM 17.11 62.798 0.079 8.01 4.14 9.85
5/23/2022 7:00:00 PM 17 62.6 0.079 7.96 4.59 9.8
5/23/2022 7:15:00 PM 16.9 62.42 0.079 7.89 4.14 9.74
5/23/2022 7:30:00 PM 16.77 62.186 0.079 7.79 4.51 9.63
5/23/2022 7:45:00 PM 16.67 62.006 0.08 7.71 8.88 9.52
5/23/2022 8:00:00 PM 16.56 61.808 0.08 7.64 4.7 9.43
5/23/2022 8:15:00 PM 16.45 61.61 0.081 7.59 4.38 9.37
5/23/2022 8:30:00 PM 16.34 61.412 0.082 7.56 4.77 9.33
5/23/2022 8:45:00 PM 16.21 61.178 0.082 7.52 4.21 9.29
5/23/2022 9:00:00 PM 16.08 60.944 0.082 7.49 4.44 9.26
5/23/2022 9:15:00 PM 15.93 60.674 0.083 7.46 4.47 9.24
5/23/2022 9:30:00 PM 15.82 60.476 0.083 7.45 4.53 9.27
5/23/2022 9:45:00 PM 15.7 60.26 0.084 7.44 4.71 9.3
5/23/2022 10:00:00 PM 15.57 60.026 0.085 7.39 4.8 9.32
5/23/2022 10:15:00 PM 15.44 59.792 0.085 7.42 4.53 9.36
5/23/2022 10:30:00 PM 15.32 59.576 0.086 7.38 4.4 9.38
5/23/2022 10:45:00 PM 15.2 59.36 0.086 7.41 4.5 9.39
5/23/2022 11:00:00 PM 15.1 59.18 0.086 7.37 4.62 9.42
5/23/2022 11:15:00 PM 14.99 58.982 0.086 7.4 4.93 9.45
5/23/2022 11:30:00 PM 14.89 58.802 0.085 7.36 5.03 9.45
5/23/2022 11:45:00 PM 14.77 58.586 0.085 7.35 4.78 9.45
5/24/2022 12:00:00 AM 14.69 58.442 0.084 7.35 4.85 9.5
5/24/2022 12:15:00 AM 14.61 58.298 0.084 7.37 4.47 9.51
5/24/2022 12:30:00 AM 14.53 58.154 0.084 7.34 4.63 9.51
5/24/2022 12:45:00 AM 14.46 58.028 0.083 7.34 4.22 9.56
5/24/2022 1:00:00 AM 14.37 57.866 0.083 7.34 4.92 9.56
5/24/2022 1:15:00 AM 14.3 57.74 0.083 7.33 4.55 9.58
5/24/2022 1:30:00 AM 14.22 57.596 0.083 7.33 4.83 9.59
5/24/2022 1:45:00 AM 14.16 57.488 0.083 7.35 4.35 9.6
5/24/2022 2:00:00 AM 14.1 57.38 0.083 7.31 4.57 9.63
5/24/2022 2:15:00 AM 14.02 57.236 0.083 7.35 4.25 9.63
5/24/2022 2:30:00 AM 14.06 57.308 0.082 7.31 4.35 9.62
5/24/2022 2:45:00 AM 13.99 57.182 0.083 7.33 4.37 9.63
5/24/2022 3:00:00 AM 13.92 57.056 0.083 7.29 4.45 9.64
5/24/2022 3:15:00 AM 13.87 56.966 0.083 7.35 4.12 9.67
5/24/2022 3:30:00 AM 13.81 56.858 0.083 7.31 4.53 9.67
5/24/2022 3:45:00 AM 13.74 56.732 0.083 7.32 4.01 9.68
5/24/2022 4:00:00 AM 13.68 56.624 0.083 7.31 4.94 9.69
5/24/2022 4:15:00 AM 13.63 56.534 0.083 7.35 3.92 9.71
5/24/2022 4:30:00 AM 13.58 56.444 0.083 7.32 4.24 9.73
5/24/2022 4:45:00 AM 13.5 56.3 0.083 7.33 3.87 9.72
5/24/2022 5:00:00 AM 13.46 56.228 0.083 7.3 4.13 9.76
5/24/2022 5:15:00 AM 13.39 56.102 0.083 7.33 4.17 9.73
5/24/2022 5:30:00 AM 13.31 55.958 0.083 7.25 4.21 9.73
5/24/2022 5:45:00 AM 13.27 55.886 0.083 7.24 4.38 9.76
5/24/2022 6:00:00 AM 13.21 55.778 0.083 7.25 4.48 9.82
5/24/2022 6:15:00 AM 13.15 55.67 0.083 7.28 3.83 9.88
5/24/2022 6:30:00 AM 13.1 55.58 0.083 7.26 4.23 9.96
5/24/2022 6:45:00 AM 13.04 55.472 0.083 7.28 6.22 10.05
5/24/2022 7:00:00 AM 13.02 55.436 0.082 7.32 4.14 10.23
5/24/2022 7:15:00 AM 13 55.4 0.082 7.36 4.17 10.34
5/24/2022 7:30:00 AM 12.98 55.364 0.082 7.37 3.96 10.45
5/24/2022 7:45:00 AM 12.98 55.364 0.082 7.44 3.46 10.62
5/24/2022 8:00:00 AM 13.03 55.454 0.081 7.51 4.2 10.8
5/24/2022 8:15:00 AM 13.08 55.544 0.081 7.57 3.47 10.91
5/24/2022 8:30:00 AM 13.13 55.634 0.081 7.62 3.61 11
5/24/2022 8:45:00 AM 13.24 55.832 0.081 7.69 3.64 11.06
5/24/2022 9:00:00 AM 13.31 55.958 0.081 7.76 3.92 11.14
5/24/2022 9:15:00 AM 13.4 56.12 0.08 7.77 3.24 11.13
5/24/2022 9:30:00 AM 13.5 56.3 0.08 7.9 3.36 11.23
5/24/2022 9:45:00 AM 13.57 56.426 0.08 8.03 3.36 11.25
5/24/2022 10:00:00 AM 13.61 56.498 0.08 7.97 3.76 11.21
5/24/2022 10:15:00 AM 13.77 56.786 0.08 8.1 3.26 11.29
5/24/2022 10:30:00 AM 13.92 57.056 0.08 8.23 3.24 11.31
5/24/2022 10:45:00 AM 14.14 57.452 0.079 8.43 3.5 11.34
5/24/2022 11:00:00 AM 14.31 57.758 0.079 8.51 3.25 11.33
5/24/2022 11:15:00 AM 14.38 57.884 0.079 8.55 3.17 11.26
5/24/2022 11:30:00 AM 14.4 57.92 0.079 8.56 3.35 11.23
5/24/2022 11:45:00 AM 14.45 58.01 0.079 8.65 3.16 11.23
5/24/2022 12:00:00 PM 14.5 58.1 0.079 8.67 3.67 11.17
5/24/2022 12:15:00 PM 14.55 58.19 0.079 8.68 3.17 11.13
5/24/2022 12:30:00 PM 14.59 58.262 0.079 8.75 3.18 11.16
5/24/2022 12:45:00 PM 14.62 58.316 0.079 8.79 3.11 11.16
5/24/2022 1:00:00 PM 14.68 58.424 0.079 8.85 3.87 11.19
5/24/2022 1:15:00 PM 14.74 58.532 0.078 8.87 3.25 11.2
5/24/2022 1:30:00 PM 14.84 58.712 0.078 8.94 3.58 11.21
5/24/2022 1:45:00 PM 14.94 58.892 0.078 9.03 3.27 11.24
5/24/2022 2:00:00 PM 14.97 58.946 0.078 8.96 3.56 11.18
5/24/2022 2:15:00 PM 15.08 59.144 0.078 9.07 3.23 11.16
5/24/2022 2:30:00 PM 15.14 59.252 0.078 9.04 3.45 11.09
5/24/2022 2:45:00 PM 15.2 59.36 0.078 9.02 3.19 11.02
5/24/2022 3:00:00 PM 15.36 59.648 0.078 9.12 3.33 11.05
5/24/2022 3:15:00 PM 15.4 59.72 0.078 9.07 3.07 10.95
5/24/2022 3:30:00 PM 15.55 59.99 0.079 9.11 3.16 10.98
5/24/2022 3:45:00 PM 15.66 60.188 0.079 9.15 3.07 10.97
5/24/2022 4:00:00 PM 15.68 60.224 0.079 9.05 3.45 10.8
5/24/2022 4:15:00 PM 15.67 60.206 0.079 9.04 3.35 10.73
5/24/2022 4:30:00 PM 15.66 60.188 0.079 9.03 3.29 10.68
5/24/2022 4:45:00 PM 15.68 60.224 0.079 8.96 3.11 10.49
5/24/2022 5:00:00 PM 15.66 60.188 0.079 8.77 3.12 10.26
5/24/2022 5:15:00 PM 15.61 60.098 0.08 8.44 3.14 10.06
5/24/2022 5:30:00 PM 15.64 60.152 0.08 8.2 3.4 9.94
5/24/2022 5:45:00 PM 15.56 60.008 0.08 7.92 2.88 9.82
5/24/2022 6:00:00 PM 15.48 59.864 0.081 7.84 3.1 9.84
5/24/2022 6:15:00 PM 15.41 59.738 0.081 7.78 2.95 9.88
5/24/2022 6:30:00 PM 15.35 59.63 0.081 7.76 3.06 9.93
5/24/2022 6:45:00 PM 15.29 59.522 0.081 7.69 3.12 9.91
5/24/2022 7:00:00 PM 15.14 59.252 0.081 7.54 3.11 9.8
5/24/2022 7:15:00 PM 15.2 59.36 0.081 7.67 3.34 9.89
5/24/2022 7:30:00 PM 15.19 59.342 0.081 7.62 2.98 9.86
5/24/2022 7:45:00 PM 15.11 59.198 0.082 7.58 3.07 9.77
5/24/2022 8:00:00 PM 15.11 59.198 0.082 7.54 3 9.71
5/24/2022 8:15:00 PM 14.98 58.964 0.082 7.45 3.27 9.51
5/24/2022 8:30:00 PM 15.01 59.018 0.082 7.47 3.01 9.52
5/24/2022 8:45:00 PM 14.98 58.964 0.083 7.47 3 9.48
5/24/2022 9:00:00 PM 14.89 58.802 0.083 7.38 3.22 9.38
5/24/2022 9:15:00 PM 14.87 58.766 0.083 7.41 3.26 9.37
5/24/2022 9:30:00 PM 14.79 58.622 0.083 7.38 3.47 9.36
5/24/2022 9:45:00 PM 14.74 58.532 0.084 7.38 3.48 9.33
5/24/2022 10:00:00 PM 14.72 58.496 0.084 7.38 3.36 9.39
5/24/2022 10:15:00 PM 14.65 58.37 0.084 7.39 3.11 9.41
5/24/2022 10:30:00 PM 14.6 58.28 0.084 7.38 3.49 9.46
5/24/2022 10:45:00 PM 14.52 58.136 0.084 7.38 3 9.43
5/24/2022 11:00:00 PM 14.44 57.992 0.084 7.34 3.44 9.41
5/24/2022 11:15:00 PM 14.36 57.848 0.084 7.31 3.22 9.41
5/24/2022 11:30:00 PM 14.33 57.794 0.084 7.32 3.18 9.44
5/24/2022 11:45:00 PM 14.28 57.704 0.084 7.34 3.17 9.44
5/25/2022 12:00:00 AM 14.21 57.578 0.084 7.3 3.34 9.45
5/25/2022 12:15:00 AM 14.17 57.506 0.084 7.35 3.13 9.5
5/25/2022 12:30:00 AM 14.11 57.398 0.084 7.32 3.15 9.5
5/25/2022 12:45:00 AM 14 57.2 0.084 7.31 3.43 9.49
5/25/2022 1:00:00 AM 13.94 57.092 0.084 7.3 3.19 9.52
5/25/2022 1:15:00 AM 13.87 56.966 0.084 7.33 3.28 9.56
5/25/2022 1:30:00 AM 13.77 56.786 0.084 7.27 3.54 9.54
5/25/2022 1:45:00 AM 13.66 56.588 0.084 7.29 3.16 9.51
5/25/2022 2:00:00 AM 13.64 56.552 0.084 7.31 3.65 9.62
5/25/2022 2:15:00 AM 13.51 56.318 0.084 7.29 3.13 9.57
5/25/2022 2:30:00 AM 13.49 56.282 0.084 7.3 3.26 9.59
5/25/2022 2:45:00 AM 13.41 56.138 0.084 7.26 2.95 9.61
5/25/2022 3:00:00 AM 13.37 56.066 0.084 7.25 3.46 9.65
5/25/2022 3:15:00 AM 13.33 55.994 0.084 7.26 3 9.68
5/25/2022 3:30:00 AM 13.29 55.922 0.084 7.24 3.14 9.71
5/25/2022 3:45:00 AM 13.24 55.832 0.084 7.27 3.14 9.72
5/25/2022 4:00:00 AM 13.18 55.724 0.084 7.21 3.29 9.69
5/25/2022 4:15:00 AM 13.17 55.706 0.084 7.29 3.02 9.77
5/25/2022 4:30:00 AM 13.14 55.652 0.084 7.28 3.07 9.79
5/25/2022 4:45:00 AM 13.06 55.508 0.084 7.24 3.35 9.73
5/25/2022 5:00:00 AM 13.06 55.508 0.084 7.26 3.62 9.8
5/25/2022 5:15:00 AM 12.97 55.346 0.084 7.29 3.13 9.75
5/25/2022 5:30:00 AM 12.97 55.346 0.084 7.23 3.55 9.78
5/25/2022 5:45:00 AM 12.94 55.292 0.084 7.27 3.07 9.81
5/25/2022 6:00:00 AM 12.88 55.184 0.084 7.23 3.52 9.81
5/25/2022 6:15:00 AM 12.88 55.184 0.084 7.3 3.01 9.9
5/25/2022 6:30:00 AM 12.84 55.112 0.084 7.28 3.45 9.95
5/25/2022 6:45:00 AM 12.8 55.04 0.084 7.28 2.97 10
5/25/2022 7:00:00 AM 12.79 55.022 0.084 7.29 3.42 10.09
5/25/2022 7:15:00 AM 12.78 55.004 0.084 7.34 3.48 10.22
5/25/2022 7:30:00 AM 12.77 54.986 0.084 7.3 3.47 10.3
5/25/2022 7:45:00 AM 12.79 55.022 0.083 7.39 3 10.44
5/25/2022 8:00:00 AM 12.83 55.094 0.083 7.47 3.37 10.62
5/25/2022 8:15:00 AM 12.84 55.112 0.083 7.48 2.93 10.7
5/25/2022 8:30:00 AM 12.86 55.148 0.083 7.47 3.27 10.83
5/25/2022 8:45:00 AM 12.91 55.238 0.082 7.55 2.85 10.99
5/25/2022 9:00:00 AM 12.99 55.382 0.082 7.61 3.33 11.15
5/25/2022 9:15:00 AM 13.14 55.652 0.081 7.8 3.06 11.35
5/25/2022 9:30:00 AM 13.24 55.832 0.081 7.88 3.09 11.42
5/25/2022 9:45:00 AM 13.31 55.958 0.081 7.82 2.87 11.41
5/25/2022 10:00:00 AM 13.49 56.282 0.08 8.1 3.28 11.49
5/25/2022 10:15:00 AM 13.68 56.624 0.08 8.41 2.9 11.59
5/25/2022 10:30:00 AM 13.84 56.912 0.08 8.36 3.03 11.51
5/25/2022 10:45:00 AM 14.11 57.398 0.08 8.6 3.01 11.44
5/25/2022 11:00:00 AM 14.34 57.812 0.08 8.53 2.97 11.43
5/25/2022 11:15:00 AM 14.68 58.424 0.08 8.79 2.88 11.48
5/25/2022 11:30:00 AM 14.85 58.73 0.079 8.66 3.06 11.32
5/25/2022 11:45:00 AM 15.12 59.216 0.079 8.79 2.72 11.27
5/25/2022 12:00:00 PM 15.36 59.648 0.079 8.86 2.83 11.22
5/25/2022 12:15:00 PM 15.58 60.044 0.079 8.88 2.99 11.16
5/25/2022 12:30:00 PM 15.87 60.566 0.079 9.05 3.04 11.22
5/25/2022 12:45:00 PM 16 60.8 0.079 9.04 2.95 11.13
5/25/2022 1:00:00 PM 16.33 61.394 0.079 9.21 3.1 11.2
5/25/2022 1:15:00 PM 16.4 61.52 0.078 9.14 2.97 11.07
5/25/2022 1:30:00 PM 16.64 61.952 0.078 9.25 3.06 11.06
5/25/2022 1:45:00 PM 16.79 62.222 0.078 9.28 2.91 11.01
5/25/2022 2:00:00 PM 17.04 62.672 0.078 9.35 2.94 10.99
5/25/2022 2:15:00 PM 17.22 62.996 0.079 9.39 3.06 10.95
5/25/2022 2:30:00 PM 17.41 63.338 0.078 9.41 3.21 10.92
5/25/2022 2:45:00 PM 17.43 63.374 0.078 9.36 3.11 10.81
5/25/2022 3:00:00 PM 17.47 63.446 0.078 9.36 3.46 10.7
5/25/2022 3:15:00 PM 17.6 63.68 0.079 9.4 2.91 10.6
5/25/2022 3:30:00 PM 17.6 63.68 0.078 9.29 2.94 10.41
5/25/2022 3:45:00 PM 17.79 64.022 0.079 9.37 3.26 10.37
5/25/2022 4:00:00 PM 17.82 64.076 0.079 9.29 2.92 10.25
5/25/2022 4:15:00 PM 17.84 64.112 0.078 9.25 3.07 10.13
5/25/2022 4:30:00 PM 17.82 64.076 0.078 9.17 3.14 10.06
5/25/2022 4:45:00 PM 17.83 64.094 0.078 9.1 3.01 9.98
5/25/2022 5:00:00 PM 17.93 64.274 0.078 9.2 2.92 10.07
5/25/2022 5:15:00 PM 17.82 64.076 0.078 9.01 3.06 9.9
5/25/2022 5:30:00 PM 17.82 64.076 0.078 9.01 3.04 9.83
5/25/2022 5:45:00 PM 17.81 64.058 0.078 8.92 3.1 9.81
5/25/2022 6:00:00 PM 17.71 63.878 0.077 8.74 3.34 9.75
5/25/2022 6:15:00 PM 17.72 63.896 0.077 8.82 3.14 9.77
5/25/2022 6:30:00 PM 17.56 63.608 0.077 8.49 3.17 9.63
5/25/2022 6:45:00 PM 17.56 63.608 0.077 8.46 2.96 9.66
5/25/2022 7:00:00 PM 17.39 63.302 0.077 8.04 2.99 9.46
5/25/2022 7:15:00 PM 17.43 63.374 0.078 8.16 3.95 9.56
5/25/2022 7:30:00 PM 17.31 63.158 0.078 7.93 2.99 9.47
5/25/2022 7:45:00 PM 17.23 63.014 0.078 7.77 3.22 9.39
5/25/2022 8:00:00 PM 17.02 62.636 0.079 7.62 3.14 9.21
5/25/2022 8:15:00 PM 16.96 62.528 0.08 7.6 3.41 9.15
5/25/2022 8:30:00 PM 16.8 62.24 0.08 7.51 3.11 9.01
5/25/2022 8:45:00 PM 16.64 61.952 0.081 7.45 3.29 8.89
5/25/2022 9:00:00 PM 16.57 61.826 0.081 7.42 3.3 8.95
5/25/2022 9:15:00 PM 16.47 61.646 0.081 7.42 3.2 8.91
5/25/2022 9:30:00 PM 16.4 61.52 0.081 7.42 3.6 8.94
5/25/2022 9:45:00 PM 16.22 61.196 0.082 7.37 3.11 8.89
5/25/2022 10:00:00 PM 16.15 61.07 0.082 7.34 3.12 8.9
5/25/2022 10:15:00 PM 16.09 60.962 0.082 7.41 3.19 8.96
5/25/2022 10:30:00 PM 15.92 60.656 0.082 7.34 3.12 8.94
5/25/2022 10:45:00 PM 15.89 60.602 0.082 7.39 3.74 9.02
5/25/2022 11:00:00 PM 15.75 60.35 0.082 7.36 3.32 9.02
5/25/2022 11:15:00 PM 15.58 60.044 0.082 7.3 3.78 8.97
5/25/2022 11:30:00 PM 15.52 59.936 0.082 7.31 3.56 9.03
5/25/2022 11:45:00 PM 15.44 59.792 0.082 7.34 3.12 9.08
5/26/2022 12:00:00 AM 15.37 59.666 0.082 7.34 3.48 9.12
5/26/2022 12:15:00 AM 15.29 59.522 0.082 7.33 3.23 9.14
5/26/2022 12:30:00 AM 15.22 59.396 0.082 7.36 3.33 9.18
5/26/2022 12:45:00 AM 15.1 59.18 0.082 7.34 3.21 9.16
5/26/2022 1:00:00 AM 15.02 59.036 0.082 7.32 3.68 9.19
5/26/2022 1:15:00 AM 14.91 58.838 0.082 7.32 3.27 9.2
5/26/2022 1:30:00 AM 14.82 58.676 0.083 7.29 3.32 9.2
5/26/2022 1:45:00 AM 14.77 58.586 0.083 7.31 3.33 9.25
5/26/2022 2:00:00 AM 14.72 58.496 0.083 7.31 3.21 9.27
5/26/2022 2:15:00 AM 14.68 58.424 0.083 7.34 3.31 9.32
5/26/2022 2:30:00 AM 14.54 58.172 0.083 7.27 3.35 9.27
5/26/2022 2:45:00 AM 14.44 57.992 0.083 7.25 3.11 9.23
5/26/2022 3:00:00 AM 14.42 57.956 0.082 7.29 3.58 9.32
5/26/2022 3:15:00 AM 14.35 57.83 0.082 7.29 3.06 9.33
5/26/2022 3:30:00 AM 14.3 57.74 0.082 7.3 3.77 9.4
5/26/2022 3:45:00 AM 14.21 57.578 0.082 7.32 3.26 9.37
5/26/2022 4:00:00 AM 14.11 57.398 0.082 7.28 3.4 9.34
5/26/2022 4:15:00 AM 14.1 57.38 0.082 7.33 3.28 9.46
5/26/2022 4:30:00 AM 13.98 57.164 0.082 7.26 3.65 9.37
5/26/2022 4:45:00 AM 13.89 57.002 0.082 7.27 3.3 9.42
5/26/2022 5:00:00 AM 13.83 56.894 0.082 7.25 3.85 9.45
5/26/2022 5:15:00 AM 13.76 56.768 0.082 7.27 3.23 9.47
5/26/2022 5:30:00 AM 13.71 56.678 0.082 7.29 3.53 9.54
5/26/2022 5:45:00 AM 13.58 56.444 0.082 7.27 3.55 9.51
5/26/2022 6:00:00 AM 13.53 56.354 0.082 7.25 3.95 9.56
5/26/2022 6:15:00 AM 13.47 56.246 0.082 7.3 3.3 9.69
5/26/2022 6:30:00 AM 13.43 56.174 0.082 7.31 3.88 9.87
5/26/2022 6:45:00 AM 13.38 56.084 0.082 7.34 3.3 10.01
5/26/2022 7:00:00 AM 13.35 56.03 0.082 7.35 3.6 10.14
5/26/2022 7:15:00 AM 13.34 56.012 0.082 7.41 3.45 10.29
5/26/2022 7:30:00 AM 13.35 56.03 0.081 7.46 3.38 10.51
5/26/2022 7:45:00 AM 13.34 56.012 0.081 7.51 3.27 10.67
5/26/2022 8:00:00 AM 13.35 56.03 0.081 7.51 3.15 10.74
5/26/2022 8:15:00 AM 13.35 56.03 0.08 7.55 3.34 10.79
5/26/2022 8:30:00 AM 13.4 56.12 0.08 7.55 3.64 10.86
5/26/2022 8:45:00 AM 13.47 56.246 0.08 7.66 3.38 10.97
5/26/2022 9:00:00 AM 13.48 56.264 0.08 7.61 3.33 10.99
5/26/2022 9:15:00 AM 13.55 56.39 0.08 7.75 3.26 11.07
5/26/2022 9:30:00 AM 13.7 56.66 0.079 7.94 3.15 11.25
5/26/2022 9:45:00 AM 13.82 56.876 0.079 7.92 3.08 11.29
5/26/2022 10:00:00 AM 13.96 57.128 0.079 7.89 3.23 11.3
5/26/2022 10:15:00 AM 14.22 57.596 0.079 8.22 3.16 11.34
5/26/2022 10:30:00 AM 14.34 57.812 0.079 8.22 3.39 11.3
5/26/2022 10:45:00 AM 14.57 58.226 0.079 8.43 3.31 11.32
5/26/2022 11:00:00 AM 14.82 58.676 0.078 8.68 3.12 11.38
5/26/2022 11:15:00 AM 14.87 58.766 0.078 8.55 3.11 11.25
5/26/2022 11:30:00 AM 15.03 59.054 0.078 8.87 3.23 11.33
5/26/2022 11:45:00 AM 15.18 59.324 0.078 8.88 3.14 11.24
5/26/2022 12:00:00 PM 15.38 59.684 0.078 8.99 3.64 11.29
5/26/2022 12:15:00 PM 15.52 59.936 0.078 9.08 3.29 11.28
5/26/2022 12:30:00 PM 15.54 59.972 0.078 8.85 3.19 11.06
5/26/2022 12:45:00 PM 15.94 60.692 0.078 9.15 3.21 11.21
5/26/2022 1:00:00 PM 16.22 61.196 0.077 9.18 3.45 11.1
5/26/2022 1:15:00 PM 16.53 61.754 0.078 9.19 3.55 11.05
5/26/2022 1:30:00 PM 16.81 62.258 0.077 9.21 3.22 10.93
5/26/2022 1:45:00 PM 17.09 62.762 0.077 9.23 3.26 10.88
5/26/2022 2:00:00 PM 17.41 63.338 0.077 9.31 3.35 10.8
5/26/2022 2:15:00 PM 17.61 63.698 0.077 9.26 3.33 10.67
5/26/2022 2:30:00 PM 17.99 64.382 0.077 9.35 3.33 10.67
5/26/2022 2:45:00 PM 18.16 64.688 0.077 9.4 3.29 10.57
5/26/2022 3:00:00 PM 18.12 64.616 0.077 9.29 3.23 10.42
5/26/2022 3:15:00 PM 18.22 64.796 0.077 9.39 3.31 10.41
5/26/2022 3:30:00 PM 18.32 64.976 0.077 9.43 3.28 10.26
5/26/2022 3:45:00 PM 18.43 65.174 0.077 9.43 3.08 10.34
5/26/2022 4:00:00 PM 18.52 65.336 0.077 9.34 3.44 10.08
5/26/2022 4:15:00 PM 18.64 65.552 0.077 9.34 4 9.97
5/26/2022 4:30:00 PM 18.6 65.48 0.077 9.25 3.26 9.94
5/26/2022 4:45:00 PM 18.64 65.552 0.077 9.32 3.33 9.92
5/26/2022 5:00:00 PM 18.61 65.498 0.077 9.23 3.91 9.83
5/26/2022 5:15:00 PM 18.62 65.516 0.077 9.29 3.4 9.91
5/26/2022 5:30:00 PM 18.46 65.228 0.077 9.11 3.47 9.76
5/26/2022 5:45:00 PM 18.43 65.174 0.077 9.13 3.37 9.76
5/26/2022 6:00:00 PM 18.31 64.958 0.077 8.97 3.49 9.63
5/26/2022 6:15:00 PM 18.3 64.94 0.078 8.98 3.45 9.51
5/26/2022 6:30:00 PM 18.2 64.76 0.078 8.81 3.31 9.35
5/26/2022 6:45:00 PM 18.03 64.454 0.078 8.33 3.44 9.16
5/26/2022 7:00:00 PM 18.03 64.454 0.079 8.21 3.35 9.11
5/26/2022 7:15:00 PM 17.9 64.22 0.079 7.94 3.3 9.02
5/26/2022 7:30:00 PM 17.85 64.13 0.079 7.82 3.36 9.01
5/26/2022 7:45:00 PM 17.6 63.68 0.08 7.57 3.79 8.83
5/26/2022 8:00:00 PM 17.58 63.644 0.081 7.55 3.43 8.79
5/26/2022 8:15:00 PM 17.47 63.446 0.081 7.5 3.41 8.69
5/26/2022 8:30:00 PM 17.41 63.338 0.082 7.45 3.45 8.65
5/26/2022 8:45:00 PM 17.27 63.086 0.082 7.42 3.43 8.48
5/26/2022 9:00:00 PM 17.26 63.068 0.083 7.41 3.34 8.56
5/26/2022 9:15:00 PM 17.18 62.924 0.083 7.4 3.44 8.56
5/26/2022 9:30:00 PM 17.07 62.726 0.084 7.36 4.13 8.58
5/26/2022 9:45:00 PM 16.96 62.528 0.084 7.38 3.46 8.59
5/26/2022 10:00:00 PM 16.91 62.438 0.084 7.37 3.86 8.61
5/26/2022 10:15:00 PM 16.75 62.15 0.084 7.32 3.38 8.62
5/26/2022 10:30:00 PM 16.63 61.934 0.084 7.29 3.54 8.62
5/26/2022 10:45:00 PM 16.53 61.754 0.085 7.29 3.42 8.62
5/26/2022 11:00:00 PM 16.38 61.484 0.085 7.26 3.54 8.64
5/26/2022 11:15:00 PM 16.27 61.286 0.084 7.28 3.53 8.7
5/26/2022 11:30:00 PM 16.3 61.34 0.084 7.27 3.58 8.73
5/26/2022 11:45:00 PM 16.15 61.07 0.085 7.26 3.42 8.67
5/27/2022 12:00:00 AM 16.16 61.088 0.085 7.27 3.58 8.76
5/27/2022 12:15:00 AM 16.09 60.962 0.085 7.27 3.31 8.74
5/27/2022 12:30:00 AM 15.98 60.764 0.085 7.25 3.56 8.67
5/27/2022 12:45:00 AM 15.95 60.71 0.085 7.26 3.45 8.76
5/27/2022 1:00:00 AM 15.86 60.548 0.085 7.21 3.42 8.76
5/27/2022 1:15:00 AM 15.86 60.548 0.085 7.3 3.67 8.83
5/27/2022 1:30:00 AM 15.84 60.512 0.085 7.25 3.37 8.83
5/27/2022 1:45:00 AM 15.82 60.476 0.085 7.3 3.48 8.86
5/27/2022 2:00:00 AM 15.71 60.278 0.085 7.23 3.61 8.82
5/27/2022 2:15:00 AM 15.69 60.242 0.085 7.27 3.32 8.85
5/27/2022 2:30:00 AM 15.67 60.206 0.085 7.25 3.43 8.86
5/27/2022 2:45:00 AM 15.61 60.098 0.085 7.25 3.38 8.83
5/27/2022 3:00:00 AM 15.59 60.062 0.085 7.24 3.36 8.85
5/27/2022 3:15:00 AM 15.59 60.062 0.085 7.28 3.27 8.86
5/27/2022 3:30:00 AM 15.57 60.026 0.085 7.26 3.57 8.86
5/27/2022 3:45:00 AM 15.45 59.81 0.085 7.21 4.03 8.8
5/27/2022 4:00:00 AM 15.46 59.828 0.083 7.23 4.01 8.82
5/27/2022 4:15:00 AM 15.47 59.846 0.085 7.23 4.09 8.9
5/27/2022 4:30:00 AM 15.44 59.792 0.085 7.26 3.93 8.89
5/27/2022 4:45:00 AM 15.4 59.72 0.085 7.24 3.67 8.89
5/27/2022 5:00:00 AM 15.29 59.522 0.085 7.18 3.59 8.84
5/27/2022 5:15:00 AM 15.3 59.54 0.085 7.2 3.48 8.9
5/27/2022 5:30:00 AM 15.31 59.558 0.084 7.23 3.65 8.94
5/27/2022 5:45:00 AM 15.28 59.504 0.084 7.26 3.75 8.95
5/27/2022 6:00:00 AM 15.19 59.342 0.085 7.19 3.28 8.97
5/27/2022 6:15:00 AM 15.19 59.342 0.084 7.23 3.27 9.02
5/27/2022 6:30:00 AM 15.15 59.27 0.084 7.22 3.36 9.11
5/27/2022 6:45:00 AM 15.16 59.288 0.084 7.26 3.28 9.23
5/27/2022 7:00:00 AM 15.12 59.216 0.084 7.25 3.53 9.34
5/27/2022 7:15:00 AM 15.14 59.252 0.084 7.3 3.37 9.49
5/27/2022 7:30:00 AM 15.2 59.36 0.084 7.33 3.47 9.64
5/27/2022 7:45:00 AM 15.18 59.324 0.083 7.35 3.55 9.71
5/27/2022 8:00:00 AM 15.21 59.378 0.083 7.36 3.26 9.78
5/27/2022 8:15:00 AM 15.16 59.288 0.083 7.36 3.42 9.73
5/27/2022 8:30:00 AM 15.22 59.396 0.083 7.35 3.23 9.84
5/27/2022 8:45:00 AM 15.28 59.504 0.083 7.45 3.46 9.89
5/27/2022 9:00:00 AM 15.35 59.63 0.083 7.51 3.28 10.05
5/27/2022 9:15:00 AM 15.31 59.558 0.082 7.44 3.28 9.99
5/27/2022 9:30:00 AM 15.43 59.774 0.082 7.51 3.45 10.22
5/27/2022 9:45:00 AM 15.45 59.81 0.082 7.55 3.37 10.26
5/27/2022 10:00:00 AM 15.6 60.08 0.082 7.61 3.46 10.5
5/27/2022 10:15:00 AM 15.71 60.278 0.082 7.74 3.22 10.65
5/27/2022 10:30:00 AM 15.76 60.368 0.081 7.82 3.28 10.56
5/27/2022 10:45:00 AM 15.88 60.584 0.081 7.88 3.26 10.51
5/27/2022 11:00:00 AM 15.89 60.602 0.081 7.93 3.55 10.56
5/27/2022 11:15:00 AM 15.95 60.71 0.081 7.98 3.32 10.58
5/27/2022 11:30:00 AM 16.04 60.872 0.081 8.02 3.24 10.55
5/27/2022 11:45:00 AM 16.21 61.178 0.081 8.38 3.62 10.66
5/27/2022 12:00:00 PM 16.3 61.34 0.08 8.38 3.44 10.67
5/27/2022 12:15:00 PM 16.41 61.538 0.08 8.51 3.19 10.72
5/27/2022 12:30:00 PM 16.6 61.88 0.08 8.83 3.37 10.72
5/27/2022 12:45:00 PM 16.65 61.97 0.08 8.82 3.56 10.63
5/27/2022 1:00:00 PM 16.73 62.114 0.079 8.88 3.31 10.59
5/27/2022 1:15:00 PM 16.79 62.222 0.079 8.93 3.2 10.53
5/27/2022 1:30:00 PM 16.92 62.456 0.08 8.97 3.33 10.44
5/27/2022 1:45:00 PM 17.02 62.636 0.079 8.99 3.43 10.43
5/27/2022 2:00:00 PM 17.03 62.654 0.079 8.88 3.46 10.44
5/27/2022 2:15:00 PM 17.27 63.086 0.08 9.12 3.18 10.49
5/27/2022 2:30:00 PM 17.3 63.14 0.08 9.08 3.16 10.4
5/27/2022 2:45:00 PM 17.3 63.14 0.079 9.05 3.4 10.27
5/27/2022 3:00:00 PM 17.25 63.05 0.079 9.01 3.23 10.09
5/27/2022 3:15:00 PM 17.21 62.978 0.08 8.9 3.43 9.97
5/27/2022 3:30:00 PM 17.15 62.87 0.079 8.9 3.26 9.84
5/27/2022 3:45:00 PM 17.23 63.014 0.08 8.78 3.65 9.81
5/27/2022 4:00:00 PM 17.24 63.032 0.079 8.66 3.56 9.67
5/27/2022 4:15:00 PM 17.26 63.068 0.079 8.64 3.61 9.7
5/27/2022 4:30:00 PM 17.23 63.014 0.079 8.55 3.44 9.73
5/27/2022 4:45:00 PM 17.23 63.014 0.079 8.49 3.45 9.77
5/27/2022 5:00:00 PM 17.23 63.014 0.079 8.4 3.25 9.83
5/27/2022 5:15:00 PM 17.21 62.978 0.079 8.38 3.34 9.86
5/27/2022 5:30:00 PM 17.3 63.14 0.079 8.56 3.25 9.96
5/27/2022 5:45:00 PM 17.31 63.158 0.079 8.67 3.22 9.98
5/27/2022 6:00:00 PM 17.25 63.05 0.079 8.57 3.55 9.92
5/27/2022 6:15:00 PM 17.27 63.086 0.079 8.55 4.14 9.88
5/27/2022 6:30:00 PM 17.26 63.068 0.08 8.49 3.27 9.82
5/27/2022 6:45:00 PM 17.24 63.032 0.08 8.35 3.47 9.74
5/27/2022 7:00:00 PM 17.23 63.014 0.08 8.2 3.24 9.64
5/27/2022 7:15:00 PM 17.1 62.78 0.08 7.87 3.32 9.46
5/27/2022 7:30:00 PM 17.15 62.87 0.081 7.93 3.4 9.38
5/27/2022 7:45:00 PM 17.15 62.87 0.082 7.78 3.47 9.26
5/27/2022 8:00:00 PM 17.1 62.78 0.082 7.67 3.26 9.1
5/27/2022 8:15:00 PM 16.97 62.546 0.083 7.56 3.28 8.95
5/27/2022 8:30:00 PM 16.97 62.546 0.083 7.56 3.38 8.91
5/27/2022 8:45:00 PM 16.78 62.204 0.084 7.42 3.36 8.76
5/27/2022 9:00:00 PM 16.76 62.168 0.084 7.46 3.62 8.67
5/27/2022 9:15:00 PM 16.62 61.916 0.085 7.4 3.44 8.69
5/27/2022 9:30:00 PM 16.59 61.862 0.085 7.38 3.35 8.66
5/27/2022 9:45:00 PM 16.41 61.538 0.086 7.31 3.8 8.55
5/27/2022 10:00:00 PM 16.44 61.592 0.086 7.34 3.77 8.69
5/27/2022 10:15:00 PM 16.35 61.43 0.086 7.36 3.49 8.71
5/27/2022 10:30:00 PM 16.21 61.178 0.086 7.28 3.58 8.64
5/27/2022 10:45:00 PM 16.19 61.142 0.086 7.33 3.61 8.71
5/27/2022 11:00:00 PM 16.06 60.908 0.086 7.28 3.39 8.67
5/27/2022 11:15:00 PM 15.95 60.71 0.086 7.25 3.55 8.65
5/27/2022 11:30:00 PM 15.9 60.62 0.086 7.25 3.53 8.68
5/27/2022 11:45:00 PM 15.87 60.566 0.086 7.27 3.39 8.74
5/28/2022 12:00:00 AM 15.81 60.458 0.086 7.27 3.67 8.75
5/28/2022 12:15:00 AM 15.74 60.332 0.086 7.25 3.47 8.75
5/28/2022 12:30:00 AM 15.7 60.26 0.087 7.25 3.53 8.75
5/28/2022 12:45:00 AM 15.72 60.296 0.087 7.27 3.69 8.82
5/28/2022 1:00:00 AM 15.57 60.026 0.087 7.22 4.34 8.74
5/28/2022 1:15:00 AM 15.59 60.062 0.087 7.26 3.51 8.79
5/28/2022 1:30:00 AM 15.53 59.954 0.087 7.26 3.62 8.78
5/28/2022 1:45:00 AM 15.52 59.936 0.087 7.24 3.8 8.81
5/28/2022 2:00:00 AM 15.44 59.792 0.087 7.23 3.54 8.79
5/28/2022 2:15:00 AM 15.47 59.846 0.087 7.25 4.06 8.87
5/28/2022 2:30:00 AM 15.38 59.684 0.087 7.24 3.43 8.83
5/28/2022 2:45:00 AM 15.34 59.612 0.087 7.22 3.7 8.8
5/28/2022 3:00:00 AM 15.35 59.63 0.088 7.24 3.59 8.84
5/28/2022 3:15:00 AM 15.3 59.54 0.087 7.24 3.78 8.84
5/28/2022 3:30:00 AM 15.24 59.432 0.087 7.23 3.46 8.85
5/28/2022 3:45:00 AM 15.25 59.45 0.088 7.24 3.84 8.91
5/28/2022 4:00:00 AM 15.17 59.306 0.087 7.22 3.59 8.86
5/28/2022 4:15:00 AM 15.18 59.324 0.087 7.22 3.62 8.91
5/28/2022 4:30:00 AM 15.13 59.234 0.087 7.23 3.52 8.9
5/28/2022 4:45:00 AM 15.08 59.144 0.087 7.2 3.41 8.9
5/28/2022 5:00:00 AM 15.06 59.108 0.087 7.23 3.67 8.94
5/28/2022 5:15:00 AM 15.04 59.072 0.087 7.21 3.71 8.93
5/28/2022 5:30:00 AM 15.02 59.036 0.087 7.23 3.48 8.96
5/28/2022 5:45:00 AM 14.99 58.982 0.087 7.2 3.7 8.96
5/28/2022 6:00:00 AM 14.97 58.946 0.087 7.23 3.4 9.01
5/28/2022 6:15:00 AM 14.93 58.874 0.087 7.22 3.51 9.12
5/28/2022 6:30:00 AM 14.91 58.838 0.087 7.24 3.37 9.15
5/28/2022 6:45:00 AM 14.89 58.802 0.087 7.22 3.57 9.2
5/28/2022 7:00:00 AM 14.92 58.856 0.087 7.28 3.38 9.38
5/28/2022 7:15:00 AM 14.91 58.838 0.087 7.27 3.69 9.48
5/28/2022 7:30:00 AM 14.89 58.802 0.087 7.32 3.7 9.61
5/28/2022 7:45:00 AM 14.89 58.802 0.086 7.32 3.7 9.77
5/28/2022 8:00:00 AM 14.96 58.928 0.086 7.41 3.38 10.05
5/28/2022 8:15:00 AM 14.94 58.892 0.086 7.37 3.43 10.07
5/28/2022 8:30:00 AM 15.05 59.09 0.086 7.49 3.3 10.18
5/28/2022 8:45:00 AM 15.03 59.054 0.086 7.43 3.77 10.15
5/28/2022 9:00:00 AM 15.09 59.162 0.085 7.5 3.12 10.32
5/28/2022 9:15:00 AM 15.13 59.234 0.085 7.54 3.53 10.39
5/28/2022 9:30:00 AM 15.27 59.486 0.085 7.62 3.26 10.56
5/28/2022 9:45:00 AM 15.38 59.684 0.084 7.67 3.48 10.69
5/28/2022 10:00:00 AM 15.53 59.954 0.084 7.88 3.36 10.8
5/28/2022 10:15:00 AM 15.62 60.116 0.084 7.9 3.66 10.8
5/28/2022 10:30:00 AM 15.77 60.386 0.083 8.19 3.44 10.91
5/28/2022 10:45:00 AM 15.86 60.548 0.083 8.29 3.3 10.89
5/28/2022 11:00:00 AM 16.01 60.818 0.083 8.57 3.4 10.89
5/28/2022 11:15:00 AM 16.13 61.034 0.083 8.76 3.27 10.89
5/28/2022 11:30:00 AM 16.22 61.196 0.083 8.83 3.43 10.84
5/28/2022 11:45:00 AM 16.28 61.304 0.083 8.85 3.35 10.77
5/28/2022 12:00:00 PM 16.43 61.574 0.083 8.96 4.4 10.82
5/28/2022 12:15:00 PM 16.55 61.79 0.082 8.98 3.68 10.79
5/28/2022 12:30:00 PM 16.69 62.042 0.082 9.07 3.56 10.78
5/28/2022 12:45:00 PM 16.76 62.168 0.082 9.06 3.38 10.64
5/28/2022 1:00:00 PM 16.83 62.294 0.082 9.14 3.43 10.58
5/28/2022 1:15:00 PM 16.84 62.312 0.082 9.1 3.54 10.55
5/28/2022 1:30:00 PM 16.86 62.348 0.082 9.05 3.49 10.43
5/28/2022 1:45:00 PM 16.99 62.582 0.082 9.16 3.66 10.51
5/28/2022 2:00:00 PM 17.23 63.014 0.082 9.2 3.37 10.48
5/28/2022 2:15:00 PM 17.28 63.104 0.082 9.14 3.46 10.32
5/28/2022 2:30:00 PM 17.48 63.464 0.081 9.19 3.52 10.38
5/28/2022 2:45:00 PM 17.68 63.824 0.082 9.26 3.5 10.36
5/28/2022 3:00:00 PM 17.75 63.95 0.081 9.28 3.36 10.38
5/28/2022 3:15:00 PM 17.86 64.148 0.081 9.29 4.59 10.27
5/28/2022 3:30:00 PM 17.92 64.256 0.081 9.3 3.47 10.12
5/28/2022 3:45:00 PM 17.89 64.202 0.081 9.23 3.41 9.98
5/28/2022 4:00:00 PM 17.83 64.094 0.081 9.21 3.47 9.95
5/28/2022 4:15:00 PM 17.84 64.112 0.081 9.23 3.45 9.92
5/28/2022 4:30:00 PM 17.79 64.022 0.081 9.14 3.47 9.7
5/28/2022 4:45:00 PM 17.75 63.95 0.081 9.07 3.46 9.66
5/28/2022 5:00:00 PM 17.71 63.878 0.081 9.01 3.45 9.6
5/28/2022 5:15:00 PM 17.64 63.752 0.082 8.89 3.49 9.63
5/28/2022 5:30:00 PM 17.57 63.626 0.082 8.83 3.68 9.67
5/28/2022 5:45:00 PM 17.5 63.5 0.082 8.71 3.44 9.61
5/28/2022 6:00:00 PM 17.41 63.338 0.082 8.53 3.63 9.54
5/28/2022 6:15:00 PM 17.4 63.32 0.082 8.63 3.42 9.61
5/28/2022 6:30:00 PM 17.25 63.05 0.083 8.25 3.34 9.5
5/28/2022 6:45:00 PM 17.23 63.014 0.083 8.15 3.18 9.46
5/28/2022 7:00:00 PM 17.17 62.906 0.084 8.05 3.39 9.39
5/28/2022 7:15:00 PM 17.11 62.798 0.084 7.87 3.15 9.35
5/28/2022 7:30:00 PM 17.04 62.672 0.085 7.81 3.66 9.27
5/28/2022 7:45:00 PM 16.9 62.42 0.085 7.65 3.23 9.13
5/28/2022 8:00:00 PM 16.84 62.312 0.086 7.64 3.3 9.09
5/28/2022 8:15:00 PM 16.74 62.132 0.086 7.57 3.35 9.02
5/28/2022 8:30:00 PM 16.63 61.934 0.087 7.52 3.66 8.88
5/28/2022 8:45:00 PM 16.56 61.808 0.087 7.49 4.11 8.87
5/28/2022 9:00:00 PM 16.45 61.61 0.088 7.48 3.45 8.82
5/28/2022 9:15:00 PM 16.34 61.412 0.088 7.44 3.84 8.77
5/28/2022 9:30:00 PM 16.22 61.196 0.089 7.42 3.46 8.75
5/28/2022 9:45:00 PM 16.1 60.98 0.089 7.41 3.5 8.76
5/28/2022 10:00:00 PM 15.97 60.746 0.089 7.4 3.29 8.76
5/28/2022 10:15:00 PM 15.8 60.44 0.089 7.33 3.49 8.71
5/28/2022 10:30:00 PM 15.69 60.242 0.09 7.36 3.33 8.78
5/28/2022 10:45:00 PM 15.59 60.062 0.09 7.34 3.7 8.84
5/28/2022 11:00:00 PM 15.43 59.774 0.09 7.33 3.74 8.8
5/28/2022 11:15:00 PM 15.27 59.486 0.09 7.3 3.5 8.82
5/28/2022 11:30:00 PM 15.17 59.306 0.09 7.32 3.33 8.87
5/28/2022 11:45:00 PM 15.08 59.144 0.09 7.31 3.46 8.9
5/29/2022 12:00:00 AM 14.98 58.964 0.09 7.3 3.6 8.97
5/29/2022 12:15:00 AM 14.86 58.748 0.09 7.32 3.37 8.98
5/29/2022 12:30:00 AM 14.78 58.604 0.09 7.34 3.5 9.02
5/29/2022 12:45:00 AM 14.63 58.334 0.09 7.28 3.54 8.97
5/29/2022 1:00:00 AM 14.53 58.154 0.09 7.26 3.61 9.01
5/29/2022 1:15:00 AM 14.43 57.974 0.09 7.28 3.33 9.06
5/29/2022 1:30:00 AM 14.33 57.794 0.09 7.27 3.52 9.09
5/29/2022 1:45:00 AM 14.25 57.65 0.09 7.3 3.32 9.18
5/29/2022 2:00:00 AM 14.13 57.434 0.09 7.29 3.43 9.14
5/29/2022 2:15:00 AM 14.02 57.236 0.09 7.29 3.44 9.17
5/29/2022 2:30:00 AM 13.91 57.038 0.091 7.26 3.26 9.21
5/29/2022 2:45:00 AM 13.82 56.876 0.091 7.29 3.33 9.26
5/29/2022 3:00:00 AM 13.71 56.678 0.091 7.25 3.43 9.23
5/29/2022 3:15:00 AM 13.63 56.534 0.091 7.29 3.5 9.33
5/29/2022 3:30:00 AM 13.52 56.336 0.09 7.25 3.4 9.33
5/29/2022 3:45:00 AM 13.42 56.156 0.091 7.26 3.48 9.32
5/29/2022 4:00:00 AM 13.32 55.976 0.09 7.23 4.03 9.34
5/29/2022 4:15:00 AM 13.25 55.85 0.09 7.28 3.75 9.46
5/29/2022 4:30:00 AM 13.16 55.688 0.09 7.25 3.8 9.47
5/29/2022 4:45:00 AM 13.06 55.508 0.09 7.26 3.24 9.46
5/29/2022 5:00:00 AM 12.94 55.292 0.09 7.2 3.79 9.43
5/29/2022 5:15:00 AM 12.88 55.184 0.09 7.26 3.59 9.53
5/29/2022 5:30:00 AM 12.77 54.986 0.09 7.2 4 9.48
5/29/2022 5:45:00 AM 12.7 54.86 0.09 7.24 3.45 9.59
5/29/2022 6:00:00 AM 12.61 54.698 0.09 7.21 3.62 9.63
5/29/2022 6:15:00 AM 12.5 54.5 0.09 7.22 3.18 9.68
5/29/2022 6:30:00 AM 12.45 54.41 0.09 7.23 3.87 9.82
5/29/2022 6:45:00 AM 12.38 54.284 0.09 7.28 3.47 9.98
5/29/2022 7:00:00 AM 12.31 54.158 0.09 7.27 3.04 10.05
5/29/2022 7:15:00 AM 12.27 54.086 0.09 7.29 3.18 10.2
5/29/2022 7:30:00 AM 12.25 54.05 0.089 7.33 3.15 10.37
5/29/2022 7:45:00 AM 12.26 54.068 0.089 7.34 3.2 10.53
5/29/2022 8:00:00 AM 12.31 54.158 0.089 7.42 3.53 10.69
5/29/2022 8:15:00 AM 12.38 54.284 0.089 7.44 3.22 10.76
5/29/2022 8:30:00 AM 12.52 54.536 0.088 7.45 3.12 10.85
5/29/2022 8:45:00 AM 12.59 54.662 0.088 7.47 3.25 10.97
5/29/2022 9:00:00 AM 12.67 54.806 0.088 7.56 3.22 11.12
5/29/2022 9:15:00 AM 12.84 55.112 0.087 7.52 3.38 11.14
5/29/2022 9:30:00 AM 13.01 55.418 0.087 7.61 3.01 11.15
5/29/2022 9:45:00 AM 13.11 55.598 0.087 7.56 3.38 11.11
5/29/2022 10:00:00 AM 13.34 56.012 0.087 7.81 3.21 11.3
5/29/2022 10:15:00 AM 13.52 56.336 0.086 7.87 3.28 11.28
5/29/2022 10:30:00 AM 13.69 56.642 0.086 7.91 4.02 11.21
5/29/2022 10:45:00 AM 13.97 57.146 0.086 7.96 3.42 11.13
5/29/2022 11:00:00 AM 14.32 57.776 0.086 8.06 3.27 11.14
5/29/2022 11:15:00 AM 14.75 58.55 0.086 8.24 3.71 11.11
5/29/2022 11:30:00 AM 15.09 59.162 0.086 8.37 3.33 11.01
5/29/2022 11:45:00 AM 15.42 59.756 0.086 8.5 3.22 10.98
5/29/2022 12:00:00 PM 15.69 60.242 0.086 8.57 3.27 10.9
5/29/2022 12:15:00 PM 16.1 60.98 0.085 8.66 3.33 10.83
5/29/2022 12:30:00 PM 16.4 61.52 0.085 8.66 3.16 10.75
5/29/2022 12:45:00 PM 16.67 62.006 0.085 8.62 3.18 10.61
5/29/2022 1:00:00 PM 17.01 62.618 0.085 8.77 3.35 10.62
5/29/2022 1:15:00 PM 17.39 63.302 0.085 8.83 3.33 10.53
5/29/2022 1:30:00 PM 17.75 63.95 0.085 8.96 3.15 10.49
5/29/2022 1:45:00 PM 18.12 64.616 0.085 9.01 3.28 10.43
5/29/2022 2:00:00 PM 18.36 65.048 0.085 9.05 3.37 10.32
5/29/2022 2:15:00 PM 18.58 65.444 0.085 9 3.33 10.17
5/29/2022 2:30:00 PM 18.84 65.912 0.085 9.06 3.66 10.13
5/29/2022 2:45:00 PM 19.08 66.344 0.085 9.08 3.11 10.06
5/29/2022 3:00:00 PM 19.26 66.668 0.085 9.11 3.45 9.99
5/29/2022 3:15:00 PM 19.4 66.92 0.085 9.09 3.21 9.9
5/29/2022 3:30:00 PM 19.5 67.1 0.085 9.06 3.71 9.82
5/29/2022 3:45:00 PM 19.63 67.334 0.085 9.05 3.31 9.79
5/29/2022 4:00:00 PM 19.69 67.442 0.085 9.04 3.62 9.71
5/29/2022 4:15:00 PM 19.65 67.37 0.085 8.97 3.19 9.56
5/29/2022 4:30:00 PM 19.63 67.334 0.085 8.91 3.2 9.5
5/29/2022 4:45:00 PM 19.66 67.388 0.085 8.9 3.25 9.46
5/29/2022 5:00:00 PM 19.59 67.262 0.085 8.78 3.26 9.38
5/29/2022 5:15:00 PM 19.59 67.262 0.085 8.69 3.36 9.29
5/29/2022 5:30:00 PM 19.52 67.136 0.085 8.51 3.45 9.19
5/29/2022 5:45:00 PM 19.54 67.172 0.085 8.43 3.48 9.19
5/29/2022 6:00:00 PM 19.55 67.19 0.085 8.36 3.31 9.14
5/29/2022 6:15:00 PM 19.49 67.082 0.086 8.17 3.4 9.06
5/29/2022 6:30:00 PM 19.41 66.938 0.086 8.01 3.25 8.98
5/29/2022 6:45:00 PM 19.29 66.722 0.087 7.84 3.22 8.89
5/29/2022 7:00:00 PM 19.18 66.524 0.087 7.79 3.31 8.82
5/29/2022 7:15:00 PM 19.04 66.272 0.087 7.66 3.2 8.76
5/29/2022 7:30:00 PM 18.94 66.092 0.088 7.65 3.27 8.71
5/29/2022 7:45:00 PM 18.83 65.894 0.088 7.58 3.46 8.65
5/29/2022 8:00:00 PM 18.71 65.67799 0.088 7.56 3.3 8.61
5/29/2022 8:15:00 PM 18.56 65.408 0.089 7.51 3.28 8.51
5/29/2022 8:30:00 PM 18.42 65.156 0.089 7.48 3.38 8.47
5/29/2022 8:45:00 PM 18.28 64.904 0.09 7.43 3.46 8.39
5/29/2022 9:00:00 PM 18.11 64.598 0.09 7.42 3.27 8.36
5/29/2022 9:15:00 PM 17.97 64.346 0.091 7.38 3.47 8.34
5/29/2022 9:30:00 PM 17.81 64.058 0.091 7.38 3.56 8.35
5/29/2022 9:45:00 PM 17.66 63.788 0.091 7.35 3.38 8.36
5/29/2022 10:00:00 PM 17.49 63.482 0.091 7.36 3.43 8.35
5/29/2022 10:15:00 PM 17.33 63.194 0.092 7.31 3.49 8.38
5/29/2022 10:30:00 PM 17.18 62.924 0.092 7.34 3.39 8.42
5/29/2022 10:45:00 PM 17.06 62.708 0.092 7.31 4.78 8.44
5/29/2022 11:00:00 PM 16.93 62.474 0.092 7.33 3.36 8.49
5/29/2022 11:15:00 PM 16.8 62.24 0.092 7.3 3.54 8.53
5/29/2022 11:30:00 PM 16.66 61.988 0.092 7.31 3.45 8.53
5/29/2022 11:45:00 PM 16.52 61.736 0.092 7.28 3.27 8.55
5/30/2022 12:00:00 AM 16.41 61.538 0.092 7.3 3.45 8.57
5/30/2022 12:15:00 AM 16.26 61.268 0.092 7.27 3.67 8.61
5/30/2022 12:30:00 AM 16.16 61.088 0.092 7.28 3.38 8.65
5/30/2022 12:45:00 AM 16.03 60.854 0.092 7.26 4.17 8.65
5/30/2022 1:00:00 AM 15.91 60.638 0.092 7.26 3.26 8.67
5/30/2022 1:15:00 AM 15.79 60.422 0.092 7.24 3.6 8.69
5/30/2022 1:30:00 AM 15.68 60.224 0.092 7.27 3.34 8.74
5/30/2022 1:45:00 AM 15.54 59.972 0.092 7.24 3.52 8.78
5/30/2022 2:00:00 AM 15.41 59.738 0.092 7.24 3.42 8.76
5/30/2022 2:15:00 AM 15.29 59.522 0.092 7.23 3.49 8.8
5/30/2022 2:30:00 AM 15.2 59.36 0.092 7.24 3.35 8.86
5/30/2022 2:45:00 AM 15.05 59.09 0.092 7.22 3.52 8.88
5/30/2022 3:00:00 AM 14.98 58.964 0.092 7.25 3.38 8.87
5/30/2022 3:15:00 AM 14.85 58.73 0.092 7.22 3.43 8.92
5/30/2022 3:30:00 AM 14.74 58.532 0.092 7.23 3.28 8.93
5/30/2022 3:45:00 AM 14.66 58.388 0.093 7.23 3.43 8.99
5/30/2022 4:00:00 AM 14.53 58.154 0.092 7.22 3.4 9.01
5/30/2022 4:15:00 AM 14.48 58.064 0.093 7.24 3.64 9.08
5/30/2022 4:30:00 AM 14.35 57.83 0.092 7.25 3.22 9.09
5/30/2022 4:45:00 AM 14.26 57.668 0.092 7.21 3.64 9.09
5/30/2022 5:00:00 AM 14.17 57.506 0.093 7.23 3.54 9.09
5/30/2022 5:15:00 AM 14.1 57.38 0.093 7.24 3.47 9.11
5/30/2022 5:30:00 AM 14.02 57.236 0.093 7.24 3.8 9.14
5/30/2022 5:45:00 AM 13.91 57.038 0.093 7.2 3.51 9.18
5/30/2022 6:00:00 AM 13.83 56.894 0.093 7.22 3.22 9.25
5/30/2022 6:15:00 AM 13.77 56.786 0.092 7.2 3.26 9.3
5/30/2022 6:30:00 AM 13.66 56.588 0.092 7.21 3.35 9.38
5/30/2022 6:45:00 AM 13.65 56.57 0.092 7.25 3.78 9.56
5/30/2022 7:00:00 AM 13.58 56.444 0.092 7.27 3.36 9.67
5/30/2022 7:15:00 AM 13.54 56.372 0.092 7.24 3.34 9.78
5/30/2022 7:30:00 AM 13.54 56.372 0.092 7.31 3.53 9.96
5/30/2022 7:45:00 AM 13.56 56.408 0.092 7.32 3.45 10.1
5/30/2022 8:00:00 AM 13.58 56.444 0.091 7.35 3.52 10.23
5/30/2022 8:15:00 AM 13.65 56.57 0.091 7.36 3.55 10.35
5/30/2022 8:30:00 AM 13.74 56.732 0.091 7.4 3.31 10.51
5/30/2022 8:45:00 AM 13.86 56.948 0.09 7.4 3.74 10.65
5/30/2022 9:00:00 AM 13.95 57.11 0.09 7.47 3.26 10.76
5/30/2022 9:15:00 AM 14.1 57.38 0.09 7.56 3.54 10.88
5/30/2022 9:30:00 AM 14.19 57.542 0.089 7.62 3.43 10.9
5/30/2022 9:45:00 AM 14.3 57.74 0.089 7.64 3.44 10.92
5/30/2022 10:00:00 AM 14.39 57.902 0.089 7.73 3.78 10.93
5/30/2022 10:15:00 AM 14.46 58.028 0.089 7.7 3.78 10.87
5/30/2022 10:30:00 AM 14.56 58.208 0.089 7.75 3.52 10.93
5/30/2022 10:45:00 AM 14.72 58.496 0.088 7.89 3.6 10.96
5/30/2022 11:00:00 AM 14.85 58.73 0.088 8.04 3.31 10.96
5/30/2022 11:15:00 AM 14.99 58.982 0.088 8.15 3.36 10.96
5/30/2022 11:30:00 AM 15.16 59.288 0.088 8.36 3.31 10.97
5/30/2022 11:45:00 AM 15.5 59.9 0.088 8.52 3.43 11.03
5/30/2022 12:00:00 PM 15.84 60.512 0.088 8.65 3.33 10.97
5/30/2022 12:15:00 PM 16.15 61.07 0.087 8.64 3.31 10.8
5/30/2022 12:30:00 PM 16.6 61.88 0.087 8.79 3.35 10.79
5/30/2022 12:45:00 PM 17.08 62.744 0.087 8.94 3.32 10.78
5/30/2022 1:00:00 PM 17.45 63.41 0.087 8.99 3.42 10.66
5/30/2022 1:15:00 PM 17.87 64.166 0.087 9.04 3.39 10.59
5/30/2022 1:30:00 PM 18.23 64.814 0.087 9.1 3.31 10.51
5/30/2022 1:45:00 PM 18.58 65.444 0.087 9.13 4.63 10.4
5/30/2022 2:00:00 PM 18.91 66.038 0.087 9.17 3.59 10.31
5/30/2022 2:15:00 PM 19.21 66.578 0.087 9.16 3.61 10.18
5/30/2022 2:30:00 PM 19.5 67.1 0.087 9.21 3.35 10.09
5/30/2022 2:45:00 PM 19.79 67.622 0.087 9.21 3.58 9.99
5/30/2022 3:00:00 PM 20 68 0.087 9.23 4.09 9.87
5/30/2022 3:15:00 PM 20.21 68.378 0.087 9.2 3.4 9.79
5/30/2022 3:30:00 PM 20.4 68.72 0.087 9.22 3.55 9.72
5/30/2022 3:45:00 PM 20.51 68.918 0.087 9.17 3.6 9.58
5/30/2022 4:00:00 PM 20.66 69.188 0.087 9.18 3.72 9.52
5/30/2022 4:15:00 PM 20.73 69.314 0.087 9.11 3.61 9.42
5/30/2022 4:30:00 PM 20.76 69.368 0.087 9.09 3.5 9.34
5/30/2022 4:45:00 PM 20.77 69.386 0.087 9.03 3.87 9.29
5/30/2022 5:00:00 PM 20.75 69.35 0.086 8.97 3.76 9.19
5/30/2022 5:15:00 PM 20.74 69.332 0.087 8.88 3.82 9.15
5/30/2022 5:30:00 PM 20.72 69.296 0.087 8.81 4.06 9.09
5/30/2022 5:45:00 PM 20.68 69.224 0.087 8.73 3.75 9.03
5/30/2022 6:00:00 PM 20.58 69.044 0.087 8.54 3.76 8.9
5/30/2022 6:15:00 PM 20.56 69.008 0.087 8.37 3.55 8.83
5/30/2022 6:30:00 PM 20.48 68.864 0.087 8.21 3.5 8.74
5/30/2022 6:45:00 PM 20.36 68.648 0.088 7.98 3.48 8.65
5/30/2022 7:00:00 PM 20.31 68.558 0.088 7.88 3.51 8.58
5/30/2022 7:15:00 PM 20.22 68.396 0.088 7.8 3.52 8.52
5/30/2022 7:30:00 PM 20.15 68.27 0.089 7.73 3.35 8.47
5/30/2022 7:45:00 PM 20.06 68.108 0.089 7.65 3.55 8.41
5/30/2022 8:00:00 PM 19.94 67.892 0.09 7.59 3.5 8.32
5/30/2022 8:15:00 PM 19.86 67.748 0.091 7.54 3.69 8.24
5/30/2022 8:30:00 PM 19.71 67.478 0.091 7.49 3.73 8.14
5/30/2022 8:45:00 PM 19.58 67.244 0.092 7.41 3.56 8.02
5/30/2022 9:00:00 PM 19.51 67.118 0.092 7.43 3.57 8.02
5/30/2022 9:15:00 PM 19.37 66.866 0.093 7.36 3.79 7.96
5/30/2022 9:30:00 PM 19.26 66.668 0.093 7.38 4.11 7.95
5/30/2022 9:45:00 PM 19.13 66.434 0.094 7.32 3.45 7.97
5/30/2022 10:00:00 PM 19 66.2 0.094 7.34 4.89 7.96
5/30/2022 10:15:00 PM 18.88 65.984 0.094 7.31 3.81 8.01
5/30/2022 10:30:00 PM 18.75 65.75 0.094 7.32 3.73 8.02
5/30/2022 10:45:00 PM 18.62 65.516 0.095 7.28 3.67 8.02
5/30/2022 11:00:00 PM 18.51 65.318 0.095 7.3 3.56 8.05
5/30/2022 11:15:00 PM 18.4 65.12 0.095 7.27 3.5 8.05
5/30/2022 11:30:00 PM 18.31 64.958 0.095 7.28 3.6 8.11
5/30/2022 11:45:00 PM 18.21 64.778 0.095 7.26 3.69 8.12
5/31/2022 12:00:00 AM 18.08 64.544 0.095 7.27 3.88 8.13
5/31/2022 12:15:00 AM 18.01 64.418 0.095 7.26 3.88 8.15
5/31/2022 12:30:00 AM 17.88 64.184 0.095 7.26 3.57 8.16
5/31/2022 12:45:00 AM 17.8 64.04 0.095 7.25 3.58 8.21
5/31/2022 1:00:00 AM 17.68 63.824 0.095 7.26 3.56 8.22
5/31/2022 1:15:00 AM 17.55 63.59 0.095 7.23 3.55 8.24
5/31/2022 1:30:00 AM 17.5 63.5 0.095 7.26 3.43 8.31
5/31/2022 1:45:00 AM 17.39 63.302 0.095 7.24 3.66 8.31
5/31/2022 2:00:00 AM 17.23 63.014 0.095 7.23 3.54 8.31
5/31/2022 2:15:00 AM 17.13 62.834 0.095 7.21 3.37 8.32
5/31/2022 2:30:00 AM 17.06 62.708 0.095 7.25 4.55 8.36
5/31/2022 2:45:00 AM 16.96 62.528 0.095 7.23 3.7 8.44
5/31/2022 3:00:00 AM 16.84 62.312 0.095 7.24 3.52 8.45
5/31/2022 3:15:00 AM 16.74 62.132 0.095 7.22 3.5 8.49
5/31/2022 3:30:00 AM 16.62 61.916 0.095 7.23 3.47 8.48
5/31/2022 3:45:00 AM 16.48 61.664 0.095 7.18 3.99 8.45
5/31/2022 4:00:00 AM 16.43 61.574 0.095 7.23 3.6 8.54
5/31/2022 4:15:00 AM 16.31 61.358 0.095 7.2 3.51 8.56
5/31/2022 4:30:00 AM 16.24 61.232 0.095 7.24 3.66 8.62
5/31/2022 4:45:00 AM 16.13 61.034 0.095 7.19 3.78 8.57
5/31/2022 5:00:00 AM 16.05 60.89 0.096 7.22 3.69 8.63
5/31/2022 5:15:00 AM 15.93 60.674 0.095 7.19 3.66 8.62
5/31/2022 5:30:00 AM 15.83 60.494 0.095 7.2 3.97 8.62
5/31/2022 5:45:00 AM 15.75 60.35 0.095 7.18 3.73 8.65
5/31/2022 6:00:00 AM 15.67 60.206 0.095 7.2 3.72 8.74
5/31/2022 6:15:00 AM 15.6 60.08 0.095 7.21 3.59 8.83
5/31/2022 6:30:00 AM 15.55 59.99 0.095 7.23 3.74 8.93
5/31/2022 6:45:00 AM 15.45 59.81 0.095 7.24 3.66 9.01
5/31/2022 7:00:00 AM 15.41 59.738 0.095 7.25 3.41 9.13
5/31/2022 7:15:00 AM 15.4 59.72 0.095 7.27 3.55 9.29
5/31/2022 7:30:00 AM 15.35 59.63 0.095 7.3 3.51 9.41
5/31/2022 7:45:00 AM 15.38 59.684 0.095 7.31 3.63 9.52
5/31/2022 8:00:00 AM 15.42 59.756 0.095 7.36 3.5 9.7
5/31/2022 8:15:00 AM 15.46 59.828 0.094 7.36 3.77 9.8
5/31/2022 8:30:00 AM 15.54 59.972 0.094 7.36 3.38 9.88
5/31/2022 8:45:00 AM 15.74 60.332 0.094 7.39 3.43 10
5/31/2022 9:00:00 AM 15.86 60.548 0.093 7.43 3.34 10.07
5/31/2022 9:15:00 AM 16.04 60.872 0.093 7.43 3.31 10.1
5/31/2022 9:30:00 AM 16.18 61.124 0.093 7.45 3.42 10.13
5/31/2022 9:45:00 AM 16.4 61.52 0.092 7.51 3.73 10.23
5/31/2022 10:00:00 AM 16.64 61.952 0.092 7.54 3.73 10.17
5/31/2022 10:15:00 AM 16.9 62.42 0.092 7.63 3.59 10.19
5/31/2022 10:30:00 AM 17.17 62.906 0.092 7.69 3.32 10.18
5/31/2022 10:45:00 AM 17.5 63.5 0.092 7.76 3.42 10.16
5/31/2022 11:00:00 AM 17.89 64.202 0.091 7.86 3.39 10.19
5/31/2022 11:15:00 AM 18.25 64.85 0.091 7.98 3.62 10.2
5/31/2022 11:30:00 AM 18.61 65.498 0.091 8.13 3.53 10.16
5/31/2022 11:45:00 AM 18.93 66.074 0.091 8.27 3.39 10.16
5/31/2022 12:00:00 PM 19.31 66.758 0.091 8.5 3.53 10.14
5/31/2022 12:15:00 PM 19.61 67.298 0.09 8.59 3.51 10.13
5/31/2022 12:30:00 PM 19.89 67.802 0.09 8.68 3.72 10.03
5/31/2022 12:45:00 PM 20.2 68.36 0.09 8.76 3.43 9.94
5/31/2022 1:00:00 PM 20.47 68.846 0.09 8.83 3.36 9.96
5/31/2022 1:15:00 PM 20.8 69.44 0.09 8.91 3.51 9.89
5/31/2022 1:30:00 PM 21.06 69.908 0.09 8.97 3.46 9.82
5/31/2022 1:45:00 PM 21.33 70.394 0.09 8.97 6.27 9.72
5/31/2022 2:00:00 PM 21.48 70.664 0.09 8.99 3.41 9.64
5/31/2022 2:15:00 PM 21.6 70.88 0.09 8.98 3.53 9.59
5/31/2022 2:30:00 PM 21.82 71.276 0.09 9.09 3.43 9.55
5/31/2022 2:45:00 PM 21.93 71.474 0.09 9.02 6.73 9.41
5/31/2022 3:00:00 PM 22.03 71.654 0.09 9.05 3.56 9.42
5/31/2022 3:15:00 PM 22.11 71.798 0.09 9.04 3.65 9.34
5/31/2022 3:30:00 PM 22.15 71.87 0.09 9.06 3.74 9.31
5/31/2022 3:45:00 PM 22.19 71.942 0.09 9.01 4.47 9.14
5/31/2022 4:00:00 PM 22.25 72.05 0.09 9.02 3.69 9.19
5/31/2022 4:15:00 PM 22.28 72.104 0.089 9.02 3.59 9.1
5/31/2022 4:30:00 PM 22.26 72.068 0.09 8.95 3.4 8.98
5/31/2022 4:45:00 PM 22.19 71.942 0.09 8.87 3.5 8.9
5/31/2022 5:00:00 PM 22.11 71.798 0.09 8.76 3.48 8.82
5/31/2022 5:15:00 PM 22.05 71.69 0.09 8.66 3.44 8.67
5/31/2022 5:30:00 PM 21.99 71.582 0.09 8.51 3.42 8.61
5/31/2022 5:45:00 PM 21.91 71.438 0.09 8.33 3.56 8.58
5/31/2022 6:00:00 PM 21.88 71.384 0.09 8.21 3.49 8.5
5/31/2022 6:15:00 PM 21.9 71.42 0.091 8.13 3.58 8.49
5/31/2022 6:30:00 PM 21.83 71.294 0.091 8.01 3.5 8.42
5/31/2022 6:45:00 PM 21.77 71.186 0.091 7.89 3.47 8.37
5/31/2022 7:00:00 PM 21.7 71.06 0.092 7.82 3.33 8.31
5/31/2022 7:15:00 PM 21.55 70.79 0.092 7.69 3.35 8.21
5/31/2022 7:30:00 PM 21.47 70.646 0.093 7.66 3.44 8.15
5/31/2022 7:45:00 PM 21.34 70.412 0.093 7.58 3.66 8.05
5/31/2022 8:00:00 PM 21.23 70.214 0.093 7.53 3.39 7.95
5/31/2022 8:15:00 PM 21.13 70.034 0.094 7.48 3.47 7.82
5/31/2022 8:30:00 PM 20.99 69.782 0.094 7.45 3.56 7.76
5/31/2022 8:45:00 PM 20.92 69.656 0.094 7.41 3.44 7.7
5/31/2022 9:00:00 PM 20.81 69.458 0.095 7.38 3.95 7.63
5/31/2022 9:15:00 PM 20.68 69.224 0.095 7.35 3.69 7.58
5/31/2022 9:30:00 PM 20.54 68.972 0.095 7.34 3.66 7.55
5/31/2022 9:45:00 PM 20.44 68.792 0.096 7.31 3.54 7.54
5/31/2022 10:00:00 PM 20.32 68.576 0.096 7.31 3.69 7.57
5/31/2022 10:15:00 PM 20.18 68.324 0.096 7.27 3.56 7.59
5/31/2022 10:30:00 PM 20.08 68.144 0.097 7.3 3.55 7.59
5/31/2022 10:45:00 PM 19.97 67.946 0.097 7.28 3.62 7.61
5/31/2022 11:00:00 PM 19.83 67.694 0.097 7.26 3.51 7.62
5/31/2022 11:15:00 PM 19.76 67.568 0.097 7.27 3.42 7.65
5/31/2022 11:30:00 PM 19.62 67.316 0.097 7.25 3.54 7.66
5/31/2022 11:45:00 PM 19.52 67.136 0.097 7.22 3.74 7.69
6/1/2022 12:00:00 AM 19.42 66.956 0.097 7.24 3.63 7.69
6/1/2022 12:15:00 AM 19.3 66.74 0.097 7.22 3.78 7.73
6/1/2022 12:30:00 AM 19.24 66.632 0.097 7.23 3.38 7.74
6/1/2022 12:45:00 AM 19.11 66.398 0.097 7.21 3.48 7.76
6/1/2022 1:00:00 AM 19.08 66.344 0.097 7.23 3.53 7.79
6/1/2022 1:15:00 AM 18.98 66.164 0.097 7.22 3.62 7.8
6/1/2022 1:30:00 AM 18.91 66.038 0.097 7.22 3.76 7.82
6/1/2022 1:45:00 AM 18.84 65.912 0.097 7.23 3.7 7.86
6/1/2022 2:00:00 AM 18.67 65.606 0.097 7.19 3.54 7.82
6/1/2022 2:15:00 AM 18.61 65.498 0.097 7.21 3.56 7.88
6/1/2022 2:30:00 AM 18.53 65.354 0.098 7.22 3.68 7.93
6/1/2022 2:45:00 AM 18.4 65.12 0.098 7.22 3.45 7.95
6/1/2022 3:00:00 AM 18.3 64.94 0.098 7.22 3.46 7.99
6/1/2022 3:15:00 AM 18.2 64.76 0.098 7.21 3.51 8.02
6/1/2022 3:30:00 AM 18.08 64.544 0.098 7.21 3.61 8.01
6/1/2022 3:45:00 AM 17.97 64.346 0.098 7.19 4.31 8.04
6/1/2022 4:00:00 AM 17.87 64.166 0.098 7.21 3.49 8.07
6/1/2022 4:15:00 AM 17.76 63.968 0.098 7.19 3.61 8.11
6/1/2022 4:30:00 AM 17.67 63.806 0.098 7.22 3.65 8.15
6/1/2022 4:45:00 AM 17.55 63.59 0.098 7.19 3.77 8.15
6/1/2022 5:00:00 AM 17.46 63.428 0.098 7.21 3.73 8.18
6/1/2022 5:15:00 AM 17.36 63.248 0.098 7.19 3.88 8.2
6/1/2022 5:30:00 AM 17.28 63.104 0.098 7.21 3.67 8.23
6/1/2022 5:45:00 AM 17.18 62.924 0.098 7.2 3.56 8.26
6/1/2022 6:00:00 AM 17.13 62.834 0.098 7.23 4.04 8.36
6/1/2022 6:15:00 AM 17.02 62.636 0.098 7.2 3.76 8.42
6/1/2022 6:30:00 AM 16.96 62.528 0.098 7.22 3.58 8.47
6/1/2022 6:45:00 AM 16.92 62.456 0.097 7.23 3.69 8.61
6/1/2022 7:00:00 AM 16.92 62.456 0.097 7.28 3.5 8.84
6/1/2022 7:15:00 AM 16.91 62.438 0.097 7.29 3.52 8.97
6/1/2022 7:30:00 AM 16.91 62.438 0.097 7.33 3.44 9.12
6/1/2022 7:45:00 AM 16.92 62.456 0.096 7.34 3.58 9.27
6/1/2022 8:00:00 AM 16.97 62.546 0.096 7.38 3.41 9.39
6/1/2022 8:15:00 AM 17.03 62.654 0.096 7.4 3.66 9.53
6/1/2022 8:30:00 AM 17.02 62.636 0.096 7.41 3.39 9.5
6/1/2022 8:45:00 AM 17.08 62.744 0.095 7.44 3.73 9.53
6/1/2022 9:00:00 AM 17.13 62.834 0.095 7.44 3.36 9.62
6/1/2022 9:15:00 AM 17.28 63.104 0.095 7.47 3.65 9.7
6/1/2022 9:30:00 AM 17.42 63.356 0.095 7.5 3.41 9.82
6/1/2022 9:45:00 AM 17.64 63.752 0.094 7.54 3.48 9.94
6/1/2022 10:00:00 AM 17.83 64.094 0.094 7.63 3.78 10
6/1/2022 10:15:00 AM 18.02 64.436 0.094 7.69 3.55 10.06
6/1/2022 10:30:00 AM 18.19 64.742 0.093 7.76 3.45 10.06
6/1/2022 10:45:00 AM 18.32 64.976 0.093 7.82 3.52 10.04
6/1/2022 11:00:00 AM 18.43 65.174 0.093 7.89 3.41 10.02
6/1/2022 11:15:00 AM 18.58 65.444 0.093 7.97 3.63 9.99
6/1/2022 11:30:00 AM 18.81 65.858 0.093 8.11 3.51 10.02
6/1/2022 11:45:00 AM 19 66.2 0.093 8.2 3.52 10.05
6/1/2022 12:00:00 PM 19.27 66.686 0.092 8.44 3.56 10.08
6/1/2022 12:15:00 PM 19.5 67.1 0.092 8.51 3.6 10.08
6/1/2022 12:30:00 PM 19.71 67.478 0.092 8.62 3.55 10.03
6/1/2022 12:45:00 PM 19.96 67.92799 0.092 8.7 3.52 9.99
6/1/2022 1:00:00 PM 20.16 68.288 0.092 8.8 3.66 10.02
6/1/2022 1:15:00 PM 20.3 68.54 0.092 8.86 3.77 9.83
6/1/2022 1:30:00 PM 20.36 68.648 0.092 8.84 3.59 9.65
6/1/2022 1:45:00 PM 20.34 68.612 0.092 8.65 4.09 9.21
6/1/2022 2:00:00 PM 20.31 68.558 0.092 8.42 5.02 8.93
6/1/2022 2:15:00 PM 20.31 68.558 0.092 8.27 3.72 9.05
6/1/2022 2:30:00 PM 20.4 68.72 0.092 8.28 3.56 9.19
6/1/2022 2:45:00 PM 20.48 68.864 0.092 8.28 3.64 9.25
6/1/2022 3:00:00 PM 20.63 69.134 0.092 8.39 3.44 9.37
6/1/2022 3:15:00 PM 20.82 69.476 0.092 8.59 3.54 9.52
6/1/2022 3:30:00 PM 20.94 69.692 0.092 8.69 3.69 9.54
6/1/2022 3:45:00 PM 20.96 69.728 0.092 8.72 3.72 9.45
6/1/2022 4:00:00 PM 20.89 69.602 0.092 8.61 3.5 9.19
6/1/2022 4:15:00 PM 20.76 69.368 0.092 8.39 3.79 8.87
6/1/2022 4:30:00 PM 20.59 69.062 0.093 8.05 4.09 8.55
6/1/2022 4:45:00 PM 20.43 68.774 0.093 7.84 3.91 8.34
6/1/2022 5:00:00 PM 20.28 68.504 0.093 7.67 4.08 8.23
6/1/2022 5:15:00 PM 20.26 68.468 0.093 7.65 3.63 8.27
6/1/2022 5:30:00 PM 20.25 68.45 0.093 7.62 3.63 8.29
6/1/2022 5:45:00 PM 20.11 68.198 0.087 7.52 8.66 8.28
6/1/2022 6:00:00 PM 20.09 68.162 0.089 7.54 9.24 8.39
6/1/2022 6:15:00 PM 20.05 68.09 0.092 7.54 29.95 8.41
6/1/2022 6:30:00 PM 19.98 67.964 0.092 7.54 15.31 8.46
6/1/2022 6:45:00 PM 19.85 67.73 0.09 7.52 8.09 8.42
6/1/2022 7:00:00 PM 19.75 67.55 0.091 7.5 6.52 8.4
6/1/2022 7:15:00 PM 19.64 67.352 0.091 7.48 5.84 8.39
6/1/2022 7:30:00 PM 19.47 67.046 0.09 7.44 5.11 8.27
6/1/2022 7:45:00 PM 19.41 66.938 0.09 7.43 4.72 8.22
6/1/2022 8:00:00 PM 19.33 66.794 0.09 7.4 4.77 8.13
6/1/2022 8:15:00 PM 18.98 66.164 0.084 7.28 9.87 8.14
6/1/2022 8:30:00 PM 18.99 66.182 0.086 7.34 45.1 8.16
6/1/2022 8:45:00 PM 18.94 66.092 0.086 7.32 94 8.15
6/1/2022 9:00:00 PM 18.82 65.876 0.086 7.29 171.65 8.09
6/1/2022 9:15:00 PM 18.75 65.75 0.087 7.3 47.56 8.16
6/1/2022 9:30:00 PM 18.65 65.57 0.085 7.32 19.08 8.21
6/1/2022 9:45:00 PM 18.52 65.336 0.086 7.32 12.35 8.25
6/1/2022 10:00:00 PM 18.48 65.264 0.087 7.35 11.58 8.33
6/1/2022 10:15:00 PM 18.37 65.066 0.089 7.33 14.83 8.4
6/1/2022 10:30:00 PM 18.22 64.796 0.092 7.37 22.03 8.48
6/1/2022 10:45:00 PM 18.03 64.454 0.091 7.33 25.66 8.53
6/1/2022 11:00:00 PM 17.86 64.148 0.089 7.36 28.83 8.58
6/1/2022 11:15:00 PM 17.71 63.878 0.089 7.33 27.32 8.62
6/1/2022 11:30:00 PM 17.59 63.662 0.093 7.34 49.56 8.67
6/1/2022 11:45:00 PM 17.47 63.446 0.094 7.33 66.98 8.7
6/2/2022 12:00:00 AM 17.34 63.212 0.091 7.32 69.49 8.7
6/2/2022 12:15:00 AM 17.24 63.032 0.088 7.3 58.74 8.73
6/2/2022 12:30:00 AM 17.15 62.87 0.085 7.33 46.82 8.77
6/2/2022 12:45:00 AM 17.09 62.762 0.084 7.32 48.02 8.8
6/2/2022 1:00:00 AM 17.02 62.636 0.083 7.33 42.74 8.82
6/2/2022 1:15:00 AM 16.95 62.51 0.083 7.33 39.98 8.83
6/2/2022 1:30:00 AM 16.9 62.42 0.083 7.35 31.45 8.84
6/2/2022 1:45:00 AM 16.85 62.33 0.083 7.31 27.97 8.84
6/2/2022 2:00:00 AM 16.79 62.222 0.083 7.33 21.65 8.83
6/2/2022 2:15:00 AM 16.77 62.186 0.084 7.33 20.18 8.85
6/2/2022 2:30:00 AM 16.73 62.114 0.084 7.34 18.6 8.86
6/2/2022 2:45:00 AM 16.7 62.06 0.085 7.32 16.12 8.84
6/2/2022 3:00:00 AM 16.68 62.024 0.085 7.35 16.03 8.86
6/2/2022 3:15:00 AM 16.65 61.97 0.085 7.31 14.6 8.85
6/2/2022 3:30:00 AM 16.63 61.934 0.085 7.34 13.74 8.85
6/2/2022 3:45:00 AM 16.61 61.898 0.085 7.31 13.96 8.85
6/2/2022 4:00:00 AM 16.59 61.862 0.086 7.32 13.61 8.83
6/2/2022 4:15:00 AM 16.58 61.844 0.086 7.32 13.71 8.87
6/2/2022 4:30:00 AM 16.56 61.808 0.087 7.32 13.46 8.86
6/2/2022 4:45:00 AM 16.53 61.754 0.087 7.31 12.69 8.86
6/2/2022 5:00:00 AM 16.52 61.736 0.087 7.32 11.99 8.86
6/2/2022 5:15:00 AM 16.49 61.682 0.087 7.32 11.49 8.86
6/2/2022 5:30:00 AM 16.46 61.628 0.087 7.32 10.64 8.85
6/2/2022 5:45:00 AM 16.45 61.61 0.087 7.32 12.86 8.89
6/2/2022 6:00:00 AM 16.42 61.556 0.087 7.31 9.97 8.88
6/2/2022 6:15:00 AM 16.4 61.52 0.087 7.31 9.83 8.91
6/2/2022 6:30:00 AM 16.4 61.52 0.087 7.32 10.3 8.95
6/2/2022 6:45:00 AM 16.39 61.502 0.087 7.32 8.94 8.96
6/2/2022 7:00:00 AM 16.38 61.484 0.087 7.32 8.59 9.01
6/2/2022 7:15:00 AM 16.37 61.466 0.086 7.33 7.7 9.06
6/2/2022 7:30:00 AM 16.36 61.448 0.086 7.35 7.86 9.09
6/2/2022 7:45:00 AM 16.38 61.484 0.086 7.35 8.08 9.14
6/2/2022 8:00:00 AM 16.35 61.43 0.086 7.36 7.8 9.14
6/2/2022 8:15:00 AM 16.35 61.43 0.086 7.38 7.72 9.17
6/2/2022 8:30:00 AM 16.35 61.43 0.086 7.39 7.55 9.23
6/2/2022 8:45:00 AM 16.34 61.412 0.086 7.41 7.24 9.29
6/2/2022 9:00:00 AM 16.38 61.484 0.085 7.46 7.22 9.48
6/2/2022 9:15:00 AM 16.43 61.574 0.085 7.48 6.98 9.61
6/2/2022 9:30:00 AM 16.49 61.682 0.085 7.53 7.2 9.73
6/2/2022 9:45:00 AM 16.58 61.844 0.085 7.57 6.98 9.87
6/2/2022 10:00:00 AM 16.69 62.042 0.085 7.67 6.61 10.02
6/2/2022 10:15:00 AM 16.79 62.222 0.085 7.71 6.91 10.09
6/2/2022 10:30:00 AM 16.97 62.546 0.085 7.77 7.07 10.17
6/2/2022 10:45:00 AM 17.15 62.87 0.085 7.87 6.6 10.22
6/2/2022 11:00:00 AM 17.29 63.122 0.085 7.94 6.64 10.22
6/2/2022 11:15:00 AM 17.41 63.338 0.084 7.94 6.66 10.19
6/2/2022 11:30:00 AM 17.55 63.59 0.084 8.04 6.63 10.19
6/2/2022 11:45:00 AM 17.65 63.77 0.084 8.03 6.52 10.14
6/2/2022 12:00:00 PM 17.77 63.986 0.084 8.09 6.51 10.14
6/2/2022 12:15:00 PM 17.81 64.058 0.085 8.06 6.76 10.05
6/2/2022 12:30:00 PM 17.91 64.238 0.085 8.2 6.65 10.06
6/2/2022 12:45:00 PM 17.93 64.274 0.085 8.12 6.86 10.02
6/2/2022 1:00:00 PM 17.99 64.382 0.085 8.24 6.26 10.04
6/2/2022 1:15:00 PM 18 64.4 0.085 8.15 2.68 9.88
6/2/2022 1:30:00 PM 18.02 64.436 0.083 8.12 2.37 9.88
6/2/2022 1:45:00 PM 18.06 64.508 0.082 8.11 2.46 9.86
6/2/2022 2:00:00 PM 18.06 64.508 0.082 8.09 2.54 9.83
6/2/2022 2:15:00 PM 18.13 64.634 0.082 8.14 2.78 9.82
6/2/2022 2:30:00 PM 18.17 64.706 0.082 8.08 2.52 9.79
6/2/2022 2:45:00 PM 18.27 64.886 0.082 8.18 2.53 9.84
6/2/2022 3:00:00 PM 18.36 65.048 0.082 8.05 2.62 9.82
6/2/2022 3:15:00 PM 18.47 65.246 0.082 8.02 2.79 9.78
6/2/2022 3:30:00 PM 18.55 65.39 0.081 8.21 2.38 9.83
6/2/2022 3:45:00 PM 18.64 65.552 0.081 8.01 2.9 9.75
6/2/2022 4:00:00 PM 18.7 65.66 0.082 8.38 2.35 9.82
6/2/2022 4:15:00 PM 18.73 65.714 0.082 8.12 2.35 9.71
6/2/2022 4:30:00 PM 18.76 65.768 0.082 8.02 2.42 9.61
6/2/2022 4:45:00 PM 18.88 65.984 0.082 8.11 2.46 9.52
6/2/2022 5:00:00 PM 18.9 66.02 0.082 8.12 2.62 9.49
6/2/2022 5:15:00 PM 18.84 65.912 0.081 7.89 2.29 9.41
6/2/2022 5:30:00 PM 18.81 65.858 0.081 7.76 2.08 9.37
6/2/2022 5:45:00 PM 18.81 65.858 0.082 7.63 2.65 9.22
6/2/2022 6:00:00 PM 18.74 65.732 0.082 7.52 2.32 9.09
6/2/2022 6:15:00 PM 18.7 65.66 0.083 7.44 2.16 8.99
6/2/2022 6:30:00 PM 18.66 65.588 0.083 7.47 2.37 9.07
6/2/2022 6:45:00 PM 18.6 65.48 0.083 7.36 2.19 9
6/2/2022 7:00:00 PM 18.56 65.408 0.083 7.39 1.9 9.02
6/2/2022 7:15:00 PM 18.49 65.282 0.083 7.33 2.07 8.91
6/2/2022 7:30:00 PM 18.4 65.12 0.083 7.2 2.14 8.79
6/2/2022 7:45:00 PM 18.36 65.048 0.084 7.27 2.11 8.69
6/2/2022 8:00:00 PM 18.23 64.814 0.084 7.11 1.83 8.5
6/2/2022 8:15:00 PM 18.2 64.76 0.084 7.18 2 8.56
6/2/2022 8:30:00 PM 18.11 64.598 0.084 7.13 2.07 8.43
6/2/2022 8:45:00 PM 18 64.4 0.085 7.1 2.25 8.41
6/2/2022 9:00:00 PM 17.89 64.202 0.085 7.1 2.07 8.37
6/2/2022 9:15:00 PM 17.91 64.238 0.085 7.17 2.41 8.41
6/2/2022 9:30:00 PM 17.78 64.004 0.085 7.12 2.26 8.34
6/2/2022 9:45:00 PM 17.63 63.734 0.086 7.05 2.22 8.26
6/2/2022 10:00:00 PM 17.56 63.608 0.085 7.05 2.3 8.31
6/2/2022 10:15:00 PM 17.46 63.428 0.085 7.03 2.45 8.34
6/2/2022 10:30:00 PM 17.39 63.302 0.086 7.09 2.33 8.41
6/2/2022 10:45:00 PM 17.31 63.158 0.086 7.12 2.43 8.42
6/2/2022 11:00:00 PM 17.22 62.996 0.086 7.06 2.35 8.4
6/2/2022 11:15:00 PM 17.16 62.888 0.086 7.09 2.24 8.44
6/2/2022 11:30:00 PM 17.08 62.744 0.086 7.09 2.44 8.46
6/2/2022 11:45:00 PM 17 62.6 0.086 7.09 2.32 8.47
6/3/2022 12:00:00 AM 16.98 62.564 0.086 7.16 2.78 8.56
6/3/2022 12:15:00 AM 16.8 62.24 0.086 6.99 2.5 8.46
6/3/2022 12:30:00 AM 16.78 62.204 0.086 6.98 2.55 8.47
6/3/2022 12:45:00 AM 16.78 62.204 0.086 7.03 2.4 8.56
6/3/2022 1:00:00 AM 16.69 62.042 0.086 7.01 2.57 8.53
6/3/2022 1:15:00 AM 16.64 61.952 0.086 7.05 2.28 8.58
6/3/2022 1:30:00 AM 16.61 61.898 0.086 7.11 2.32 8.64
6/3/2022 1:45:00 AM 16.48 61.664 0.086 6.99 2 8.53
6/3/2022 2:00:00 AM 16.4 61.52 0.086 7 2.14 8.58
6/3/2022 2:15:00 AM 16.4 61.52 0.086 6.99 2.5 8.62
6/3/2022 2:30:00 AM 16.31 61.358 0.087 6.98 2.28 8.6
6/3/2022 2:45:00 AM 16.28 61.304 0.086 7.02 2.22 8.64
6/3/2022 3:00:00 AM 16.23 61.214 0.086 7.02 2.1 8.65
6/3/2022 3:15:00 AM 16.18 61.124 0.086 7.06 2.53 8.65
6/3/2022 3:30:00 AM 16.13 61.034 0.086 7.06 2.09 8.69
6/3/2022 3:45:00 AM 16.1 60.98 0.086 7.01 2.14 8.68
6/3/2022 4:00:00 AM 16.03 60.854 0.086 7.06 1.95 8.68
6/3/2022 4:15:00 AM 15.95 60.71 0.086 6.99 1.96 8.64
6/3/2022 4:30:00 AM 15.93 60.674 0.086 7.01 2 8.68
6/3/2022 4:45:00 AM 15.91 60.638 0.086 7.02 3.68 8.7
6/3/2022 5:00:00 AM 15.85 60.53 0.086 7.02 2.13 8.7
6/3/2022 5:15:00 AM 15.81 60.458 0.086 7.05 2.32 8.73
6/3/2022 5:30:00 AM 15.79 60.422 0.087 7.08 1.82 8.77
6/3/2022 5:45:00 AM 15.76 60.368 0.087 7.07 2.5 8.78
6/3/2022 6:00:00 AM 15.66 60.188 0.087 7.03 1.95 8.76
6/3/2022 6:15:00 AM 15.62 60.116 0.087 7.06 2.57 8.81
6/3/2022 6:30:00 AM 15.62 60.116 0.087 7.04 2.15 8.89
6/3/2022 6:45:00 AM 15.65 60.17 0.087 7.12 2.02 9.04
6/3/2022 7:00:00 AM 15.62 60.116 0.087 7.1 1.9 9.16
6/3/2022 7:15:00 AM 15.64 60.152 0.086 7.15 1.84 9.25
6/3/2022 7:30:00 AM 15.6 60.08 0.086 7.12 1.98 9.33
6/3/2022 7:45:00 AM 15.56 60.008 0.086 6.99 2.06 9.38
6/3/2022 8:00:00 AM 15.62 60.116 0.086 7.19 1.69 9.58
6/3/2022 8:15:00 AM 15.63 60.134 0.086 7.14 2.03 9.58
6/3/2022 8:30:00 AM 15.78 60.404 0.086 7.17 1.85 9.74
6/3/2022 8:45:00 AM 15.84 60.512 0.085 7.31 1.81 9.75
6/3/2022 9:00:00 AM 15.86 60.548 0.085 7.25 1.93 9.7
6/3/2022 9:15:00 AM 15.99 60.782 0.085 7.34 1.93 9.78
6/3/2022 9:30:00 AM 16.06 60.908 0.085 7.12 1.94 9.8
6/3/2022 9:45:00 AM 16.18 61.124 0.085 7.29 1.89 9.82
6/3/2022 10:00:00 AM 16.31 61.358 0.085 7.32 1.86 9.89
6/3/2022 10:15:00 AM 16.47 61.646 0.085 7.34 1.81 9.84
6/3/2022 10:30:00 AM 16.59 61.862 0.085 7.36 2.29 9.83
6/3/2022 10:45:00 AM 16.84 62.312 0.085 7.33 1.95 9.8
6/3/2022 11:00:00 AM 17.06 62.708 0.085 7.39 1.81 9.82
6/3/2022 11:15:00 AM 17.33 63.194 0.085 7.4 1.89 9.83
6/3/2022 11:30:00 AM 17.73 63.914 0.085 7.76 1.72 9.98
6/3/2022 11:45:00 AM 17.85 64.13 0.084 7.56 1.73 9.83
6/3/2022 12:00:00 PM 18.19 64.742 0.084 7.61 1.66 9.8
6/3/2022 12:15:00 PM 18.49 65.282 0.084 7.8 1.91 9.8
6/3/2022 12:30:00 PM 18.75 65.75 0.084 7.77 1.81 9.82
6/3/2022 12:45:00 PM 19.02 66.236 0.084 7.67 1.74 9.66
6/3/2022 1:00:00 PM 19.36 66.848 0.084 8 1.85 9.65
6/3/2022 1:15:00 PM 19.54 67.172 0.084 7.9 1.79 9.57
6/3/2022 1:30:00 PM 19.83 67.694 0.084 7.98 1.73 9.56
6/3/2022 1:45:00 PM 20.06 68.108 0.084 8.06 1.91 9.52
6/3/2022 2:00:00 PM 20.12 68.216 0.084 7.8 1.68 9.36
6/3/2022 2:15:00 PM 20.37 68.666 0.084 7.74 1.97 9.22
6/3/2022 2:30:00 PM 20.58 69.044 0.084 7.86 1.99 9.23
6/3/2022 2:45:00 PM 20.59 69.062 0.084 7.76 1.58 9.16
6/3/2022 3:00:00 PM 20.8 69.44 0.084 7.9 1.73 9.18
6/3/2022 3:15:00 PM 20.9 69.62 0.084 7.81 2.33 9.1
6/3/2022 3:30:00 PM 20.8 69.44 0.085 7.57 1.85 8.91
6/3/2022 3:45:00 PM 20.9 69.62 0.085 7.62 1.75 8.91
6/3/2022 4:00:00 PM 21 69.8 0.085 7.85 1.92 8.98
6/3/2022 4:15:00 PM 20.98 69.764 0.085 7.74 1.53 8.89
6/3/2022 4:30:00 PM 20.95 69.71 0.085 7.47 1.68 8.78
6/3/2022 4:45:00 PM 20.82 69.476 0.085 7.45 1.67 8.74
6/3/2022 5:00:00 PM 20.8 69.44 0.086 7.59 1.82 8.7
6/3/2022 5:15:00 PM 20.66 69.188 0.086 7.39 1.56 8.61
6/3/2022 5:30:00 PM 20.63 69.134 0.086 7.4 1.75 8.59
6/3/2022 5:45:00 PM 20.57 69.026 0.086 7.49 1.76 8.61
6/3/2022 6:00:00 PM 20.48 68.864 0.086 7.36 1.9 8.53
6/3/2022 6:15:00 PM 20.42 68.756 0.086 7.46 1.59 8.55
6/3/2022 6:30:00 PM 20.28 68.504 0.086 7.39 1.89 8.49
6/3/2022 6:45:00 PM 20.18 68.324 0.086 7.35 1.85 8.42
6/3/2022 7:00:00 PM 20.01 68.018 0.087 7.3 1.47 8.33
6/3/2022 7:15:00 PM 19.92 67.856 0.087 7.27 1.53 8.31
6/3/2022 7:30:00 PM 19.81 67.658 0.087 7.29 1.89 8.27
6/3/2022 7:45:00 PM 19.59 67.262 0.088 7.19 1.76 8.21
6/3/2022 8:00:00 PM 19.49 67.082 0.088 7.25 2.01 8.19
6/3/2022 8:15:00 PM 19.32 66.776 0.088 7.23 1.83 8.14
6/3/2022 8:30:00 PM 19.17 66.506 0.088 7.19 1.81 8.14
6/3/2022 8:45:00 PM 18.99 66.182 0.089 7.2 1.66 8.12
6/3/2022 9:00:00 PM 18.83 65.894 0.089 7.19 1.75 8.09
6/3/2022 9:15:00 PM 18.64 65.552 0.089 7.17 1.65 8.05
6/3/2022 9:30:00 PM 18.48 65.264 0.089 7.17 2.04 8.07
6/3/2022 9:45:00 PM 18.29 64.922 0.089 7.11 1.87 8.11
6/3/2022 10:00:00 PM 18.11 64.598 0.089 7.08 1.67 8.08
6/3/2022 10:15:00 PM 17.93 64.274 0.089 7.07 1.6 8.13
6/3/2022 10:30:00 PM 17.8 64.04 0.089 7.11 2.25 8.21
6/3/2022 10:45:00 PM 17.62 63.716 0.089 7.08 1.85 8.21
6/3/2022 11:00:00 PM 17.5 63.5 0.089 7.15 2 8.33
6/3/2022 11:15:00 PM 17.3 63.14 0.089 7.08 2.14 8.25
6/3/2022 11:30:00 PM 17.17 62.906 0.089 7.14 1.8 8.34
6/3/2022 11:45:00 PM 17.03 62.654 0.089 7.11 1.85 8.34
6/4/2022 12:00:00 AM 16.86 62.348 0.089 7.06 1.83 8.34
6/4/2022 12:15:00 AM 16.73 62.114 0.089 7.09 1.95 8.37
6/4/2022 12:30:00 AM 16.59 61.862 0.089 7.12 2.02 8.46
6/4/2022 12:45:00 AM 16.42 61.556 0.09 7.02 1.78 8.42
6/4/2022 1:00:00 AM 16.29 61.322 0.09 7.08 1.95 8.47
6/4/2022 1:15:00 AM 16.16 61.088 0.09 7.05 1.83 8.49
6/4/2022 1:30:00 AM 16.03 60.854 0.09 7.03 1.71 8.53
6/4/2022 1:45:00 AM 15.91 60.638 0.09 7.1 2.13 8.6
6/4/2022 2:00:00 AM 15.76 60.368 0.09 7.04 2.1 8.59
6/4/2022 2:15:00 AM 15.66 60.188 0.09 7.07 2.01 8.67
6/4/2022 2:30:00 AM 15.54 59.972 0.09 7.09 1.85 8.7
6/4/2022 2:45:00 AM 15.4 59.72 0.09 7.02 2.49 8.7
6/4/2022 3:00:00 AM 15.29 59.522 0.09 7.06 1.74 8.78
6/4/2022 3:15:00 AM 15.18 59.324 0.09 7.08 2.31 8.79
6/4/2022 3:30:00 AM 15.02 59.036 0.09 7.01 1.79 8.75
6/4/2022 3:45:00 AM 14.94 58.892 0.09 7.02 2.01 8.83
6/4/2022 4:00:00 AM 14.79 58.622 0.09 6.98 1.88 8.78
6/4/2022 4:15:00 AM 14.7 58.46 0.09 6.97 1.67 8.78
6/4/2022 4:30:00 AM 14.6 58.28 0.09 7.02 2.06 8.88
6/4/2022 4:45:00 AM 14.5 58.1 0.09 7.01 1.76 8.92
6/4/2022 5:00:00 AM 14.4 57.92 0.09 7.05 1.92 8.98
6/4/2022 5:15:00 AM 14.28 57.704 0.09 6.98 1.89 8.96
6/4/2022 5:30:00 AM 14.18 57.524 0.09 6.98 1.99 8.95
6/4/2022 5:45:00 AM 14.08 57.344 0.09 7.01 1.89 9.03
6/4/2022 6:00:00 AM 13.99 57.182 0.09 7 1.74 9.05
6/4/2022 6:15:00 AM 13.88 56.984 0.09 6.97 1.84 9.08
6/4/2022 6:30:00 AM 13.79 56.822 0.09 6.99 1.64 9.23
6/4/2022 6:45:00 AM 13.72 56.696 0.09 7.06 1.83 9.32
6/4/2022 7:00:00 AM 13.66 56.588 0.09 7.05 1.91 9.37
6/4/2022 7:15:00 AM 13.62 56.516 0.09 7.1 1.87 9.48
6/4/2022 7:30:00 AM 13.58 56.444 0.089 7.13 1.85 9.63
6/4/2022 7:45:00 AM 13.57 56.426 0.089 7.14 1.81 9.73
6/4/2022 8:00:00 AM 13.57 56.426 0.089 7.12 1.78 9.77
6/4/2022 8:15:00 AM 13.64 56.552 0.089 7.2 2.07 9.88
6/4/2022 8:30:00 AM 13.76 56.768 0.089 7.17 1.94 9.9
6/4/2022 8:45:00 AM 13.88 56.984 0.089 7.15 2.33 9.98
6/4/2022 9:00:00 AM 14.04 57.272 0.089 7.31 2.1 10.12
6/4/2022 9:15:00 AM 14.14 57.452 0.089 7.28 1.65 10.13
6/4/2022 9:30:00 AM 14.27 57.686 0.088 7.22 1.84 10.12
6/4/2022 9:45:00 AM 14.45 58.01 0.088 7.23 1.92 10.12
6/4/2022 10:00:00 AM 14.63 58.334 0.088 7.3 1.87 10.19
6/4/2022 10:15:00 AM 14.89 58.802 0.088 7.4 1.66 10.25
6/4/2022 10:30:00 AM 15.07 59.126 0.088 7.37 1.73 10.17
6/4/2022 10:45:00 AM 15.33 59.594 0.088 7.39 1.67 10.16
6/4/2022 11:00:00 AM 15.73 60.314 0.088 7.56 1.55 10.2
6/4/2022 11:15:00 AM 16.01 60.818 0.088 7.48 1.72 10.14
6/4/2022 11:30:00 AM 16.37 61.466 0.088 7.61 1.95 10.15
6/4/2022 11:45:00 AM 16.74 62.132 0.088 7.64 1.74 10.13
6/4/2022 12:00:00 PM 17.06 62.708 0.088 7.67 1.81 10.06
6/4/2022 12:15:00 PM 17.36 63.248 0.087 7.64 2.28 9.98
6/4/2022 12:30:00 PM 17.72 63.896 0.088 7.73 1.52 9.95
6/4/2022 12:45:00 PM 18.05 64.49 0.087 7.82 1.47 9.91
6/4/2022 1:00:00 PM 18.35 65.03 0.087 7.85 1.46 9.85
6/4/2022 1:15:00 PM 18.71 65.67799 0.087 7.96 1.57 9.81
6/4/2022 1:30:00 PM 18.97 66.146 0.087 7.97 1.73 9.74
6/4/2022 1:45:00 PM 19.23 66.614 0.087 8.05 1.57 9.68
6/4/2022 2:00:00 PM 19.52 67.136 0.087 8.08 1.68 9.63
6/4/2022 2:15:00 PM 19.66 67.388 0.087 7.97 4.71 9.5
6/4/2022 2:30:00 PM 19.81 67.658 0.087 7.93 1.43 9.43
6/4/2022 2:45:00 PM 19.92 67.856 0.087 7.94 1.65 9.34
6/4/2022 3:00:00 PM 20.03 68.054 0.087 7.93 1.5 9.3
6/4/2022 3:15:00 PM 20.15 68.27 0.087 7.88 1.52 9.23
6/4/2022 3:30:00 PM 20.22 68.396 0.087 7.82 1.52 9.15
6/4/2022 3:45:00 PM 20.29 68.522 0.088 7.82 1.44 9.1
6/4/2022 4:00:00 PM 20.3 68.54 0.088 7.8 1.44 9.05
6/4/2022 4:15:00 PM 20.24 68.432 0.088 7.64 1.54 8.96
6/4/2022 4:30:00 PM 20.22 68.396 0.088 7.64 1.41 8.92
6/4/2022 4:45:00 PM 20.19 68.342 0.088 7.6 1.59 8.87
6/4/2022 5:00:00 PM 20.07 68.126 0.089 7.52 1.52 8.82
6/4/2022 5:15:00 PM 20.02 68.036 0.089 7.54 1.47 8.78
6/4/2022 5:30:00 PM 19.9 67.82 0.089 7.46 1.36 8.71
6/4/2022 5:45:00 PM 19.75 67.55 0.089 7.4 1.41 8.66
6/4/2022 6:00:00 PM 19.63 67.334 0.089 7.38 1.39 8.61
6/4/2022 6:15:00 PM 19.53 67.154 0.089 7.34 1.5 8.56
6/4/2022 6:30:00 PM 19.37 66.866 0.09 7.3 1.59 8.49
6/4/2022 6:45:00 PM 19.21 66.578 0.09 7.29 1.55 8.41
6/4/2022 7:00:00 PM 19.07 66.326 0.09 7.29 1.61 8.38
6/4/2022 7:15:00 PM 18.89 66.002 0.09 7.27 2.12 8.33
6/4/2022 7:30:00 PM 18.75 65.75 0.09 7.24 1.54 8.32
6/4/2022 7:45:00 PM 18.58 65.444 0.09 7.21 1.37 8.27
6/4/2022 8:00:00 PM 18.46 65.228 0.091 7.22 1.4 8.27
6/4/2022 8:15:00 PM 18.29 64.922 0.091 7.16 1.53 8.24
6/4/2022 8:30:00 PM 18.11 64.598 0.091 7.16 1.49 8.23
6/4/2022 8:45:00 PM 17.96 64.328 0.091 7.16 1.65 8.2
6/4/2022 9:00:00 PM 17.77 63.986 0.092 7.14 1.74 8.19
6/4/2022 9:15:00 PM 17.56 63.608 0.092 7.13 1.77 8.18
6/4/2022 9:30:00 PM 17.35 63.23 0.092 7.13 1.7 8.18
6/4/2022 9:45:00 PM 17.18 62.924 0.092 7.11 1.64 8.17
6/4/2022 10:00:00 PM 17.01 62.618 0.092 7.12 1.9 8.26
6/4/2022 10:15:00 PM 16.83 62.294 0.092 7.11 1.69 8.3
6/4/2022 10:30:00 PM 16.65 61.97 0.092 7.13 1.64 8.32
6/4/2022 10:45:00 PM 16.49 61.682 0.092 7.08 1.52 8.37
6/4/2022 11:00:00 PM 16.32 61.376 0.093 7.13 1.66 8.41
6/4/2022 11:15:00 PM 16.16 61.088 0.093 7.06 1.84 8.44
6/4/2022 11:30:00 PM 15.98 60.764 0.093 7.06 1.67 8.48
6/4/2022 11:45:00 PM 15.79 60.422 0.093 7.05 1.56 8.46
6/5/2022 12:00:00 AM 15.64 60.152 0.093 7.02 1.97 8.54
6/5/2022 12:15:00 AM 15.5 59.9 0.093 7.06 1.64 8.58
6/5/2022 12:30:00 AM 15.36 59.648 0.093 7.1 1.59 8.61
6/5/2022 12:45:00 AM 15.21 59.378 0.093 7.09 1.68 8.69
6/5/2022 1:00:00 AM 15.04 59.072 0.093 7.06 1.67 8.71
6/5/2022 1:15:00 AM 14.88 58.784 0.093 7.06 1.91 8.7
6/5/2022 1:30:00 AM 14.74 58.532 0.093 7.05 1.62 8.77
6/5/2022 1:45:00 AM 14.6 58.28 0.093 6.95 1.6 8.84
6/5/2022 2:00:00 AM 14.45 58.01 0.093 7.07 1.67 8.84
6/5/2022 2:15:00 AM 14.29 57.722 0.093 7.02 1.52 8.88
6/5/2022 2:30:00 AM 14.13 57.434 0.093 6.99 1.5 8.89
6/5/2022 2:45:00 AM 13.98 57.164 0.093 6.98 1.78 8.9
6/5/2022 3:00:00 AM 13.85 56.93 0.093 7.01 1.74 8.95
6/5/2022 3:15:00 AM 13.72 56.696 0.093 6.96 1.9 8.98
6/5/2022 3:30:00 AM 13.56 56.408 0.093 6.93 1.85 8.99
6/5/2022 3:45:00 AM 13.45 56.21 0.093 7 1.58 9.1
6/5/2022 4:00:00 AM 13.33 55.994 0.093 7.05 1.79 9.17
6/5/2022 4:15:00 AM 13.16 55.688 0.093 6.88 1.6 9.11
6/5/2022 4:30:00 AM 13.07 55.526 0.093 7 1.74 9.22
6/5/2022 4:45:00 AM 12.94 55.292 0.093 6.94 1.76 9.23
6/5/2022 5:00:00 AM 12.8 55.04 0.093 6.93 1.55 9.2
6/5/2022 5:15:00 AM 12.69 54.842 0.093 6.95 1.44 9.21
6/5/2022 5:30:00 AM 12.61 54.698 0.093 6.92 1.54 9.34
6/5/2022 5:45:00 AM 12.5 54.5 0.093 6.92 1.69 9.31
6/5/2022 6:00:00 AM 12.39 54.302 0.093 6.96 1.59 9.42
6/5/2022 6:15:00 AM 12.28 54.104 0.093 7.01 1.71 9.5
6/5/2022 6:30:00 AM 12.19 53.942 0.093 7 1.42 9.6
6/5/2022 6:45:00 AM 12.12 53.816 0.093 6.94 1.43 9.61
6/5/2022 7:00:00 AM 12.04 53.672 0.092 6.94 1.62 9.69
6/5/2022 7:15:00 AM 12 53.6 0.092 7.05 1.61 9.92
6/5/2022 7:30:00 AM 11.95 53.51 0.092 7.06 1.49 9.97
6/5/2022 7:45:00 AM 11.98 53.564 0.092 7.13 1.4 10.17
6/5/2022 8:00:00 AM 11.98 53.564 0.092 7.04 1.57 10.26
6/5/2022 8:15:00 AM 12.02 53.636 0.091 7.14 1.53 10.35
6/5/2022 8:30:00 AM 12.09 53.762 0.091 7.22 1.53 10.53
6/5/2022 8:45:00 AM 12.19 53.942 0.091 7.14 1.57 10.59
6/5/2022 9:00:00 AM 12.26 54.068 0.091 7.17 1.43 10.62
6/5/2022 9:15:00 AM 12.36 54.248 0.091 7.18 1.45 10.74
6/5/2022 9:30:00 AM 12.47 54.446 0.09 7.23 1.4 10.75
6/5/2022 9:45:00 AM 12.65 54.77 0.09 7.28 1.4 10.8
6/5/2022 10:00:00 AM 12.76 54.968 0.09 7.22 1.53 10.78
6/5/2022 10:15:00 AM 12.94 55.292 0.09 7.31 1.39 10.8
6/5/2022 10:30:00 AM 13.15 55.67 0.09 7.38 1.48 10.79
6/5/2022 10:45:00 AM 13.42 56.156 0.09 7.42 1.43 10.75
6/5/2022 11:00:00 AM 13.75 56.75 0.09 7.29 1.33 10.6
6/5/2022 11:15:00 AM 14.13 57.434 0.09 7.42 1.34 10.63
6/5/2022 11:30:00 AM 14.39 57.902 0.09 7.37 1.37 10.51
6/5/2022 11:45:00 AM 14.77 58.586 0.089 7.62 1.41 10.54
6/5/2022 12:00:00 PM 15.09 59.162 0.09 7.62 1.28 10.48
6/5/2022 12:15:00 PM 15.33 59.594 0.089 7.56 1.5 10.38
6/5/2022 12:30:00 PM 15.73 60.314 0.09 7.7 2.54 10.35
6/5/2022 12:45:00 PM 16.01 60.818 0.089 7.6 1.43 10.2
6/5/2022 1:00:00 PM 16.45 61.61 0.089 7.62 1.73 10.11
6/5/2022 1:15:00 PM 16.82 62.276 0.089 7.78 1.35 10.06
6/5/2022 1:30:00 PM 17.2 62.96 0.089 7.71 1.51 9.98
6/5/2022 1:45:00 PM 17.54 63.572 0.089 7.8 1.39 9.9
6/5/2022 2:00:00 PM 17.85 64.13 0.089 7.86 1.4 9.75
6/5/2022 2:15:00 PM 18.05 64.49 0.089 7.8 1.55 9.68
6/5/2022 2:30:00 PM 18.27 64.886 0.09 7.73 1.31 9.51
6/5/2022 2:45:00 PM 18.54 65.372 0.089 7.78 1.45 9.5
6/5/2022 3:00:00 PM 18.71 65.67799 0.089 7.75 1.37 9.44
6/5/2022 3:15:00 PM 18.83 65.894 0.089 7.7 1.28 9.35
6/5/2022 3:30:00 PM 18.91 66.038 0.089 7.62 1.23 9.25
6/5/2022 3:45:00 PM 19.04 66.272 0.089 7.52 1.26 9.21
6/5/2022 4:00:00 PM 19.13 66.434 0.089 7.62 1.86 9.16
6/5/2022 4:15:00 PM 19.15 66.47 0.09 7.58 1.26 9.1
6/5/2022 4:30:00 PM 19.19 66.542 0.09 7.48 1.41 9.06
6/5/2022 4:45:00 PM 19.2 66.56 0.09 7.51 1.59 9.02
6/5/2022 5:00:00 PM 19.18 66.524 0.09 7.4 4.45 8.95
6/5/2022 5:15:00 PM 19.16 66.488 0.09 7.49 1.29 8.93
6/5/2022 5:30:00 PM 19.09 66.362 0.09 7.39 1.44 8.86
6/5/2022 5:45:00 PM 19.02 66.236 0.09 7.43 1.5 8.84
6/5/2022 6:00:00 PM 18.99 66.182 0.09 7.37 1.7 8.77
6/5/2022 6:15:00 PM 18.92 66.056 0.09 7.4 1.55 8.71
6/5/2022 6:30:00 PM 18.77 65.786 0.091 7.31 2.04 8.59
6/5/2022 6:45:00 PM 18.67 65.606 0.091 7.26 1.41 8.52
6/5/2022 7:00:00 PM 18.57 65.426 0.091 7.24 1.65 8.49
6/5/2022 7:15:00 PM 18.42 65.156 0.092 7.23 1.78 8.4
6/5/2022 7:30:00 PM 18.29 64.922 0.092 7.24 1.38 8.36
6/5/2022 7:45:00 PM 18.18 64.724 0.092 7.19 1.52 8.32
6/5/2022 8:00:00 PM 18.05 64.49 0.092 7.21 1.64 8.32
6/5/2022 8:15:00 PM 17.91 64.238 0.092 7.21 1.42 8.26
6/5/2022 8:30:00 PM 17.77 63.986 0.093 7.21 1.52 8.25
6/5/2022 8:45:00 PM 17.59 63.662 0.093 7.17 1.68 8.19
6/5/2022 9:00:00 PM 17.46 63.428 0.093 7.17 1.84 8.19
6/5/2022 9:15:00 PM 17.3 63.14 0.093 7.16 1.84 8.17
6/5/2022 9:30:00 PM 17.11 62.798 0.094 7.13 1.67 8.16
6/5/2022 9:45:00 PM 16.95 62.51 0.094 7.08 1.59 8.17
6/5/2022 10:00:00 PM 16.78 62.204 0.094 7.13 1.47 8.24
6/5/2022 10:15:00 PM 16.62 61.916 0.094 7.11 2.45 8.25
6/5/2022 10:30:00 PM 16.43 61.574 0.094 7.06 1.94 8.25
6/5/2022 10:45:00 PM 16.3 61.34 0.094 7.06 1.91 8.3
6/5/2022 11:00:00 PM 16.12 61.016 0.094 7.1 1.85 8.34
6/5/2022 11:15:00 PM 16.03 60.854 0.095 7.1 1.52 8.4
6/5/2022 11:30:00 PM 15.92 60.656 0.095 7.04 1.66 8.43
6/5/2022 11:45:00 PM 15.8 60.44 0.095 7.07 1.79 8.44
6/6/2022 12:00:00 AM 15.71 60.278 0.095 7.14 1.75 8.53
6/6/2022 12:15:00 AM 15.61 60.098 0.095 7.06 1.55 8.54
6/6/2022 12:30:00 AM 15.49 59.882 0.095 7.02 2.08 8.47
6/6/2022 12:45:00 AM 15.42 59.756 0.095 7.04 1.7 8.51
6/6/2022 1:00:00 AM 15.34 59.612 0.095 7.08 1.64 8.56
6/6/2022 1:15:00 AM 15.26 59.468 0.095 7.07 1.64 8.6
6/6/2022 1:30:00 AM 15.17 59.306 0.095 7.05 1.68 8.59
6/6/2022 1:45:00 AM 15.09 59.162 0.095 7.07 1.72 8.63
6/6/2022 2:00:00 AM 15.02 59.036 0.095 7 1.6 8.64
6/6/2022 2:15:00 AM 14.94 58.892 0.095 7.11 1.6 8.69
6/6/2022 2:30:00 AM 14.86 58.748 0.095 7.07 1.53 8.7
6/6/2022 2:45:00 AM 14.78 58.604 0.095 7.07 1.6 8.74
6/6/2022 3:00:00 AM 14.7 58.46 0.095 7.07 1.56 8.77
6/6/2022 3:15:00 AM 14.63 58.334 0.095 7.06 1.73 8.77
6/6/2022 3:30:00 AM 14.56 58.208 0.095 7.06 1.43 8.79
6/6/2022 3:45:00 AM 14.48 58.064 0.095 7.06 1.64 8.81
6/6/2022 4:00:00 AM 14.4 57.92 0.095 7.07 1.76 8.84
6/6/2022 4:15:00 AM 14.29 57.722 0.095 7.07 1.52 8.84
6/6/2022 4:30:00 AM 14.21 57.578 0.095 7.08 1.74 8.92
6/6/2022 4:45:00 AM 14.12 57.416 0.095 7.09 1.7 8.9
6/6/2022 5:00:00 AM 14.02 57.236 0.095 7.1 1.74 8.92
6/6/2022 5:15:00 AM 13.92 57.056 0.095 7.03 4.15 8.96
6/6/2022 5:30:00 AM 13.84 56.912 0.095 7.11 2.64 9.01
6/6/2022 5:45:00 AM 13.73 56.714 0.095 7.02 2.03 9.01
6/6/2022 6:00:00 AM 13.63 56.534 0.095 7.09 1.53 9.08
6/6/2022 6:15:00 AM 13.55 56.39 0.095 7.09 1.73 9.12
6/6/2022 6:30:00 AM 13.41 56.138 0.094 7.01 1.64 9.16
6/6/2022 6:45:00 AM 13.41 56.138 0.095 7.07 1.71 9.29
6/6/2022 7:00:00 AM 13.34 56.012 0.095 7.12 2.07 9.39
6/6/2022 7:15:00 AM 13.28 55.904 0.094 6.99 1.52 9.46
6/6/2022 7:30:00 AM 13.25 55.85 0.094 7.15 1.62 9.59
6/6/2022 7:45:00 AM 13.22 55.796 0.094 7.11 1.71 9.68
6/6/2022 8:00:00 AM 13.21 55.778 0.094 7.12 1.48 9.84
6/6/2022 8:15:00 AM 13.21 55.778 0.093 7.09 1.55 9.95
6/6/2022 8:30:00 AM 13.31 55.958 0.093 7.13 1.52 10.15
6/6/2022 8:45:00 AM 13.32 55.976 0.093 7.11 1.55 10.11
6/6/2022 9:00:00 AM 13.4 56.12 0.093 7.2 1.45 10.22
6/6/2022 9:15:00 AM 13.49 56.282 0.093 7.24 1.48 10.34
6/6/2022 9:30:00 AM 13.59 56.462 0.092 7.26 1.37 10.41
6/6/2022 9:45:00 AM 13.71 56.678 0.092 7.29 1.53 10.46
6/6/2022 10:00:00 AM 13.86 56.948 0.092 7.39 1.59 10.56
6/6/2022 10:15:00 AM 14.06 57.308 0.092 7.38 1.53 10.55
6/6/2022 10:30:00 AM 14.28 57.704 0.092 7.4 1.64 10.61
6/6/2022 10:45:00 AM 14.49 58.082 0.091 7.42 1.58 10.55
6/6/2022 11:00:00 AM 14.79 58.622 0.091 7.57 1.6 10.59
6/6/2022 11:15:00 AM 15.11 59.198 0.091 7.55 1.46 10.46
6/6/2022 11:30:00 AM 15.45 59.81 0.091 7.53 1.78 10.35
6/6/2022 11:45:00 AM 15.82 60.476 0.091 7.58 1.47 10.27
6/6/2022 12:00:00 PM 16.21 61.178 0.091 7.58 1.97 10.2
6/6/2022 12:15:00 PM 16.6 61.88 0.091 7.64 1.98 10.06
6/6/2022 12:30:00 PM 17.02 62.636 0.091 7.71 2.28 10.02
6/6/2022 12:45:00 PM 17.41 63.338 0.091 7.74 1.58 9.98
6/6/2022 1:00:00 PM 17.76 63.968 0.091 7.7 1.33 9.87
6/6/2022 1:15:00 PM 18.14 64.652 0.091 7.78 1.33 9.75
6/6/2022 1:30:00 PM 18.53 65.354 0.091 7.8 1.71 9.67
6/6/2022 1:45:00 PM 18.86 65.948 0.091 7.77 1.39 9.58
6/6/2022 2:00:00 PM 19.13 66.434 0.091 7.78 1.22 9.5
6/6/2022 2:15:00 PM 19.41 66.938 0.091 7.74 1.3 9.37
6/6/2022 2:30:00 PM 19.65 67.37 0.091 7.84 1.42 9.35
6/6/2022 2:45:00 PM 19.85 67.73 0.091 7.78 1.19 9.37
6/6/2022 3:00:00 PM 19.97 67.946 0.091 7.86 1.68 9.27
6/6/2022 3:15:00 PM 20.08 68.144 0.091 7.91 1.27 9.23
6/6/2022 3:30:00 PM 20.13 68.234 0.091 7.84 1.34 9.19
6/6/2022 3:45:00 PM 20.15 68.27 0.091 7.82 1.2 9.15
6/6/2022 4:00:00 PM 20.12 68.216 0.091 7.76 1.34 9.08
6/6/2022 4:15:00 PM 20.16 68.288 0.091 7.75 1.24 9.09
6/6/2022 4:30:00 PM 20.22 68.396 0.091 7.71 1.48 9.06
6/6/2022 4:45:00 PM 20.26 68.468 0.091 7.7 1.19 9.02
6/6/2022 5:00:00 PM 20.23 68.414 0.091 7.73 1.31 8.99
6/6/2022 5:15:00 PM 20.15 68.27 0.091 7.61 1.57 8.87
6/6/2022 5:30:00 PM 20.08 68.144 0.091 7.57 1.39 8.81
6/6/2022 5:45:00 PM 20 68 0.091 7.52 1.41 8.79
6/6/2022 6:00:00 PM 19.94 67.892 0.091 7.53 1.4 8.72
6/6/2022 6:15:00 PM 19.84 67.712 0.091 7.4 1.52 8.65
6/6/2022 6:30:00 PM 19.75 67.55 0.091 7.44 1.64 8.64
6/6/2022 6:45:00 PM 19.67 67.406 0.092 7.4 1.62 8.57
6/6/2022 7:00:00 PM 19.63 67.334 0.092 7.41 1.72 8.49
6/6/2022 7:15:00 PM 19.55 67.19 0.092 7.32 1.44 8.4
6/6/2022 7:30:00 PM 19.48 67.064 0.092 7.36 1.47 8.38
6/6/2022 7:45:00 PM 19.36 66.848 0.093 7.31 1.38 8.25
6/6/2022 8:00:00 PM 19.25 66.65 0.093 7.24 1.53 8.14
6/6/2022 8:15:00 PM 19.14 66.452 0.093 7.2 1.49 8
6/6/2022 8:30:00 PM 19 66.2 0.094 7.21 1.67 7.97
6/6/2022 8:45:00 PM 18.87 65.966 0.094 7.16 1.43 7.92
6/6/2022 9:00:00 PM 18.73 65.714 0.094 7.15 1.45 7.78
6/6/2022 9:15:00 PM 18.59 65.462 0.095 7.16 1.59 7.81
6/6/2022 9:30:00 PM 18.45 65.21 0.095 7.14 1.5 7.79
6/6/2022 9:45:00 PM 18.33 64.994 0.095 7.13 1.61 7.8
6/6/2022 10:00:00 PM 18.2 64.76 0.095 7.11 1.46 7.83
6/6/2022 10:15:00 PM 18.05 64.49 0.096 7.09 1.57 7.82
6/6/2022 10:30:00 PM 17.93 64.274 0.096 7.08 1.65 7.81
6/6/2022 10:45:00 PM 17.79 64.022 0.096 7.09 1.45 7.89
6/6/2022 11:00:00 PM 17.63 63.734 0.096 7.05 1.49 7.9
6/6/2022 11:15:00 PM 17.53 63.554 0.096 7.07 1.77 7.92
6/6/2022 11:30:00 PM 17.39 63.302 0.096 7.1 1.57 8.02
6/6/2022 11:45:00 PM 17.27 63.086 0.097 7.11 2.03 8.04
6/7/2022 12:00:00 AM 17.15 62.87 0.097 7.11 1.71 8.06
6/7/2022 12:15:00 AM 17.02 62.636 0.097 7.08 1.63 8.07
6/7/2022 12:30:00 AM 16.91 62.438 0.097 7.09 1.7 8.11
6/7/2022 12:45:00 AM 16.77 62.186 0.097 7.09 1.56 8.12
6/7/2022 1:00:00 AM 16.67 62.006 0.097 7.06 1.57 8.18
6/7/2022 1:15:00 AM 16.59 61.862 0.097 7.11 1.7 8.21
6/7/2022 1:30:00 AM 16.49 61.682 0.097 7.12 1.81 8.26
6/7/2022 1:45:00 AM 16.38 61.484 0.097 7.1 1.47 8.24
6/7/2022 2:00:00 AM 16.31 61.358 0.097 7.11 1.58 8.31
6/7/2022 2:15:00 AM 16.22 61.196 0.097 7.06 2.07 8.32
6/7/2022 2:30:00 AM 16.15 61.07 0.097 7.05 1.86 8.29
6/7/2022 2:45:00 AM 16.1 60.98 0.097 7.13 1.56 8.37
6/7/2022 3:00:00 AM 16.01 60.818 0.097 7.11 1.61 8.37
6/7/2022 3:15:00 AM 15.92 60.656 0.097 7.07 1.61 8.39
6/7/2022 3:30:00 AM 15.84 60.512 0.097 7.11 1.67 8.41
6/7/2022 3:45:00 AM 15.76 60.368 0.097 7.11 1.68 8.47
6/7/2022 4:00:00 AM 15.67 60.206 0.097 7.1 1.49 8.43
6/7/2022 4:15:00 AM 15.56 60.008 0.097 7.1 1.61 8.51
6/7/2022 4:30:00 AM 15.48 59.864 0.097 7.12 1.67 8.52
6/7/2022 4:45:00 AM 15.37 59.666 0.097 7.12 1.63 8.54
6/7/2022 5:00:00 AM 15.28 59.504 0.097 7.07 1.85 8.55
6/7/2022 5:15:00 AM 15.2 59.36 0.097 7.12 1.64 8.6
6/7/2022 5:30:00 AM 15.09 59.162 0.097 7.08 1.99 8.58
6/7/2022 5:45:00 AM 14.96 58.928 0.097 7.09 1.45 8.61
6/7/2022 6:00:00 AM 14.93 58.874 0.097 7.09 3.03 8.73
6/7/2022 6:15:00 AM 14.82 58.676 0.097 7.11 1.71 8.8
6/7/2022 6:30:00 AM 14.74 58.532 0.097 7.12 3.4 8.76
6/7/2022 6:45:00 AM 14.66 58.388 0.097 7.09 1.86 8.98
6/7/2022 7:00:00 AM 14.62 58.316 0.097 7.17 1.81 9.11
6/7/2022 7:15:00 AM 14.61 58.298 0.096 7.18 1.7 9.23
6/7/2022 7:30:00 AM 14.59 58.262 0.096 7.17 1.59 9.35
6/7/2022 7:45:00 AM 14.59 58.262 0.096 7.14 1.57 9.47
6/7/2022 8:00:00 AM 14.63 58.334 0.096 7.2 1.74 9.61
6/7/2022 8:15:00 AM 14.67 58.406 0.095 7.28 1.52 9.75
6/7/2022 8:30:00 AM 14.74 58.532 0.095 7.21 1.71 9.82
6/7/2022 8:45:00 AM 14.8 58.64 0.095 7.26 1.58 9.92
6/7/2022 9:00:00 AM 14.92 58.856 0.095 7.27 1.64 9.91
6/7/2022 9:15:00 AM 15.11 59.198 0.094 7.34 1.59 9.99
6/7/2022 9:30:00 AM 15.19 59.342 0.094 7.28 1.62 10.01
6/7/2022 9:45:00 AM 15.4 59.72 0.094 7.39 1.71 10.1
6/7/2022 10:00:00 AM 15.54 59.972 0.094 7.37 1.71 10.1
6/7/2022 10:15:00 AM 15.69 60.242 0.094 7.42 1.76 10.13
6/7/2022 10:30:00 AM 15.87 60.566 0.094 7.46 1.38 10.12
6/7/2022 10:45:00 AM 16 60.8 0.093 7.45 1.62 10.12
6/7/2022 11:00:00 AM 16.14 61.052 0.093 7.48 1.55 10.1
6/7/2022 11:15:00 AM 16.27 61.286 0.093 7.53 1.46 10.06
6/7/2022 11:30:00 AM 16.38 61.484 0.093 7.49 1.31 10.03
6/7/2022 11:45:00 AM 16.55 61.79 0.093 7.59 1.44 10.01
6/7/2022 12:00:00 PM 16.73 62.114 0.093 7.66 1.48 10.01
6/7/2022 12:15:00 PM 16.84 62.312 0.093 7.64 1.8 9.99
6/7/2022 12:30:00 PM 17.03 62.654 0.093 7.66 1.86 9.97
6/7/2022 12:45:00 PM 17.17 62.906 0.093 7.61 1.86 9.91
6/7/2022 1:00:00 PM 17.29 63.122 0.093 7.71 1.81 9.88
6/7/2022 1:15:00 PM 17.43 63.374 0.093 7.75 3.3 9.84
6/7/2022 1:30:00 PM 17.5 63.5 0.093 7.66 1.42 9.57
6/7/2022 1:45:00 PM 17.51 63.518 0.093 7.58 1.4 9.48
6/7/2022 2:00:00 PM 17.56 63.608 0.093 7.58 1.41 9.46
6/7/2022 2:15:00 PM 17.57 63.626 0.093 7.59 1.4 9.47
6/7/2022 2:30:00 PM 17.54 63.572 0.093 7.51 1.54 9.37
6/7/2022 2:45:00 PM 17.52 63.536 0.093 7.54 1.46 9.27
6/7/2022 3:00:00 PM 17.51 63.518 0.093 7.48 1.57 9.11
6/7/2022 3:15:00 PM 17.49 63.482 0.093 7.42 1.49 9.02
6/7/2022 3:30:00 PM 17.49 63.482 0.093 7.36 1.57 8.97
6/7/2022 3:45:00 PM 17.45 63.41 0.093 7.34 2.12 8.89
6/7/2022 4:00:00 PM 17.46 63.428 0.093 7.41 1.55 9.07
6/7/2022 4:15:00 PM 17.4 63.32 0.093 7.23 1.74 8.99
6/7/2022 4:30:00 PM 17.42 63.356 0.093 7.39 1.52 9.03
6/7/2022 4:45:00 PM 17.41 63.338 0.093 7.37 1.69 9.01
6/7/2022 5:00:00 PM 17.38 63.284 0.093 7.28 1.55 8.92
6/7/2022 5:15:00 PM 17.37 63.266 0.093 7.35 1.47 8.89
6/7/2022 5:30:00 PM 17.33 63.194 0.093 7.29 2.21 8.8
6/7/2022 5:45:00 PM 17.25 63.05 0.093 7.26 3.18 8.77
6/7/2022 6:00:00 PM 17.23 63.014 0.092 7.21 3.18 8.62
6/7/2022 6:15:00 PM 17.18 62.924 0.091 7.22 3.14 8.55
6/7/2022 6:30:00 PM 17.13 62.834 0.091 7.14 2.29 8.44
6/7/2022 6:45:00 PM 17.08 62.744 0.091 7.13 2.97 8.38
6/7/2022 7:00:00 PM 17.05 62.69 0.092 7.11 3.64 8.27
6/7/2022 7:15:00 PM 16.99 62.582 0.091 7.08 3.13 8.27
6/7/2022 7:30:00 PM 17.01 62.618 0.091 7.08 3.16 8.29
6/7/2022 7:45:00 PM 16.98 62.564 0.091 7.1 2.25 8.31
6/7/2022 8:00:00 PM 16.93 62.474 0.091 7.05 2.42 8.2
6/7/2022 8:15:00 PM 16.91 62.438 0.091 7.08 2.05 8.24
6/7/2022 8:30:00 PM 16.83 62.294 0.091 7.07 1.96 8.18
6/7/2022 8:45:00 PM 16.78 62.204 0.092 7.07 2.02 8.19
6/7/2022 9:00:00 PM 16.77 62.186 0.092 7.06 2 8.17
6/7/2022 9:15:00 PM 16.75 62.15 0.092 7.1 1.97 8.22
6/7/2022 9:30:00 PM 16.69 62.042 0.092 7.06 1.94 8.25
6/7/2022 9:45:00 PM 16.65 61.97 0.092 7.09 2.22 8.2
6/7/2022 10:00:00 PM 16.59 61.862 0.093 7.06 1.82 8.19
6/7/2022 10:15:00 PM 16.57 61.826 0.094 7.1 2.15 8.26
6/7/2022 10:30:00 PM 16.49 61.682 0.094 6.99 2.05 8.17
6/7/2022 10:45:00 PM 16.48 61.664 0.094 7.07 3.09 8.26
6/7/2022 11:00:00 PM 16.47 61.646 0.094 7.09 2.97 8.31
6/7/2022 11:15:00 PM 16.42 61.556 0.093 7.11 2.41 8.34
6/7/2022 11:30:00 PM 16.36 61.448 0.093 7.08 1.94 8.34
6/7/2022 11:45:00 PM 16.36 61.448 0.094 7.11 2.28 8.39
6/8/2022 12:00:00 AM 16.29 61.322 0.094 7.07 2.56 8.35
6/8/2022 12:15:00 AM 16.27 61.286 0.095 7.1 2.72 8.41
6/8/2022 12:30:00 AM 16.28 61.304 0.096 7.15 4 8.5
6/8/2022 12:45:00 AM 16.23 61.214 0.097 7.14 3.78 8.51
6/8/2022 1:00:00 AM 16.17 61.106 0.097 7.12 3.16 8.53
6/8/2022 1:15:00 AM 16.14 61.052 0.097 7.14 3.35 8.54
6/8/2022 1:30:00 AM 16.08 60.944 0.096 7.09 3.62 8.58
6/8/2022 1:45:00 AM 16.05 60.89 0.094 7.07 5.46 8.64
6/8/2022 2:00:00 AM 16.02 60.836 0.094 7.1 7.37 8.65
6/8/2022 2:15:00 AM 16.05 60.89 0.093 7.16 5.74 8.68
6/8/2022 2:30:00 AM 15.99 60.782 0.093 7.09 7.18 8.69
6/8/2022 2:45:00 AM 15.98 60.764 0.093 7.16 11.41 8.72
6/8/2022 3:00:00 AM 15.92 60.656 0.092 7.14 7.51 8.74
6/8/2022 3:15:00 AM 15.9 60.62 0.092 7.17 5.78 8.78
6/8/2022 3:30:00 AM 15.89 60.602 0.091 7.2 5.77 8.87
6/8/2022 3:45:00 AM 15.89 60.602 0.092 7.21 6.11 8.93
6/8/2022 4:00:00 AM 15.88 60.584 0.092 7.23 7.52 8.93
6/8/2022 4:15:00 AM 15.84 60.512 0.091 7.24 10.08 8.95
6/8/2022 4:30:00 AM 15.79 60.422 0.092 7.24 17.06 8.97
6/8/2022 4:45:00 AM 15.74 60.332 0.091 7.26 11.92 9.02
6/8/2022 5:00:00 AM 15.68 60.224 0.091 7.21 11.69 9.04
6/8/2022 5:15:00 AM 15.62 60.116 0.092 7.24 10.89 9.07
6/8/2022 5:30:00 AM 15.57 60.026 0.092 7.23 11.94 9.11
6/8/2022 5:45:00 AM 15.52 59.936 0.091 7.23 15.08 9.13
6/8/2022 6:00:00 AM 15.47 59.846 0.09 7.27 13.14 9.17
6/8/2022 6:15:00 AM 15.4 59.72 0.09 7.3 12.03 9.21
6/8/2022 6:30:00 AM 15.34 59.612 0.089 7.26 10.54 9.25
6/8/2022 6:45:00 AM 15.29 59.522 0.089 7.3 9.94 9.3
6/8/2022 7:00:00 AM 15.25 59.45 0.089 7.29 9.13 9.35
6/8/2022 7:15:00 AM 15.22 59.396 0.089 7.29 8.69 9.39
6/8/2022 7:30:00 AM 15.2 59.36 0.088 7.31 8.7 9.43
6/8/2022 7:45:00 AM 15.17 59.306 0.088 7.31 7.72 9.45
6/8/2022 8:00:00 AM 15.15 59.27 0.087 7.31 7.72 9.47
6/8/2022 8:15:00 AM 15.14 59.252 0.087 7.31 7.1 9.53
6/8/2022 8:30:00 AM 15.17 59.306 0.087 7.36 6.43 9.6
6/8/2022 8:45:00 AM 15.2 59.36 0.086 7.37 6.68 9.69
6/8/2022 9:00:00 AM 15.23 59.414 0.086 7.39 6.18 9.73
6/8/2022 9:15:00 AM 15.26 59.468 0.085 7.4 5.98 9.78
6/8/2022 9:30:00 AM 15.31 59.558 0.085 7.45 6.11 9.83
6/8/2022 9:45:00 AM 15.42 59.756 0.085 7.48 5.51 9.9
6/8/2022 10:00:00 AM 15.48 59.864 0.084 7.47 5.14 9.88
6/8/2022 10:15:00 AM 15.55 59.99 0.084 7.51 5.26 9.91
6/8/2022 10:30:00 AM 15.63 60.134 0.084 7.51 4.7 9.9
6/8/2022 10:45:00 AM 15.69 60.242 0.084 7.51 4.99 9.87
6/8/2022 11:00:00 AM 15.81 60.458 0.084 7.56 4.63 9.95
6/8/2022 11:15:00 AM 15.95 60.71 0.083 7.58 5.08 9.92
6/8/2022 11:30:00 AM 16.08 60.944 0.083 7.59 4.71 9.91
6/8/2022 11:45:00 AM 16.19 61.142 0.083 7.58 5.97 9.9
6/8/2022 12:00:00 PM 16.39 61.502 0.083 7.64 4.39 9.89
6/8/2022 12:15:00 PM 16.64 61.952 0.083 7.59 4.13 9.85
6/8/2022 12:30:00 PM 16.9 62.42 0.083 7.68 4.2 9.88
6/8/2022 12:45:00 PM 17.05 62.69 0.083 7.64 3.97 9.79
6/8/2022 1:00:00 PM 17.24 63.032 0.083 7.61 4.07 9.73
6/8/2022 1:15:00 PM 17.42 63.356 0.083 7.68 3.88 9.73
6/8/2022 1:30:00 PM 17.7 63.86 0.083 7.66 3.46 9.66
6/8/2022 1:45:00 PM 17.78 64.004 0.083 7.66 3.7 9.6
6/8/2022 2:00:00 PM 17.94 64.292 0.083 7.6 3.3 9.53
6/8/2022 2:15:00 PM 18.14 64.652 0.083 7.65 3.36 9.54
6/8/2022 2:30:00 PM 18.28 64.904 0.084 7.65 3.24 9.47
6/8/2022 2:45:00 PM 18.42 65.156 0.084 7.66 3.13 9.44
6/8/2022 3:00:00 PM 18.58 65.444 0.084 7.62 3.28 9.35
6/8/2022 3:15:00 PM 18.79 65.82201 0.084 7.64 2.86 9.32
6/8/2022 3:30:00 PM 18.87 65.966 0.084 7.6 2.9 9.23
6/8/2022 3:45:00 PM 18.91 66.038 0.084 7.57 2.93 9.15
6/8/2022 4:00:00 PM 19 66.2 0.084 7.56 3.38 9.11
6/8/2022 4:15:00 PM 19.12 66.416 0.084 7.51 3.12 9.06
6/8/2022 4:30:00 PM 19.14 66.452 0.084 7.48 2.68 8.97
6/8/2022 4:45:00 PM 19.21 66.578 0.085 7.51 3.13 8.98
6/8/2022 5:00:00 PM 19.18 66.524 0.085 7.4 2.69 8.87
6/8/2022 5:15:00 PM 19.2 66.56 0.085 7.46 2.89 8.86
6/8/2022 5:30:00 PM 19.13 66.434 0.085 7.43 3.08 8.84
6/8/2022 5:45:00 PM 19.05 66.29 0.085 7.39 2.9 8.84
6/8/2022 6:00:00 PM 19.01 66.218 0.085 7.4 2.78 8.87
6/8/2022 6:15:00 PM 18.96 66.128 0.085 7.44 2.48 8.88
6/8/2022 6:30:00 PM 18.92 66.056 0.085 7.47 2.78 8.89
6/8/2022 6:45:00 PM 18.82 65.876 0.085 7.43 2.51 8.83
6/8/2022 7:00:00 PM 18.69 65.642 0.085 7.36 2.52 8.73
6/8/2022 7:15:00 PM 18.6 65.48 0.086 7.39 2.49 8.75
6/8/2022 7:30:00 PM 18.49 65.282 0.086 7.32 2.42 8.65
6/8/2022 7:45:00 PM 18.36 65.048 0.086 7.28 2.78 8.64
6/8/2022 8:00:00 PM 18.3 64.94 0.086 7.28 2.5 8.61
6/8/2022 8:15:00 PM 18.18 64.724 0.086 7.25 2.65 8.57
6/8/2022 8:30:00 PM 18.07 64.526 0.086 7.19 2.34 8.52
6/8/2022 8:45:00 PM 17.97 64.346 0.087 7.25 2.49 8.52
6/8/2022 9:00:00 PM 17.87 64.166 0.087 7.22 2.41 8.47
6/8/2022 9:15:00 PM 17.76 63.968 0.087 7.16 2.86 8.44
6/8/2022 9:30:00 PM 17.68 63.824 0.087 7.2 3.13 8.47
6/8/2022 9:45:00 PM 17.57 63.626 0.087 7.15 2.36 8.43
6/8/2022 10:00:00 PM 17.46 63.428 0.087 7.16 2.62 8.46
6/8/2022 10:15:00 PM 17.38 63.284 0.087 7.15 2.33 8.43
6/8/2022 10:30:00 PM 17.29 63.122 0.087 7.16 2.73 8.48
6/8/2022 10:45:00 PM 17.19 62.942 0.087 7.12 2.7 8.47
6/8/2022 11:00:00 PM 17.13 62.834 0.087 7.14 2.72 8.57
6/8/2022 11:15:00 PM 17.04 62.672 0.088 7.19 3.26 8.56
6/8/2022 11:30:00 PM 16.93 62.474 0.087 7.14 3.06 8.53
6/8/2022 11:45:00 PM 16.87 62.366 0.088 7.16 2.51 8.56
6/9/2022 12:00:00 AM 16.79 62.222 0.088 7.15 2.93 8.58
6/9/2022 12:15:00 AM 16.71 62.078 0.088 7.11 2.77 8.58
6/9/2022 12:30:00 AM 16.65 61.97 0.088 7.2 2.91 8.66
6/9/2022 12:45:00 AM 16.54 61.772 0.088 7.1 2.66 8.56
6/9/2022 1:00:00 AM 16.49 61.682 0.088 7.14 2.65 8.62
6/9/2022 1:15:00 AM 16.44 61.592 0.088 7.16 2.71 8.69
6/9/2022 1:30:00 AM 16.33 61.394 0.088 7.09 2.74 8.6
6/9/2022 1:45:00 AM 16.29 61.322 0.088 7.15 2.5 8.65
6/9/2022 2:00:00 AM 16.24 61.232 0.088 7.16 2.84 8.64
6/9/2022 2:15:00 AM 16.15 61.07 0.088 7.07 3.78 8.66
6/9/2022 2:30:00 AM 16.11 60.998 0.087 7.13 2.79 8.72
6/9/2022 2:45:00 AM 16.05 60.89 0.087 7.14 2.8 8.73
6/9/2022 3:00:00 AM 16 60.8 0.087 7.14 2.83 8.73
6/9/2022 3:15:00 AM 15.95 60.71 0.087 7.16 3.35 8.79
6/9/2022 3:30:00 AM 15.88 60.584 0.086 7.12 3.12 8.77
6/9/2022 3:45:00 AM 15.81 60.458 0.085 7.16 4.4 8.79
6/9/2022 4:00:00 AM 15.74 60.332 0.084 7.16 4.85 8.81
6/9/2022 4:15:00 AM 15.69 60.242 0.084 7.19 7.56 8.88
6/9/2022 4:30:00 AM 15.64 60.152 0.084 7.17 15.28 8.85
6/9/2022 4:45:00 AM 15.6 60.08 0.083 7.16 15.33 8.86
6/9/2022 5:00:00 AM 15.54 59.972 0.082 7.17 13.63 8.9
6/9/2022 5:15:00 AM 15.48 59.864 0.082 7.16 7.55 8.91
6/9/2022 5:30:00 AM 15.45 59.81 0.082 7.16 7.07 8.91
6/9/2022 5:45:00 AM 15.41 59.738 0.083 7.18 6.78 8.99
6/9/2022 6:00:00 AM 15.38 59.684 0.083 7.19 8.13 9.03
6/9/2022 6:15:00 AM 15.33 59.594 0.083 7.18 10.72 9.07
6/9/2022 6:30:00 AM 15.27 59.486 0.084 7.15 14.97 9.15
6/9/2022 6:45:00 AM 15.19 59.342 0.086 7.15 16.95 9.21
6/9/2022 7:00:00 AM 15.11 59.198 0.086 7.18 33.64 9.25
6/9/2022 7:15:00 AM 15.04 59.072 0.083 7.17 32.57 9.29
6/9/2022 7:30:00 AM 15.01 59.018 0.081 7.2 29.14 9.32
6/9/2022 7:45:00 AM 15.02 59.036 0.079 7.22 35.62 9.35
6/9/2022 8:00:00 AM 15.04 59.072 0.078 7.2 37.19 9.37
6/9/2022 8:15:00 AM 15.04 59.072 0.077 7.21 36.38 9.38
6/9/2022 8:30:00 AM 15.1 59.18 0.077 7.22 33.81 9.39
6/9/2022 8:45:00 AM 15.19 59.342 0.077 7.23 33.07 9.39
6/9/2022 9:00:00 AM 15.29 59.522 0.076 7.23 30.14 9.38
6/9/2022 9:15:00 AM 15.35 59.63 0.076 7.24 29.94 9.37
6/9/2022 9:30:00 AM 15.44 59.792 0.075 7.24 28.55 9.37
6/9/2022 9:45:00 AM 15.52 59.936 0.074 7.24 25.6 9.38
6/9/2022 10:00:00 AM 15.55 59.99 0.074 7.25 24.15 9.38
6/9/2022 10:15:00 AM 15.63 60.134 0.073 7.27 23.78 9.4
6/9/2022 10:30:00 AM 15.77 60.386 0.072 7.29 23.52 9.45
6/9/2022 10:45:00 AM 15.88 60.584 0.071 7.3 23.58 9.48
6/9/2022 11:00:00 AM 16.03 60.854 0.07 7.31 22.99 9.49
6/9/2022 11:15:00 AM 16.26 61.268 0.07 7.31 23.87 9.5
6/9/2022 11:30:00 AM 16.5 61.7 0.069 7.35 20.2 9.51
6/9/2022 11:45:00 AM 16.63 61.934 0.069 7.36 17.9 9.48
6/9/2022 12:00:00 PM 16.7 62.06 0.069 7.36 16.94 9.44
6/9/2022 12:15:00 PM 16.78 62.204 0.069 7.37 16.19 9.42
6/9/2022 12:30:00 PM 16.94 62.492 0.069 7.38 15 9.43
6/9/2022 12:45:00 PM 17.03 62.654 0.069 7.4 14.33 9.44
6/9/2022 1:00:00 PM 17.22 62.996 0.07 7.42 13.04 9.43
6/9/2022 1:15:00 PM 17.47 63.446 0.07 7.43 12.89 9.41
6/9/2022 1:30:00 PM 17.65 63.77 0.071 7.49 11.96 9.44
6/9/2022 1:45:00 PM 17.74 63.932 0.071 7.48 11.39 9.41
6/9/2022 2:00:00 PM 17.94 64.292 0.072 7.5 10.72 9.38
6/9/2022 2:15:00 PM 17.85 64.13 0.072 7.47 11.17 9.29
6/9/2022 2:30:00 PM 17.83 64.094 0.073 7.44 10.25 9.27
6/9/2022 2:45:00 PM 17.87 64.166 0.073 7.45 10.03 9.25
6/9/2022 3:00:00 PM 17.82 64.076 0.073 7.44 9.46 9.21
6/9/2022 3:15:00 PM 17.86 64.148 0.074 7.42 8.92 9.19
6/9/2022 3:30:00 PM 17.86 64.148 0.074 7.43 8.76 9.17
6/9/2022 3:45:00 PM 17.86 64.148 0.074 7.42 8.39 9.19
6/9/2022 4:00:00 PM 17.87 64.166 0.074 7.46 8.05 9.24
6/9/2022 4:15:00 PM 17.87 64.166 0.075 7.45 7.9 9.22
6/9/2022 4:30:00 PM 17.81 64.058 0.075 7.41 7.64 9.14
6/9/2022 4:45:00 PM 17.82 64.076 0.075 7.41 7.87 9.14
6/9/2022 5:00:00 PM 17.82 64.076 0.075 7.41 7.02 9.17
6/9/2022 5:15:00 PM 17.75 63.95 0.075 7.4 7.22 9.15
6/9/2022 5:30:00 PM 17.75 63.95 0.075 7.41 7.01 9.15
6/9/2022 5:45:00 PM 17.78 64.004 0.075 7.41 6.67 9.17
6/9/2022 6:00:00 PM 17.74 63.932 0.076 7.41 6.55 9.14
6/9/2022 6:15:00 PM 17.68 63.824 0.076 7.38 6.46 9.09
6/9/2022 6:30:00 PM 17.65 63.77 0.076 7.35 6.28 9.09
6/9/2022 6:45:00 PM 17.6 63.68 0.076 7.34 6.5 9.05
6/9/2022 7:00:00 PM 17.5 63.5 0.076 7.33 6.12 9.03
6/9/2022 7:15:00 PM 17.39 63.302 0.076 7.33 5.98 9.03
6/9/2022 7:30:00 PM 17.29 63.122 0.076 7.31 6.28 9.02
6/9/2022 7:45:00 PM 17.2 62.96 0.076 7.28 5.96 9
6/9/2022 8:00:00 PM 17.11 62.798 0.077 7.28 5.63 8.99
6/9/2022 8:15:00 PM 17.03 62.654 0.077 7.27 6.09 8.99
6/9/2022 8:30:00 PM 16.94 62.492 0.077 7.25 5.62 8.98
6/9/2022 8:45:00 PM 16.86 62.348 0.077 7.24 5.63 8.98
6/9/2022 9:00:00 PM 16.77 62.186 0.077 7.21 5.62 8.97
6/9/2022 9:15:00 PM 16.67 62.006 0.077 7.22 6.18 8.98
6/9/2022 9:30:00 PM 16.58 61.844 0.077 7.21 6.17 8.99
6/9/2022 9:45:00 PM 16.49 61.682 0.077 7.19 5.73 9
6/9/2022 10:00:00 PM 16.4 61.52 0.077 7.19 5.78 9.01
6/9/2022 10:15:00 PM 16.31 61.358 0.077 7.19 5.68 9.03
6/9/2022 10:30:00 PM 16.23 61.214 0.077 7.17 5.46 9.05
6/9/2022 10:45:00 PM 16.15 61.07 0.077 7.18 5.64 9.06
6/9/2022 11:00:00 PM 16.07 60.926 0.077 7.18 5.91 9.08
6/9/2022 11:15:00 PM 15.99 60.782 0.077 7.18 5.59 9.1
6/9/2022 11:30:00 PM 15.91 60.638 0.077 7.18 5.69 9.11
6/9/2022 11:45:00 PM 15.83 60.494 0.077 7.17 5.46 9.12
6/10/2022 12:00:00 AM 15.74 60.332 0.078 7.18 5.76 9.15
6/10/2022 12:15:00 AM 15.66 60.188 0.078 7.17 5.18 9.16
6/10/2022 12:30:00 AM 15.58 60.044 0.078 7.16 5.25 9.17
6/10/2022 12:45:00 AM 15.5 59.9 0.078 7.17 5.38 9.19
6/10/2022 1:00:00 AM 15.41 59.738 0.078 7.16 5.24 9.2
6/10/2022 1:15:00 AM 15.33 59.594 0.078 7.16 5.11 9.22
6/10/2022 1:30:00 AM 15.25 59.45 0.078 7.17 5.28 9.24
6/10/2022 1:45:00 AM 15.17 59.306 0.078 7.16 5.19 9.26
6/10/2022 2:00:00 AM 15.09 59.162 0.078 7.16 4.89 9.28
6/10/2022 2:15:00 AM 15 59 0.078 7.17 4.88 9.29
6/10/2022 2:30:00 AM 14.92 58.856 0.078 7.16 4.81 9.3
6/10/2022 2:45:00 AM 14.84 58.712 0.078 7.17 4.86 9.32
6/10/2022 3:00:00 AM 14.76 58.568 0.078 7.17 4.92 9.34
6/10/2022 3:15:00 AM 14.69 58.442 0.078 7.17 4.82 9.36
6/10/2022 3:30:00 AM 14.61 58.298 0.078 7.18 4.84 9.38
6/10/2022 3:45:00 AM 14.53 58.154 0.078 7.18 4.84 9.39
6/10/2022 4:00:00 AM 14.46 58.028 0.078 7.18 4.81 9.4
6/10/2022 4:15:00 AM 14.38 57.884 0.078 7.18 4.52 9.43
6/10/2022 4:30:00 AM 14.31 57.758 0.078 7.18 4.98 9.44
6/10/2022 4:45:00 AM 14.24 57.632 0.078 7.17 4.45 9.46
6/10/2022 5:00:00 AM 14.18 57.524 0.078 7.18 4.59 9.47
6/10/2022 5:15:00 AM 14.12 57.416 0.078 7.18 4.83 9.49
6/10/2022 5:30:00 AM 14.04 57.272 0.078 7.18 4.71 9.51
6/10/2022 5:45:00 AM 13.96 57.128 0.078 7.18 4.4 9.53
6/10/2022 6:00:00 AM 13.89 57.002 0.078 7.2 4.26 9.57
6/10/2022 6:15:00 AM 13.82 56.876 0.078 7.2 3.97 9.62
6/10/2022 6:30:00 AM 13.76 56.768 0.078 7.14 4.24 9.67
6/10/2022 6:45:00 AM 13.7 56.66 0.078 7.17 3.96 9.72
6/10/2022 7:00:00 AM 13.66 56.588 0.078 7.19 3.69 9.76
6/10/2022 7:15:00 AM 13.63 56.534 0.078 7.21 3.73 9.8
6/10/2022 7:30:00 AM 13.62 56.516 0.078 7.23 3.57 9.84
6/10/2022 7:45:00 AM 13.62 56.516 0.078 7.25 3.32 9.89
6/10/2022 8:00:00 AM 13.64 56.552 0.078 7.26 3.57 9.92
6/10/2022 8:15:00 AM 13.68 56.624 0.078 7.29 3.52 9.96
6/10/2022 8:30:00 AM 13.74 56.732 0.078 7.3 3.37 9.99
6/10/2022 8:45:00 AM 13.82 56.876 0.078 7.3 2.97 10.03
6/10/2022 9:00:00 AM 13.93 57.074 0.078 7.33 3.38 10.07
6/10/2022 9:15:00 AM 14.04 57.272 0.078 7.36 3.24 10.09
6/10/2022 9:30:00 AM 14.16 57.488 0.078 7.39 3.11 10.11
6/10/2022 9:45:00 AM 14.28 57.704 0.078 7.41 2.96 10.12
6/10/2022 10:00:00 AM 14.41 57.938 0.078 7.42 2.79 10.15
6/10/2022 10:15:00 AM 14.55 58.19 0.078 7.4 3.11 10.11
6/10/2022 10:30:00 AM 14.79 58.622